<?xml version="1.0" encoding="UTF-8" standalone="no" ?>
<gpx xmlns="http://www.topografix.com/GPX/1/1" xmlns:xsi="http://www.w3.org/2001/XMLSchema-instance" xsi:schemaLocation="http://www.topografix.com/GPX/1/1 http://www.topografix.com/GPX/1/1/gpx.xsd" version="1.1" creator="VisuGPX - https://www.visugpx.com">
  <metadata>
    <name>toulouse eaunes</name>
    <desc><![CDATA[peu de voitures après pins justaret.parcours assez plat une petite côte avant eaunes]]></desc>
  </metadata>
  <trk>
    <name><![CDATA[Eaunes]]></name>
    <trkseg>
      <trkpt lat="43.58959" lon="1.47698">
        <ele>188.08</ele>
        <time>2017-07-02T06:29:19Z</time>
      </trkpt>
      <trkpt lat="43.58959" lon="1.47698">
        <ele>188.08</ele>
        <time>2017-07-02T06:29:21Z</time>
      </trkpt>
      <trkpt lat="43.58962" lon="1.47696">
        <ele>188.08</ele>
        <time>2017-07-02T06:29:41Z</time>
      </trkpt>
      <trkpt lat="43.5896" lon="1.47697">
        <ele>188.08</ele>
        <time>2017-07-02T06:31:22Z</time>
      </trkpt>
      <trkpt lat="43.58965" lon="1.47687">
        <ele>188.08</ele>
        <time>2017-07-02T06:31:26Z</time>
      </trkpt>
      <trkpt lat="43.58983" lon="1.47651">
        <ele>188.08</ele>
        <time>2017-07-02T06:31:33Z</time>
      </trkpt>
      <trkpt lat="43.59002" lon="1.47608">
        <ele>186.15</ele>
        <time>2017-07-02T06:31:39Z</time>
      </trkpt>
      <trkpt lat="43.59022" lon="1.47538">
        <ele>182.79</ele>
        <time>2017-07-02T06:31:47Z</time>
      </trkpt>
      <trkpt lat="43.5904" lon="1.47456">
        <ele>179.9</ele>
        <time>2017-07-02T06:31:57Z</time>
      </trkpt>
      <trkpt lat="43.59053" lon="1.47372">
        <ele>177.02</ele>
        <time>2017-07-02T06:32:07Z</time>
      </trkpt>
      <trkpt lat="43.59068" lon="1.47253">
        <ele>174.14</ele>
        <time>2017-07-02T06:32:20Z</time>
      </trkpt>
      <trkpt lat="43.59069" lon="1.47237">
        <ele>173.17</ele>
        <time>2017-07-02T06:32:22Z</time>
      </trkpt>
      <trkpt lat="43.5907" lon="1.47229">
        <ele>173.17</ele>
        <time>2017-07-02T06:32:23Z</time>
      </trkpt>
      <trkpt lat="43.59072" lon="1.47198">
        <ele>172.21</ele>
        <time>2017-07-02T06:32:27Z</time>
      </trkpt>
      <trkpt lat="43.59078" lon="1.47166">
        <ele>172.21</ele>
        <time>2017-07-02T06:32:31Z</time>
      </trkpt>
      <trkpt lat="43.59086" lon="1.47101">
        <ele>169.81</ele>
        <time>2017-07-02T06:32:40Z</time>
      </trkpt>
      <trkpt lat="43.59092" lon="1.47071">
        <ele>169.81</ele>
        <time>2017-07-02T06:32:44Z</time>
      </trkpt>
      <trkpt lat="43.59094" lon="1.47047">
        <ele>168.85</ele>
        <time>2017-07-02T06:32:47Z</time>
      </trkpt>
      <trkpt lat="43.5911" lon="1.46946">
        <ele>167.89</ele>
        <time>2017-07-02T06:33:00Z</time>
      </trkpt>
      <trkpt lat="43.5911" lon="1.46939">
        <ele>167.89</ele>
        <time>2017-07-02T06:33:01Z</time>
      </trkpt>
      <trkpt lat="43.59111" lon="1.46933">
        <ele>167.89</ele>
        <time>2017-07-02T06:33:02Z</time>
      </trkpt>
      <trkpt lat="43.59114" lon="1.46928">
        <ele>166.93</ele>
        <time>2017-07-02T06:33:03Z</time>
      </trkpt>
      <trkpt lat="43.59117" lon="1.46924">
        <ele>166.93</ele>
        <time>2017-07-02T06:33:04Z</time>
      </trkpt>
      <trkpt lat="43.5912" lon="1.46921">
        <ele>166.93</ele>
        <time>2017-07-02T06:33:05Z</time>
      </trkpt>
      <trkpt lat="43.59144" lon="1.46888">
        <ele>166.93</ele>
        <time>2017-07-02T06:33:12Z</time>
      </trkpt>
      <trkpt lat="43.59145" lon="1.46882">
        <ele>166.93</ele>
        <time>2017-07-02T06:33:13Z</time>
      </trkpt>
      <trkpt lat="43.59145" lon="1.46877">
        <ele>166.93</ele>
        <time>2017-07-02T06:33:14Z</time>
      </trkpt>
      <trkpt lat="43.59143" lon="1.46871">
        <ele>166.93</ele>
        <time>2017-07-02T06:33:15Z</time>
      </trkpt>
      <trkpt lat="43.59141" lon="1.46866">
        <ele>166.93</ele>
        <time>2017-07-02T06:33:16Z</time>
      </trkpt>
      <trkpt lat="43.59138" lon="1.46859">
        <ele>166.93</ele>
        <time>2017-07-02T06:33:17Z</time>
      </trkpt>
      <trkpt lat="43.59136" lon="1.46853">
        <ele>166.93</ele>
        <time>2017-07-02T06:33:18Z</time>
      </trkpt>
      <trkpt lat="43.59136" lon="1.46846">
        <ele>166.93</ele>
        <time>2017-07-02T06:33:19Z</time>
      </trkpt>
      <trkpt lat="43.59135" lon="1.46839">
        <ele>166.93</ele>
        <time>2017-07-02T06:33:20Z</time>
      </trkpt>
      <trkpt lat="43.59135" lon="1.46831">
        <ele>166.93</ele>
        <time>2017-07-02T06:33:21Z</time>
      </trkpt>
      <trkpt lat="43.59136" lon="1.46823">
        <ele>166.93</ele>
        <time>2017-07-02T06:33:22Z</time>
      </trkpt>
      <trkpt lat="43.59137" lon="1.46815">
        <ele>166.93</ele>
        <time>2017-07-02T06:33:23Z</time>
      </trkpt>
      <trkpt lat="43.59159" lon="1.46724">
        <ele>165</ele>
        <time>2017-07-02T06:33:35Z</time>
      </trkpt>
      <trkpt lat="43.59169" lon="1.46681">
        <ele>164.04</ele>
        <time>2017-07-02T06:33:41Z</time>
      </trkpt>
      <trkpt lat="43.59166" lon="1.46675">
        <ele>164.04</ele>
        <time>2017-07-02T06:33:42Z</time>
      </trkpt>
      <trkpt lat="43.59163" lon="1.4667">
        <ele>164.04</ele>
        <time>2017-07-02T06:33:43Z</time>
      </trkpt>
      <trkpt lat="43.59159" lon="1.46667">
        <ele>164.04</ele>
        <time>2017-07-02T06:33:44Z</time>
      </trkpt>
      <trkpt lat="43.59154" lon="1.46664">
        <ele>164.04</ele>
        <time>2017-07-02T06:33:45Z</time>
      </trkpt>
      <trkpt lat="43.59149" lon="1.46662">
        <ele>164.04</ele>
        <time>2017-07-02T06:33:46Z</time>
      </trkpt>
      <trkpt lat="43.59145" lon="1.46659">
        <ele>164.04</ele>
        <time>2017-07-02T06:33:47Z</time>
      </trkpt>
      <trkpt lat="43.59086" lon="1.46615">
        <ele>163.08</ele>
        <time>2017-07-02T06:33:58Z</time>
      </trkpt>
      <trkpt lat="43.59074" lon="1.46608">
        <ele>163.08</ele>
        <time>2017-07-02T06:34:00Z</time>
      </trkpt>
      <trkpt lat="43.59042" lon="1.46587">
        <ele>162.12</ele>
        <time>2017-07-02T06:34:06Z</time>
      </trkpt>
      <trkpt lat="43.59036" lon="1.46587">
        <ele>161.16</ele>
        <time>2017-07-02T06:34:07Z</time>
      </trkpt>
      <trkpt lat="43.59025" lon="1.46588">
        <ele>161.16</ele>
        <time>2017-07-02T06:34:09Z</time>
      </trkpt>
      <trkpt lat="43.59013" lon="1.46587">
        <ele>161.16</ele>
        <time>2017-07-02T06:34:11Z</time>
      </trkpt>
      <trkpt lat="43.59006" lon="1.46585">
        <ele>160.2</ele>
        <time>2017-07-02T06:34:12Z</time>
      </trkpt>
      <trkpt lat="43.58981" lon="1.46573">
        <ele>160.2</ele>
        <time>2017-07-02T06:34:16Z</time>
      </trkpt>
      <trkpt lat="43.58951" lon="1.46556">
        <ele>159.24</ele>
        <time>2017-07-02T06:34:21Z</time>
      </trkpt>
      <trkpt lat="43.58926" lon="1.46543">
        <ele>157.79</ele>
        <time>2017-07-02T06:34:25Z</time>
      </trkpt>
      <trkpt lat="43.58879" lon="1.46508">
        <ele>155.87</ele>
        <time>2017-07-02T06:34:33Z</time>
      </trkpt>
      <trkpt lat="43.58822" lon="1.4645">
        <ele>152.99</ele>
        <time>2017-07-02T06:34:44Z</time>
      </trkpt>
      <trkpt lat="43.5877" lon="1.46408">
        <ele>152.03</ele>
        <time>2017-07-02T06:34:54Z</time>
      </trkpt>
      <trkpt lat="43.58734" lon="1.46376">
        <ele>151.06</ele>
        <time>2017-07-02T06:35:01Z</time>
      </trkpt>
      <trkpt lat="43.58725" lon="1.46367">
        <ele>150.1</ele>
        <time>2017-07-02T06:35:03Z</time>
      </trkpt>
      <trkpt lat="43.587" lon="1.46341">
        <ele>150.1</ele>
        <time>2017-07-02T06:35:08Z</time>
      </trkpt>
      <trkpt lat="43.58684" lon="1.4632">
        <ele>149.14</ele>
        <time>2017-07-02T06:35:12Z</time>
      </trkpt>
      <trkpt lat="43.58683" lon="1.46313">
        <ele>149.14</ele>
        <time>2017-07-02T06:35:13Z</time>
      </trkpt>
      <trkpt lat="43.58686" lon="1.46305">
        <ele>149.14</ele>
        <time>2017-07-02T06:35:14Z</time>
      </trkpt>
      <trkpt lat="43.58686" lon="1.46299">
        <ele>149.14</ele>
        <time>2017-07-02T06:35:15Z</time>
      </trkpt>
      <trkpt lat="43.58686" lon="1.46293">
        <ele>149.14</ele>
        <time>2017-07-02T06:35:16Z</time>
      </trkpt>
      <trkpt lat="43.58706" lon="1.46224">
        <ele>147.22</ele>
        <time>2017-07-02T06:35:27Z</time>
      </trkpt>
      <trkpt lat="43.58736" lon="1.46153">
        <ele>148.18</ele>
        <time>2017-07-02T06:35:38Z</time>
      </trkpt>
      <trkpt lat="43.58768" lon="1.46079">
        <ele>148.18</ele>
        <time>2017-07-02T06:35:50Z</time>
      </trkpt>
      <trkpt lat="43.58771" lon="1.46068">
        <ele>148.18</ele>
        <time>2017-07-02T06:35:52Z</time>
      </trkpt>
      <trkpt lat="43.58772" lon="1.46062">
        <ele>148.18</ele>
        <time>2017-07-02T06:35:53Z</time>
      </trkpt>
      <trkpt lat="43.58773" lon="1.46056">
        <ele>148.18</ele>
        <time>2017-07-02T06:35:54Z</time>
      </trkpt>
      <trkpt lat="43.58773" lon="1.4605">
        <ele>148.18</ele>
        <time>2017-07-02T06:35:55Z</time>
      </trkpt>
      <trkpt lat="43.58772" lon="1.46044">
        <ele>148.18</ele>
        <time>2017-07-02T06:35:56Z</time>
      </trkpt>
      <trkpt lat="43.58771" lon="1.46031">
        <ele>148.18</ele>
        <time>2017-07-02T06:35:58Z</time>
      </trkpt>
      <trkpt lat="43.5877" lon="1.46025">
        <ele>148.18</ele>
        <time>2017-07-02T06:35:59Z</time>
      </trkpt>
      <trkpt lat="43.58768" lon="1.46018">
        <ele>148.18</ele>
        <time>2017-07-02T06:36:00Z</time>
      </trkpt>
      <trkpt lat="43.58766" lon="1.46011">
        <ele>148.18</ele>
        <time>2017-07-02T06:36:01Z</time>
      </trkpt>
      <trkpt lat="43.58763" lon="1.46004">
        <ele>149.14</ele>
        <time>2017-07-02T06:36:02Z</time>
      </trkpt>
      <trkpt lat="43.58759" lon="1.45998">
        <ele>149.14</ele>
        <time>2017-07-02T06:36:03Z</time>
      </trkpt>
      <trkpt lat="43.58755" lon="1.45992">
        <ele>149.14</ele>
        <time>2017-07-02T06:36:04Z</time>
      </trkpt>
      <trkpt lat="43.5875" lon="1.45986">
        <ele>149.14</ele>
        <time>2017-07-02T06:36:05Z</time>
      </trkpt>
      <trkpt lat="43.58741" lon="1.45972">
        <ele>149.14</ele>
        <time>2017-07-02T06:36:07Z</time>
      </trkpt>
      <trkpt lat="43.58737" lon="1.45964">
        <ele>149.14</ele>
        <time>2017-07-02T06:36:08Z</time>
      </trkpt>
      <trkpt lat="43.58723" lon="1.45934">
        <ele>148.18</ele>
        <time>2017-07-02T06:36:12Z</time>
      </trkpt>
      <trkpt lat="43.5872" lon="1.45927">
        <ele>148.18</ele>
        <time>2017-07-02T06:36:13Z</time>
      </trkpt>
      <trkpt lat="43.58717" lon="1.45919">
        <ele>147.22</ele>
        <time>2017-07-02T06:36:14Z</time>
      </trkpt>
      <trkpt lat="43.58697" lon="1.45875">
        <ele>145.78</ele>
        <time>2017-07-02T06:36:20Z</time>
      </trkpt>
      <trkpt lat="43.58694" lon="1.45868">
        <ele>145.78</ele>
        <time>2017-07-02T06:36:21Z</time>
      </trkpt>
      <trkpt lat="43.58689" lon="1.45857">
        <ele>144.82</ele>
        <time>2017-07-02T06:36:23Z</time>
      </trkpt>
      <trkpt lat="43.58667" lon="1.45808">
        <ele>144.82</ele>
        <time>2017-07-02T06:36:31Z</time>
      </trkpt>
      <trkpt lat="43.58648" lon="1.45764">
        <ele>144.82</ele>
        <time>2017-07-02T06:36:37Z</time>
      </trkpt>
      <trkpt lat="43.58619" lon="1.45694">
        <ele>143.85</ele>
        <time>2017-07-02T06:36:47Z</time>
      </trkpt>
      <trkpt lat="43.58584" lon="1.45604">
        <ele>142.89</ele>
        <time>2017-07-02T06:36:58Z</time>
      </trkpt>
      <trkpt lat="43.58565" lon="1.45562">
        <ele>142.89</ele>
        <time>2017-07-02T06:37:04Z</time>
      </trkpt>
      <trkpt lat="43.58563" lon="1.45556">
        <ele>142.89</ele>
        <time>2017-07-02T06:37:05Z</time>
      </trkpt>
      <trkpt lat="43.58541" lon="1.45505">
        <ele>142.89</ele>
        <time>2017-07-02T06:37:13Z</time>
      </trkpt>
      <trkpt lat="43.58537" lon="1.455">
        <ele>142.89</ele>
        <time>2017-07-02T06:37:14Z</time>
      </trkpt>
      <trkpt lat="43.58535" lon="1.45492">
        <ele>142.89</ele>
        <time>2017-07-02T06:37:15Z</time>
      </trkpt>
      <trkpt lat="43.5852" lon="1.45445">
        <ele>142.89</ele>
        <time>2017-07-02T06:37:21Z</time>
      </trkpt>
      <trkpt lat="43.58515" lon="1.45438">
        <ele>142.89</ele>
        <time>2017-07-02T06:37:22Z</time>
      </trkpt>
      <trkpt lat="43.58511" lon="1.45431">
        <ele>142.89</ele>
        <time>2017-07-02T06:37:23Z</time>
      </trkpt>
      <trkpt lat="43.58508" lon="1.45424">
        <ele>142.89</ele>
        <time>2017-07-02T06:37:24Z</time>
      </trkpt>
      <trkpt lat="43.58505" lon="1.45416">
        <ele>142.89</ele>
        <time>2017-07-02T06:37:25Z</time>
      </trkpt>
      <trkpt lat="43.5848" lon="1.45343">
        <ele>142.89</ele>
        <time>2017-07-02T06:37:35Z</time>
      </trkpt>
      <trkpt lat="43.5848" lon="1.45338">
        <ele>142.89</ele>
        <time>2017-07-02T06:37:36Z</time>
      </trkpt>
      <trkpt lat="43.58478" lon="1.4533">
        <ele>142.89</ele>
        <time>2017-07-02T06:37:37Z</time>
      </trkpt>
      <trkpt lat="43.58476" lon="1.45322">
        <ele>142.89</ele>
        <time>2017-07-02T06:37:38Z</time>
      </trkpt>
      <trkpt lat="43.58454" lon="1.45276">
        <ele>142.89</ele>
        <time>2017-07-02T06:37:45Z</time>
      </trkpt>
      <trkpt lat="43.58429" lon="1.45217">
        <ele>142.89</ele>
        <time>2017-07-02T06:37:54Z</time>
      </trkpt>
      <trkpt lat="43.58402" lon="1.45156">
        <ele>142.89</ele>
        <time>2017-07-02T06:38:03Z</time>
      </trkpt>
      <trkpt lat="43.58381" lon="1.45109">
        <ele>142.89</ele>
        <time>2017-07-02T06:38:11Z</time>
      </trkpt>
      <trkpt lat="43.58373" lon="1.45092">
        <ele>142.89</ele>
        <time>2017-07-02T06:38:13Z</time>
      </trkpt>
      <trkpt lat="43.5837" lon="1.4508">
        <ele>142.89</ele>
        <time>2017-07-02T06:38:14Z</time>
      </trkpt>
      <trkpt lat="43.5837" lon="1.45068">
        <ele>142.89</ele>
        <time>2017-07-02T06:38:15Z</time>
      </trkpt>
      <trkpt lat="43.58373" lon="1.45042">
        <ele>142.89</ele>
        <time>2017-07-02T06:38:18Z</time>
      </trkpt>
      <trkpt lat="43.58374" lon="1.45036">
        <ele>142.89</ele>
        <time>2017-07-02T06:38:19Z</time>
      </trkpt>
      <trkpt lat="43.58376" lon="1.45028">
        <ele>142.89</ele>
        <time>2017-07-02T06:38:20Z</time>
      </trkpt>
      <trkpt lat="43.58393" lon="1.44955">
        <ele>142.89</ele>
        <time>2017-07-02T06:38:29Z</time>
      </trkpt>
      <trkpt lat="43.58396" lon="1.44941">
        <ele>142.89</ele>
        <time>2017-07-02T06:38:31Z</time>
      </trkpt>
      <trkpt lat="43.58398" lon="1.44933">
        <ele>142.89</ele>
        <time>2017-07-02T06:38:32Z</time>
      </trkpt>
      <trkpt lat="43.58419" lon="1.44877">
        <ele>142.89</ele>
        <time>2017-07-02T06:38:41Z</time>
      </trkpt>
      <trkpt lat="43.58421" lon="1.44869">
        <ele>142.89</ele>
        <time>2017-07-02T06:38:42Z</time>
      </trkpt>
      <trkpt lat="43.58423" lon="1.44862">
        <ele>142.89</ele>
        <time>2017-07-02T06:38:43Z</time>
      </trkpt>
      <trkpt lat="43.58424" lon="1.44855">
        <ele>142.89</ele>
        <time>2017-07-02T06:38:44Z</time>
      </trkpt>
      <trkpt lat="43.58426" lon="1.44848">
        <ele>142.89</ele>
        <time>2017-07-02T06:38:45Z</time>
      </trkpt>
      <trkpt lat="43.58437" lon="1.44806">
        <ele>142.89</ele>
        <time>2017-07-02T06:38:52Z</time>
      </trkpt>
      <trkpt lat="43.58437" lon="1.448">
        <ele>142.89</ele>
        <time>2017-07-02T06:38:53Z</time>
      </trkpt>
      <trkpt lat="43.58435" lon="1.44794">
        <ele>142.89</ele>
        <time>2017-07-02T06:38:54Z</time>
      </trkpt>
      <trkpt lat="43.58432" lon="1.44791">
        <ele>142.89</ele>
        <time>2017-07-02T06:38:55Z</time>
      </trkpt>
      <trkpt lat="43.58428" lon="1.44788">
        <ele>142.89</ele>
        <time>2017-07-02T06:38:56Z</time>
      </trkpt>
      <trkpt lat="43.58424" lon="1.44787">
        <ele>142.89</ele>
        <time>2017-07-02T06:38:57Z</time>
      </trkpt>
      <trkpt lat="43.5842" lon="1.44787">
        <ele>142.89</ele>
        <time>2017-07-02T06:38:58Z</time>
      </trkpt>
      <trkpt lat="43.58415" lon="1.44788">
        <ele>142.89</ele>
        <time>2017-07-02T06:38:59Z</time>
      </trkpt>
      <trkpt lat="43.5841" lon="1.4479">
        <ele>142.89</ele>
        <time>2017-07-02T06:39:00Z</time>
      </trkpt>
      <trkpt lat="43.58406" lon="1.44793">
        <ele>142.89</ele>
        <time>2017-07-02T06:39:01Z</time>
      </trkpt>
      <trkpt lat="43.58347" lon="1.44822">
        <ele>142.89</ele>
        <time>2017-07-02T06:39:12Z</time>
      </trkpt>
      <trkpt lat="43.58342" lon="1.44823">
        <ele>142.89</ele>
        <time>2017-07-02T06:39:13Z</time>
      </trkpt>
      <trkpt lat="43.58315" lon="1.44834">
        <ele>142.89</ele>
        <time>2017-07-02T06:39:18Z</time>
      </trkpt>
      <trkpt lat="43.58268" lon="1.44854">
        <ele>142.89</ele>
        <time>2017-07-02T06:39:27Z</time>
      </trkpt>
      <trkpt lat="43.58251" lon="1.44861">
        <ele>143.85</ele>
        <time>2017-07-02T06:39:30Z</time>
      </trkpt>
      <trkpt lat="43.5822" lon="1.44878">
        <ele>143.85</ele>
        <time>2017-07-02T06:39:36Z</time>
      </trkpt>
      <trkpt lat="43.58172" lon="1.44896">
        <ele>143.85</ele>
        <time>2017-07-02T06:39:45Z</time>
      </trkpt>
      <trkpt lat="43.58133" lon="1.44908">
        <ele>143.85</ele>
        <time>2017-07-02T06:39:53Z</time>
      </trkpt>
      <trkpt lat="43.5813" lon="1.44905">
        <ele>143.85</ele>
        <time>2017-07-02T06:39:54Z</time>
      </trkpt>
      <trkpt lat="43.58127" lon="1.44902">
        <ele>143.85</ele>
        <time>2017-07-02T06:39:55Z</time>
      </trkpt>
      <trkpt lat="43.58125" lon="1.44898">
        <ele>143.85</ele>
        <time>2017-07-02T06:39:56Z</time>
      </trkpt>
      <trkpt lat="43.58123" lon="1.44893">
        <ele>143.85</ele>
        <time>2017-07-02T06:39:57Z</time>
      </trkpt>
      <trkpt lat="43.58123" lon="1.44886">
        <ele>143.85</ele>
        <time>2017-07-02T06:39:58Z</time>
      </trkpt>
      <trkpt lat="43.58104" lon="1.448">
        <ele>143.85</ele>
        <time>2017-07-02T06:40:11Z</time>
      </trkpt>
      <trkpt lat="43.58091" lon="1.44728">
        <ele>143.85</ele>
        <time>2017-07-02T06:40:22Z</time>
      </trkpt>
      <trkpt lat="43.58087" lon="1.44698">
        <ele>144.82</ele>
        <time>2017-07-02T06:40:26Z</time>
      </trkpt>
      <trkpt lat="43.58087" lon="1.44683">
        <ele>144.82</ele>
        <time>2017-07-02T06:40:28Z</time>
      </trkpt>
      <trkpt lat="43.58082" lon="1.44574">
        <ele>144.82</ele>
        <time>2017-07-02T06:40:42Z</time>
      </trkpt>
      <trkpt lat="43.58081" lon="1.44501">
        <ele>143.85</ele>
        <time>2017-07-02T06:40:52Z</time>
      </trkpt>
      <trkpt lat="43.5808" lon="1.44495">
        <ele>143.85</ele>
        <time>2017-07-02T06:40:53Z</time>
      </trkpt>
      <trkpt lat="43.58078" lon="1.4449">
        <ele>143.85</ele>
        <time>2017-07-02T06:40:54Z</time>
      </trkpt>
      <trkpt lat="43.58078" lon="1.44488">
        <ele>143.85</ele>
        <time>2017-07-02T06:40:55Z</time>
      </trkpt>
      <trkpt lat="43.5807" lon="1.44487">
        <ele>144.82</ele>
        <time>2017-07-02T06:40:58Z</time>
      </trkpt>
      <trkpt lat="43.58066" lon="1.4449">
        <ele>144.82</ele>
        <time>2017-07-02T06:40:59Z</time>
      </trkpt>
      <trkpt lat="43.58062" lon="1.44494">
        <ele>144.82</ele>
        <time>2017-07-02T06:41:00Z</time>
      </trkpt>
      <trkpt lat="43.58058" lon="1.44498">
        <ele>144.82</ele>
        <time>2017-07-02T06:41:01Z</time>
      </trkpt>
      <trkpt lat="43.58003" lon="1.44551">
        <ele>144.82</ele>
        <time>2017-07-02T06:41:13Z</time>
      </trkpt>
      <trkpt lat="43.57971" lon="1.44587">
        <ele>143.85</ele>
        <time>2017-07-02T06:41:21Z</time>
      </trkpt>
      <trkpt lat="43.57967" lon="1.44588">
        <ele>143.85</ele>
        <time>2017-07-02T06:41:22Z</time>
      </trkpt>
      <trkpt lat="43.57963" lon="1.44587">
        <ele>143.85</ele>
        <time>2017-07-02T06:41:23Z</time>
      </trkpt>
      <trkpt lat="43.57959" lon="1.44583">
        <ele>143.85</ele>
        <time>2017-07-02T06:41:24Z</time>
      </trkpt>
      <trkpt lat="43.57956" lon="1.44578">
        <ele>143.85</ele>
        <time>2017-07-02T06:41:25Z</time>
      </trkpt>
      <trkpt lat="43.57953" lon="1.44572">
        <ele>143.85</ele>
        <time>2017-07-02T06:41:26Z</time>
      </trkpt>
      <trkpt lat="43.57947" lon="1.44561">
        <ele>143.85</ele>
        <time>2017-07-02T06:41:28Z</time>
      </trkpt>
      <trkpt lat="43.57911" lon="1.44493">
        <ele>142.89</ele>
        <time>2017-07-02T06:41:39Z</time>
      </trkpt>
      <trkpt lat="43.57897" lon="1.44469">
        <ele>142.89</ele>
        <time>2017-07-02T06:41:43Z</time>
      </trkpt>
      <trkpt lat="43.57825" lon="1.44345">
        <ele>140.97</ele>
        <time>2017-07-02T06:42:03Z</time>
      </trkpt>
      <trkpt lat="43.57819" lon="1.44326">
        <ele>140.97</ele>
        <time>2017-07-02T06:42:06Z</time>
      </trkpt>
      <trkpt lat="43.57818" lon="1.44319">
        <ele>140.97</ele>
        <time>2017-07-02T06:42:07Z</time>
      </trkpt>
      <trkpt lat="43.57816" lon="1.44312">
        <ele>140.97</ele>
        <time>2017-07-02T06:42:08Z</time>
      </trkpt>
      <trkpt lat="43.57813" lon="1.44307">
        <ele>140.97</ele>
        <time>2017-07-02T06:42:09Z</time>
      </trkpt>
      <trkpt lat="43.57808" lon="1.44302">
        <ele>140.97</ele>
        <time>2017-07-02T06:42:10Z</time>
      </trkpt>
      <trkpt lat="43.57803" lon="1.44299">
        <ele>140.97</ele>
        <time>2017-07-02T06:42:11Z</time>
      </trkpt>
      <trkpt lat="43.57797" lon="1.44297">
        <ele>140.97</ele>
        <time>2017-07-02T06:42:12Z</time>
      </trkpt>
      <trkpt lat="43.57729" lon="1.44261">
        <ele>140.97</ele>
        <time>2017-07-02T06:42:24Z</time>
      </trkpt>
      <trkpt lat="43.57702" lon="1.44243">
        <ele>140.01</ele>
        <time>2017-07-02T06:42:29Z</time>
      </trkpt>
      <trkpt lat="43.57697" lon="1.44238">
        <ele>140.01</ele>
        <time>2017-07-02T06:42:30Z</time>
      </trkpt>
      <trkpt lat="43.57694" lon="1.44232">
        <ele>140.01</ele>
        <time>2017-07-02T06:42:31Z</time>
      </trkpt>
      <trkpt lat="43.57692" lon="1.44225">
        <ele>140.01</ele>
        <time>2017-07-02T06:42:32Z</time>
      </trkpt>
      <trkpt lat="43.57691" lon="1.44217">
        <ele>140.01</ele>
        <time>2017-07-02T06:42:33Z</time>
      </trkpt>
      <trkpt lat="43.5769" lon="1.44209">
        <ele>140.01</ele>
        <time>2017-07-02T06:42:34Z</time>
      </trkpt>
      <trkpt lat="43.57691" lon="1.44201">
        <ele>140.01</ele>
        <time>2017-07-02T06:42:35Z</time>
      </trkpt>
      <trkpt lat="43.57692" lon="1.44193">
        <ele>139.05</ele>
        <time>2017-07-02T06:42:36Z</time>
      </trkpt>
      <trkpt lat="43.57695" lon="1.44186">
        <ele>139.05</ele>
        <time>2017-07-02T06:42:37Z</time>
      </trkpt>
      <trkpt lat="43.57718" lon="1.44112">
        <ele>139.05</ele>
        <time>2017-07-02T06:42:47Z</time>
      </trkpt>
      <trkpt lat="43.57722" lon="1.44106">
        <ele>139.05</ele>
        <time>2017-07-02T06:42:48Z</time>
      </trkpt>
      <trkpt lat="43.57725" lon="1.441">
        <ele>139.05</ele>
        <time>2017-07-02T06:42:49Z</time>
      </trkpt>
      <trkpt lat="43.57728" lon="1.44093">
        <ele>139.05</ele>
        <time>2017-07-02T06:42:50Z</time>
      </trkpt>
      <trkpt lat="43.57728" lon="1.44086">
        <ele>139.05</ele>
        <time>2017-07-02T06:42:51Z</time>
      </trkpt>
      <trkpt lat="43.57727" lon="1.4408">
        <ele>139.05</ele>
        <time>2017-07-02T06:42:52Z</time>
      </trkpt>
      <trkpt lat="43.57724" lon="1.44073">
        <ele>139.05</ele>
        <time>2017-07-02T06:42:53Z</time>
      </trkpt>
      <trkpt lat="43.57721" lon="1.44066">
        <ele>139.05</ele>
        <time>2017-07-02T06:42:54Z</time>
      </trkpt>
      <trkpt lat="43.57718" lon="1.44058">
        <ele>139.05</ele>
        <time>2017-07-02T06:42:55Z</time>
      </trkpt>
      <trkpt lat="43.57717" lon="1.4405">
        <ele>139.05</ele>
        <time>2017-07-02T06:42:56Z</time>
      </trkpt>
      <trkpt lat="43.57716" lon="1.44042">
        <ele>139.05</ele>
        <time>2017-07-02T06:42:57Z</time>
      </trkpt>
      <trkpt lat="43.57718" lon="1.43952">
        <ele>139.05</ele>
        <time>2017-07-02T06:43:08Z</time>
      </trkpt>
      <trkpt lat="43.57725" lon="1.43848">
        <ele>139.05</ele>
        <time>2017-07-02T06:43:21Z</time>
      </trkpt>
      <trkpt lat="43.57728" lon="1.43802">
        <ele>139.05</ele>
        <time>2017-07-02T06:43:27Z</time>
      </trkpt>
      <trkpt lat="43.57728" lon="1.43794">
        <ele>139.05</ele>
        <time>2017-07-02T06:43:28Z</time>
      </trkpt>
      <trkpt lat="43.57729" lon="1.43787">
        <ele>139.05</ele>
        <time>2017-07-02T06:43:29Z</time>
      </trkpt>
      <trkpt lat="43.57735" lon="1.43695">
        <ele>139.05</ele>
        <time>2017-07-02T06:43:42Z</time>
      </trkpt>
      <trkpt lat="43.57738" lon="1.43649">
        <ele>139.05</ele>
        <time>2017-07-02T06:43:53Z</time>
      </trkpt>
      <trkpt lat="43.57738" lon="1.43646">
        <ele>140.01</ele>
        <time>2017-07-02T06:43:57Z</time>
      </trkpt>
      <trkpt lat="43.57738" lon="1.43644">
        <ele>140.01</ele>
        <time>2017-07-02T06:43:58Z</time>
      </trkpt>
      <trkpt lat="43.57739" lon="1.43641">
        <ele>140.97</ele>
        <time>2017-07-02T06:43:59Z</time>
      </trkpt>
      <trkpt lat="43.57739" lon="1.43638">
        <ele>140.97</ele>
        <time>2017-07-02T06:44:00Z</time>
      </trkpt>
      <trkpt lat="43.57738" lon="1.43634">
        <ele>140.97</ele>
        <time>2017-07-02T06:44:01Z</time>
      </trkpt>
      <trkpt lat="43.57736" lon="1.43631">
        <ele>140.97</ele>
        <time>2017-07-02T06:44:02Z</time>
      </trkpt>
      <trkpt lat="43.57733" lon="1.43629">
        <ele>140.97</ele>
        <time>2017-07-02T06:44:03Z</time>
      </trkpt>
      <trkpt lat="43.5773" lon="1.43628">
        <ele>141.93</ele>
        <time>2017-07-02T06:44:04Z</time>
      </trkpt>
      <trkpt lat="43.57727" lon="1.43627">
        <ele>141.93</ele>
        <time>2017-07-02T06:44:05Z</time>
      </trkpt>
      <trkpt lat="43.57723" lon="1.43627">
        <ele>141.93</ele>
        <time>2017-07-02T06:44:06Z</time>
      </trkpt>
      <trkpt lat="43.5772" lon="1.43626">
        <ele>141.93</ele>
        <time>2017-07-02T06:44:07Z</time>
      </trkpt>
      <trkpt lat="43.57716" lon="1.43625">
        <ele>141.93</ele>
        <time>2017-07-02T06:44:08Z</time>
      </trkpt>
      <trkpt lat="43.57658" lon="1.43618">
        <ele>140.97</ele>
        <time>2017-07-02T06:44:19Z</time>
      </trkpt>
      <trkpt lat="43.57559" lon="1.4361">
        <ele>140.97</ele>
        <time>2017-07-02T06:44:36Z</time>
      </trkpt>
      <trkpt lat="43.57471" lon="1.43628">
        <ele>138.09</ele>
        <time>2017-07-02T06:44:48Z</time>
      </trkpt>
      <trkpt lat="43.57393" lon="1.4367">
        <ele>137.13</ele>
        <time>2017-07-02T06:45:00Z</time>
      </trkpt>
      <trkpt lat="43.57328" lon="1.43723">
        <ele>137.13</ele>
        <time>2017-07-02T06:45:11Z</time>
      </trkpt>
      <trkpt lat="43.57284" lon="1.43764">
        <ele>137.13</ele>
        <time>2017-07-02T06:45:19Z</time>
      </trkpt>
      <trkpt lat="43.57243" lon="1.43807">
        <ele>137.13</ele>
        <time>2017-07-02T06:45:27Z</time>
      </trkpt>
      <trkpt lat="43.57193" lon="1.43854">
        <ele>137.13</ele>
        <time>2017-07-02T06:45:38Z</time>
      </trkpt>
      <trkpt lat="43.57128" lon="1.43894">
        <ele>140.01</ele>
        <time>2017-07-02T06:45:51Z</time>
      </trkpt>
      <trkpt lat="43.57048" lon="1.43919">
        <ele>139.05</ele>
        <time>2017-07-02T06:46:04Z</time>
      </trkpt>
      <trkpt lat="43.56965" lon="1.43937">
        <ele>139.05</ele>
        <time>2017-07-02T06:46:19Z</time>
      </trkpt>
      <trkpt lat="43.56908" lon="1.4395">
        <ele>140.01</ele>
        <time>2017-07-02T06:46:30Z</time>
      </trkpt>
      <trkpt lat="43.56854" lon="1.43958">
        <ele>140.01</ele>
        <time>2017-07-02T06:46:40Z</time>
      </trkpt>
      <trkpt lat="43.56849" lon="1.43959">
        <ele>140.01</ele>
        <time>2017-07-02T06:46:41Z</time>
      </trkpt>
      <trkpt lat="43.56838" lon="1.43961">
        <ele>140.01</ele>
        <time>2017-07-02T06:46:43Z</time>
      </trkpt>
      <trkpt lat="43.5677" lon="1.43972">
        <ele>140.97</ele>
        <time>2017-07-02T06:46:55Z</time>
      </trkpt>
      <trkpt lat="43.56755" lon="1.43976">
        <ele>140.97</ele>
        <time>2017-07-02T06:46:58Z</time>
      </trkpt>
      <trkpt lat="43.5675" lon="1.43977">
        <ele>140.97</ele>
        <time>2017-07-02T06:46:59Z</time>
      </trkpt>
      <trkpt lat="43.56691" lon="1.43988">
        <ele>142.89</ele>
        <time>2017-07-02T06:47:10Z</time>
      </trkpt>
      <trkpt lat="43.56609" lon="1.43986">
        <ele>142.89</ele>
        <time>2017-07-02T06:47:23Z</time>
      </trkpt>
      <trkpt lat="43.56534" lon="1.43982">
        <ele>142.89</ele>
        <time>2017-07-02T06:47:35Z</time>
      </trkpt>
      <trkpt lat="43.56483" lon="1.4398">
        <ele>142.89</ele>
        <time>2017-07-02T06:47:44Z</time>
      </trkpt>
      <trkpt lat="43.56455" lon="1.43978">
        <ele>142.89</ele>
        <time>2017-07-02T06:47:49Z</time>
      </trkpt>
      <trkpt lat="43.5645" lon="1.43977">
        <ele>143.85</ele>
        <time>2017-07-02T06:47:50Z</time>
      </trkpt>
      <trkpt lat="43.56429" lon="1.43969">
        <ele>143.85</ele>
        <time>2017-07-02T06:47:54Z</time>
      </trkpt>
      <trkpt lat="43.56359" lon="1.43938">
        <ele>143.85</ele>
        <time>2017-07-02T06:48:06Z</time>
      </trkpt>
      <trkpt lat="43.56295" lon="1.43938">
        <ele>143.85</ele>
        <time>2017-07-02T06:48:16Z</time>
      </trkpt>
      <trkpt lat="43.56289" lon="1.43939">
        <ele>143.85</ele>
        <time>2017-07-02T06:48:17Z</time>
      </trkpt>
      <trkpt lat="43.56283" lon="1.4394">
        <ele>143.85</ele>
        <time>2017-07-02T06:48:18Z</time>
      </trkpt>
      <trkpt lat="43.56192" lon="1.43959">
        <ele>142.89</ele>
        <time>2017-07-02T06:48:32Z</time>
      </trkpt>
      <trkpt lat="43.56114" lon="1.43981">
        <ele>142.89</ele>
        <time>2017-07-02T06:48:43Z</time>
      </trkpt>
      <trkpt lat="43.5608" lon="1.4399">
        <ele>141.93</ele>
        <time>2017-07-02T06:48:48Z</time>
      </trkpt>
      <trkpt lat="43.56073" lon="1.43992">
        <ele>141.93</ele>
        <time>2017-07-02T06:48:49Z</time>
      </trkpt>
      <trkpt lat="43.56055" lon="1.43997">
        <ele>141.93</ele>
        <time>2017-07-02T06:48:52Z</time>
      </trkpt>
      <trkpt lat="43.56016" lon="1.44002">
        <ele>141.93</ele>
        <time>2017-07-02T06:48:59Z</time>
      </trkpt>
      <trkpt lat="43.55959" lon="1.43996">
        <ele>143.85</ele>
        <time>2017-07-02T06:49:11Z</time>
      </trkpt>
      <trkpt lat="43.55919" lon="1.44">
        <ele>145.78</ele>
        <time>2017-07-02T06:49:19Z</time>
      </trkpt>
      <trkpt lat="43.55914" lon="1.44002">
        <ele>145.78</ele>
        <time>2017-07-02T06:49:20Z</time>
      </trkpt>
      <trkpt lat="43.5586" lon="1.4403">
        <ele>145.78</ele>
        <time>2017-07-02T06:49:31Z</time>
      </trkpt>
      <trkpt lat="43.55845" lon="1.44041">
        <ele>147.22</ele>
        <time>2017-07-02T06:49:35Z</time>
      </trkpt>
      <trkpt lat="43.5582" lon="1.44064">
        <ele>148.18</ele>
        <time>2017-07-02T06:49:42Z</time>
      </trkpt>
      <trkpt lat="43.55785" lon="1.44101">
        <ele>151.06</ele>
        <time>2017-07-02T06:49:52Z</time>
      </trkpt>
      <trkpt lat="43.55781" lon="1.44104">
        <ele>151.06</ele>
        <time>2017-07-02T06:49:53Z</time>
      </trkpt>
      <trkpt lat="43.55723" lon="1.44123">
        <ele>152.03</ele>
        <time>2017-07-02T06:50:05Z</time>
      </trkpt>
      <trkpt lat="43.55717" lon="1.44123">
        <ele>152.03</ele>
        <time>2017-07-02T06:50:06Z</time>
      </trkpt>
      <trkpt lat="43.55655" lon="1.44117">
        <ele>152.03</ele>
        <time>2017-07-02T06:50:16Z</time>
      </trkpt>
      <trkpt lat="43.55635" lon="1.44114">
        <ele>151.06</ele>
        <time>2017-07-02T06:50:19Z</time>
      </trkpt>
      <trkpt lat="43.55552" lon="1.44099">
        <ele>148.18</ele>
        <time>2017-07-02T06:50:31Z</time>
      </trkpt>
      <trkpt lat="43.55492" lon="1.44096">
        <ele>147.22</ele>
        <time>2017-07-02T06:50:41Z</time>
      </trkpt>
      <trkpt lat="43.55477" lon="1.44098">
        <ele>147.22</ele>
        <time>2017-07-02T06:50:44Z</time>
      </trkpt>
      <trkpt lat="43.55445" lon="1.441">
        <ele>149.14</ele>
        <time>2017-07-02T06:50:51Z</time>
      </trkpt>
      <trkpt lat="43.5542" lon="1.44097">
        <ele>150.1</ele>
        <time>2017-07-02T06:50:57Z</time>
      </trkpt>
      <trkpt lat="43.55415" lon="1.44096">
        <ele>150.1</ele>
        <time>2017-07-02T06:50:58Z</time>
      </trkpt>
      <trkpt lat="43.55411" lon="1.44097">
        <ele>150.1</ele>
        <time>2017-07-02T06:50:59Z</time>
      </trkpt>
      <trkpt lat="43.55407" lon="1.44098">
        <ele>150.1</ele>
        <time>2017-07-02T06:51:00Z</time>
      </trkpt>
      <trkpt lat="43.55403" lon="1.44098">
        <ele>151.06</ele>
        <time>2017-07-02T06:51:01Z</time>
      </trkpt>
      <trkpt lat="43.55398" lon="1.44099">
        <ele>151.06</ele>
        <time>2017-07-02T06:51:02Z</time>
      </trkpt>
      <trkpt lat="43.55369" lon="1.441">
        <ele>152.99</ele>
        <time>2017-07-02T06:51:09Z</time>
      </trkpt>
      <trkpt lat="43.55364" lon="1.44099">
        <ele>152.99</ele>
        <time>2017-07-02T06:51:10Z</time>
      </trkpt>
      <trkpt lat="43.5536" lon="1.44098">
        <ele>152.99</ele>
        <time>2017-07-02T06:51:11Z</time>
      </trkpt>
      <trkpt lat="43.55356" lon="1.44098">
        <ele>152.99</ele>
        <time>2017-07-02T06:51:12Z</time>
      </trkpt>
      <trkpt lat="43.55351" lon="1.44097">
        <ele>152.99</ele>
        <time>2017-07-02T06:51:13Z</time>
      </trkpt>
      <trkpt lat="43.55305" lon="1.44087">
        <ele>154.91</ele>
        <time>2017-07-02T06:51:23Z</time>
      </trkpt>
      <trkpt lat="43.55288" lon="1.44085">
        <ele>154.91</ele>
        <time>2017-07-02T06:51:26Z</time>
      </trkpt>
      <trkpt lat="43.55212" lon="1.44068">
        <ele>153.95</ele>
        <time>2017-07-02T06:51:37Z</time>
      </trkpt>
      <trkpt lat="43.55204" lon="1.44067">
        <ele>153.95</ele>
        <time>2017-07-02T06:51:38Z</time>
      </trkpt>
      <trkpt lat="43.55121" lon="1.44046">
        <ele>151.06</ele>
        <time>2017-07-02T06:51:49Z</time>
      </trkpt>
      <trkpt lat="43.55046" lon="1.44006">
        <ele>148.18</ele>
        <time>2017-07-02T06:51:59Z</time>
      </trkpt>
      <trkpt lat="43.54996" lon="1.43983">
        <ele>145.78</ele>
        <time>2017-07-02T06:52:06Z</time>
      </trkpt>
      <trkpt lat="43.54989" lon="1.43982">
        <ele>145.78</ele>
        <time>2017-07-02T06:52:07Z</time>
      </trkpt>
      <trkpt lat="43.54981" lon="1.4398">
        <ele>145.78</ele>
        <time>2017-07-02T06:52:08Z</time>
      </trkpt>
      <trkpt lat="43.54944" lon="1.43967">
        <ele>144.82</ele>
        <time>2017-07-02T06:52:13Z</time>
      </trkpt>
      <trkpt lat="43.54935" lon="1.43962">
        <ele>144.82</ele>
        <time>2017-07-02T06:52:14Z</time>
      </trkpt>
      <trkpt lat="43.54884" lon="1.43935">
        <ele>143.85</ele>
        <time>2017-07-02T06:52:21Z</time>
      </trkpt>
      <trkpt lat="43.54808" lon="1.43923">
        <ele>142.89</ele>
        <time>2017-07-02T06:52:32Z</time>
      </trkpt>
      <trkpt lat="43.54741" lon="1.43924">
        <ele>141.93</ele>
        <time>2017-07-02T06:52:43Z</time>
      </trkpt>
      <trkpt lat="43.54669" lon="1.43932">
        <ele>142.89</ele>
        <time>2017-07-02T06:52:55Z</time>
      </trkpt>
      <trkpt lat="43.54596" lon="1.43917">
        <ele>141.93</ele>
        <time>2017-07-02T06:53:06Z</time>
      </trkpt>
      <trkpt lat="43.54528" lon="1.43915">
        <ele>141.93</ele>
        <time>2017-07-02T06:53:17Z</time>
      </trkpt>
      <trkpt lat="43.54516" lon="1.43918">
        <ele>141.93</ele>
        <time>2017-07-02T06:53:19Z</time>
      </trkpt>
      <trkpt lat="43.54489" lon="1.43918">
        <ele>141.93</ele>
        <time>2017-07-02T06:53:23Z</time>
      </trkpt>
      <trkpt lat="43.54476" lon="1.43914">
        <ele>141.93</ele>
        <time>2017-07-02T06:53:25Z</time>
      </trkpt>
      <trkpt lat="43.54464" lon="1.43908">
        <ele>141.93</ele>
        <time>2017-07-02T06:53:27Z</time>
      </trkpt>
      <trkpt lat="43.54404" lon="1.43872">
        <ele>141.93</ele>
        <time>2017-07-02T06:53:37Z</time>
      </trkpt>
      <trkpt lat="43.54373" lon="1.43854">
        <ele>141.93</ele>
        <time>2017-07-02T06:53:42Z</time>
      </trkpt>
      <trkpt lat="43.54367" lon="1.43849">
        <ele>141.93</ele>
        <time>2017-07-02T06:53:43Z</time>
      </trkpt>
      <trkpt lat="43.54357" lon="1.43836">
        <ele>141.93</ele>
        <time>2017-07-02T06:53:45Z</time>
      </trkpt>
      <trkpt lat="43.54353" lon="1.4383">
        <ele>141.93</ele>
        <time>2017-07-02T06:53:46Z</time>
      </trkpt>
      <trkpt lat="43.5435" lon="1.43822">
        <ele>141.93</ele>
        <time>2017-07-02T06:53:47Z</time>
      </trkpt>
      <trkpt lat="43.54329" lon="1.43779">
        <ele>142.89</ele>
        <time>2017-07-02T06:53:53Z</time>
      </trkpt>
      <trkpt lat="43.54325" lon="1.43772">
        <ele>142.89</ele>
        <time>2017-07-02T06:53:54Z</time>
      </trkpt>
      <trkpt lat="43.54269" lon="1.43682">
        <ele>141.93</ele>
        <time>2017-07-02T06:54:07Z</time>
      </trkpt>
      <trkpt lat="43.54242" lon="1.43654">
        <ele>141.93</ele>
        <time>2017-07-02T06:54:12Z</time>
      </trkpt>
      <trkpt lat="43.54188" lon="1.43608">
        <ele>141.93</ele>
        <time>2017-07-02T06:54:22Z</time>
      </trkpt>
      <trkpt lat="43.54182" lon="1.43603">
        <ele>141.93</ele>
        <time>2017-07-02T06:54:23Z</time>
      </trkpt>
      <trkpt lat="43.54176" lon="1.43597">
        <ele>141.93</ele>
        <time>2017-07-02T06:54:24Z</time>
      </trkpt>
      <trkpt lat="43.5417" lon="1.43592">
        <ele>140.97</ele>
        <time>2017-07-02T06:54:25Z</time>
      </trkpt>
      <trkpt lat="43.54165" lon="1.43588">
        <ele>140.97</ele>
        <time>2017-07-02T06:54:26Z</time>
      </trkpt>
      <trkpt lat="43.54104" lon="1.43542">
        <ele>140.97</ele>
        <time>2017-07-02T06:54:38Z</time>
      </trkpt>
      <trkpt lat="43.54043" lon="1.43503">
        <ele>141.93</ele>
        <time>2017-07-02T06:54:50Z</time>
      </trkpt>
      <trkpt lat="43.54017" lon="1.43478">
        <ele>141.93</ele>
        <time>2017-07-02T06:54:56Z</time>
      </trkpt>
      <trkpt lat="43.53986" lon="1.43447">
        <ele>141.93</ele>
        <time>2017-07-02T06:55:04Z</time>
      </trkpt>
      <trkpt lat="43.53982" lon="1.43445">
        <ele>141.93</ele>
        <time>2017-07-02T06:55:05Z</time>
      </trkpt>
      <trkpt lat="43.53978" lon="1.43442">
        <ele>141.93</ele>
        <time>2017-07-02T06:55:06Z</time>
      </trkpt>
      <trkpt lat="43.5396" lon="1.43427">
        <ele>142.89</ele>
        <time>2017-07-02T06:55:11Z</time>
      </trkpt>
      <trkpt lat="43.53956" lon="1.43424">
        <ele>142.89</ele>
        <time>2017-07-02T06:55:12Z</time>
      </trkpt>
      <trkpt lat="43.53925" lon="1.43404">
        <ele>143.85</ele>
        <time>2017-07-02T06:55:20Z</time>
      </trkpt>
      <trkpt lat="43.5387" lon="1.43368">
        <ele>145.78</ele>
        <time>2017-07-02T06:55:34Z</time>
      </trkpt>
      <trkpt lat="43.53819" lon="1.43336">
        <ele>149.14</ele>
        <time>2017-07-02T06:55:47Z</time>
      </trkpt>
      <trkpt lat="43.53771" lon="1.43311">
        <ele>150.1</ele>
        <time>2017-07-02T06:55:58Z</time>
      </trkpt>
      <trkpt lat="43.53767" lon="1.43309">
        <ele>150.1</ele>
        <time>2017-07-02T06:55:59Z</time>
      </trkpt>
      <trkpt lat="43.53725" lon="1.43297">
        <ele>151.06</ele>
        <time>2017-07-02T06:56:08Z</time>
      </trkpt>
      <trkpt lat="43.53716" lon="1.43296">
        <ele>151.06</ele>
        <time>2017-07-02T06:56:10Z</time>
      </trkpt>
      <trkpt lat="43.53642" lon="1.43283">
        <ele>152.03</ele>
        <time>2017-07-02T06:56:24Z</time>
      </trkpt>
      <trkpt lat="43.53578" lon="1.43249">
        <ele>152.03</ele>
        <time>2017-07-02T06:56:37Z</time>
      </trkpt>
      <trkpt lat="43.53524" lon="1.43222">
        <ele>152.99</ele>
        <time>2017-07-02T06:56:49Z</time>
      </trkpt>
      <trkpt lat="43.5348" lon="1.43212">
        <ele>153.95</ele>
        <time>2017-07-02T06:56:58Z</time>
      </trkpt>
      <trkpt lat="43.53456" lon="1.43201">
        <ele>154.91</ele>
        <time>2017-07-02T06:57:03Z</time>
      </trkpt>
      <trkpt lat="43.53383" lon="1.43147">
        <ele>155.87</ele>
        <time>2017-07-02T06:57:18Z</time>
      </trkpt>
      <trkpt lat="43.53317" lon="1.43099">
        <ele>155.87</ele>
        <time>2017-07-02T06:57:30Z</time>
      </trkpt>
      <trkpt lat="43.53257" lon="1.43064">
        <ele>154.91</ele>
        <time>2017-07-02T06:57:41Z</time>
      </trkpt>
      <trkpt lat="43.5324" lon="1.43055">
        <ele>154.91</ele>
        <time>2017-07-02T06:57:44Z</time>
      </trkpt>
      <trkpt lat="43.53235" lon="1.43052">
        <ele>154.91</ele>
        <time>2017-07-02T06:57:45Z</time>
      </trkpt>
      <trkpt lat="43.53174" lon="1.43024">
        <ele>154.91</ele>
        <time>2017-07-02T06:57:55Z</time>
      </trkpt>
      <trkpt lat="43.53094" lon="1.42988">
        <ele>152.99</ele>
        <time>2017-07-02T06:58:05Z</time>
      </trkpt>
      <trkpt lat="43.53039" lon="1.42951">
        <ele>150.1</ele>
        <time>2017-07-02T06:58:11Z</time>
      </trkpt>
      <trkpt lat="43.52998" lon="1.42924">
        <ele>147.22</ele>
        <time>2017-07-02T06:58:16Z</time>
      </trkpt>
      <trkpt lat="43.5299" lon="1.42922">
        <ele>147.22</ele>
        <time>2017-07-02T06:58:17Z</time>
      </trkpt>
      <trkpt lat="43.5296" lon="1.42915">
        <ele>143.85</ele>
        <time>2017-07-02T06:58:21Z</time>
      </trkpt>
      <trkpt lat="43.52862" lon="1.42896">
        <ele>143.85</ele>
        <time>2017-07-02T06:58:35Z</time>
      </trkpt>
      <trkpt lat="43.52786" lon="1.42875">
        <ele>143.85</ele>
        <time>2017-07-02T06:58:46Z</time>
      </trkpt>
      <trkpt lat="43.52702" lon="1.42849">
        <ele>144.82</ele>
        <time>2017-07-02T06:58:59Z</time>
      </trkpt>
      <trkpt lat="43.52641" lon="1.42828">
        <ele>147.22</ele>
        <time>2017-07-02T06:59:10Z</time>
      </trkpt>
      <trkpt lat="43.5263" lon="1.42821">
        <ele>147.22</ele>
        <time>2017-07-02T06:59:12Z</time>
      </trkpt>
      <trkpt lat="43.52625" lon="1.42816">
        <ele>147.22</ele>
        <time>2017-07-02T06:59:13Z</time>
      </trkpt>
      <trkpt lat="43.52571" lon="1.42744">
        <ele>147.22</ele>
        <time>2017-07-02T06:59:24Z</time>
      </trkpt>
      <trkpt lat="43.52504" lon="1.42652">
        <ele>143.85</ele>
        <time>2017-07-02T06:59:37Z</time>
      </trkpt>
      <trkpt lat="43.52428" lon="1.42547">
        <ele>141.93</ele>
        <time>2017-07-02T06:59:53Z</time>
      </trkpt>
      <trkpt lat="43.5235" lon="1.42438">
        <ele>141.93</ele>
        <time>2017-07-02T07:00:11Z</time>
      </trkpt>
      <trkpt lat="43.52282" lon="1.42342">
        <ele>141.93</ele>
        <time>2017-07-02T07:00:27Z</time>
      </trkpt>
      <trkpt lat="43.5223" lon="1.42272">
        <ele>141.93</ele>
        <time>2017-07-02T07:00:39Z</time>
      </trkpt>
      <trkpt lat="43.52169" lon="1.4219">
        <ele>141.93</ele>
        <time>2017-07-02T07:00:53Z</time>
      </trkpt>
      <trkpt lat="43.52116" lon="1.42123">
        <ele>142.89</ele>
        <time>2017-07-02T07:01:05Z</time>
      </trkpt>
      <trkpt lat="43.52028" lon="1.42026">
        <ele>143.85</ele>
        <time>2017-07-02T07:01:25Z</time>
      </trkpt>
      <trkpt lat="43.51957" lon="1.41948">
        <ele>144.82</ele>
        <time>2017-07-02T07:01:42Z</time>
      </trkpt>
      <trkpt lat="43.51885" lon="1.41874">
        <ele>144.82</ele>
        <time>2017-07-02T07:01:58Z</time>
      </trkpt>
      <trkpt lat="43.51814" lon="1.41826">
        <ele>144.82</ele>
        <time>2017-07-02T07:02:11Z</time>
      </trkpt>
      <trkpt lat="43.51722" lon="1.4178">
        <ele>144.82</ele>
        <time>2017-07-02T07:02:27Z</time>
      </trkpt>
      <trkpt lat="43.51644" lon="1.41738">
        <ele>144.82</ele>
        <time>2017-07-02T07:02:41Z</time>
      </trkpt>
      <trkpt lat="43.51587" lon="1.41713">
        <ele>145.78</ele>
        <time>2017-07-02T07:02:51Z</time>
      </trkpt>
      <trkpt lat="43.51514" lon="1.41691">
        <ele>145.78</ele>
        <time>2017-07-02T07:03:03Z</time>
      </trkpt>
      <trkpt lat="43.5143" lon="1.41665">
        <ele>145.78</ele>
        <time>2017-07-02T07:03:17Z</time>
      </trkpt>
      <trkpt lat="43.5128" lon="1.41619">
        <ele>144.82</ele>
        <time>2017-07-02T07:03:43Z</time>
      </trkpt>
      <trkpt lat="43.51178" lon="1.41588">
        <ele>145.78</ele>
        <time>2017-07-02T07:04:01Z</time>
      </trkpt>
      <trkpt lat="43.51085" lon="1.4156">
        <ele>147.22</ele>
        <time>2017-07-02T07:04:17Z</time>
      </trkpt>
      <trkpt lat="43.50967" lon="1.41525">
        <ele>147.22</ele>
        <time>2017-07-02T07:04:37Z</time>
      </trkpt>
      <trkpt lat="43.50868" lon="1.41495">
        <ele>148.18</ele>
        <time>2017-07-02T07:04:54Z</time>
      </trkpt>
      <trkpt lat="43.5079" lon="1.4147">
        <ele>148.18</ele>
        <time>2017-07-02T07:05:07Z</time>
      </trkpt>
      <trkpt lat="43.50743" lon="1.41447">
        <ele>148.18</ele>
        <time>2017-07-02T07:05:15Z</time>
      </trkpt>
      <trkpt lat="43.50738" lon="1.41442">
        <ele>148.18</ele>
        <time>2017-07-02T07:05:16Z</time>
      </trkpt>
      <trkpt lat="43.50717" lon="1.41411">
        <ele>148.18</ele>
        <time>2017-07-02T07:05:21Z</time>
      </trkpt>
      <trkpt lat="43.50714" lon="1.41404">
        <ele>148.18</ele>
        <time>2017-07-02T07:05:22Z</time>
      </trkpt>
      <trkpt lat="43.50675" lon="1.41331">
        <ele>148.18</ele>
        <time>2017-07-02T07:05:33Z</time>
      </trkpt>
      <trkpt lat="43.50664" lon="1.41321">
        <ele>148.18</ele>
        <time>2017-07-02T07:05:35Z</time>
      </trkpt>
      <trkpt lat="43.50658" lon="1.41317">
        <ele>148.18</ele>
        <time>2017-07-02T07:05:36Z</time>
      </trkpt>
      <trkpt lat="43.50652" lon="1.41314">
        <ele>148.18</ele>
        <time>2017-07-02T07:05:37Z</time>
      </trkpt>
      <trkpt lat="43.50581" lon="1.41278">
        <ele>148.18</ele>
        <time>2017-07-02T07:05:49Z</time>
      </trkpt>
      <trkpt lat="43.50543" lon="1.41258">
        <ele>147.22</ele>
        <time>2017-07-02T07:05:58Z</time>
      </trkpt>
      <trkpt lat="43.50536" lon="1.41255">
        <ele>148.18</ele>
        <time>2017-07-02T07:06:00Z</time>
      </trkpt>
      <trkpt lat="43.50487" lon="1.41234">
        <ele>147.22</ele>
        <time>2017-07-02T07:06:10Z</time>
      </trkpt>
      <trkpt lat="43.50416" lon="1.41204">
        <ele>148.18</ele>
        <time>2017-07-02T07:06:23Z</time>
      </trkpt>
      <trkpt lat="43.50348" lon="1.41177">
        <ele>148.18</ele>
        <time>2017-07-02T07:06:35Z</time>
      </trkpt>
      <trkpt lat="43.50309" lon="1.41159">
        <ele>148.18</ele>
        <time>2017-07-02T07:06:42Z</time>
      </trkpt>
      <trkpt lat="43.50273" lon="1.41139">
        <ele>148.18</ele>
        <time>2017-07-02T07:06:49Z</time>
      </trkpt>
      <trkpt lat="43.50263" lon="1.41132">
        <ele>148.18</ele>
        <time>2017-07-02T07:06:51Z</time>
      </trkpt>
      <trkpt lat="43.50258" lon="1.4113">
        <ele>148.18</ele>
        <time>2017-07-02T07:06:52Z</time>
      </trkpt>
      <trkpt lat="43.50253" lon="1.41129">
        <ele>148.18</ele>
        <time>2017-07-02T07:06:53Z</time>
      </trkpt>
      <trkpt lat="43.50248" lon="1.41129">
        <ele>148.18</ele>
        <time>2017-07-02T07:06:54Z</time>
      </trkpt>
      <trkpt lat="43.50242" lon="1.41127">
        <ele>148.18</ele>
        <time>2017-07-02T07:06:55Z</time>
      </trkpt>
      <trkpt lat="43.50237" lon="1.41124">
        <ele>148.18</ele>
        <time>2017-07-02T07:06:56Z</time>
      </trkpt>
      <trkpt lat="43.5021" lon="1.41114">
        <ele>148.18</ele>
        <time>2017-07-02T07:07:01Z</time>
      </trkpt>
      <trkpt lat="43.50195" lon="1.41105">
        <ele>149.14</ele>
        <time>2017-07-02T07:07:04Z</time>
      </trkpt>
      <trkpt lat="43.5019" lon="1.41101">
        <ele>149.14</ele>
        <time>2017-07-02T07:07:05Z</time>
      </trkpt>
      <trkpt lat="43.50121" lon="1.41058">
        <ele>149.14</ele>
        <time>2017-07-02T07:07:18Z</time>
      </trkpt>
      <trkpt lat="43.50054" lon="1.41012">
        <ele>149.14</ele>
        <time>2017-07-02T07:07:31Z</time>
      </trkpt>
      <trkpt lat="43.5005" lon="1.41006">
        <ele>149.14</ele>
        <time>2017-07-02T07:07:32Z</time>
      </trkpt>
      <trkpt lat="43.50046" lon="1.41">
        <ele>149.14</ele>
        <time>2017-07-02T07:07:33Z</time>
      </trkpt>
      <trkpt lat="43.50044" lon="1.40993">
        <ele>149.14</ele>
        <time>2017-07-02T07:07:34Z</time>
      </trkpt>
      <trkpt lat="43.50042" lon="1.40985">
        <ele>149.14</ele>
        <time>2017-07-02T07:07:35Z</time>
      </trkpt>
      <trkpt lat="43.50039" lon="1.40978">
        <ele>149.14</ele>
        <time>2017-07-02T07:07:36Z</time>
      </trkpt>
      <trkpt lat="43.50036" lon="1.40972">
        <ele>149.14</ele>
        <time>2017-07-02T07:07:37Z</time>
      </trkpt>
      <trkpt lat="43.50032" lon="1.40965">
        <ele>150.1</ele>
        <time>2017-07-02T07:07:38Z</time>
      </trkpt>
      <trkpt lat="43.50029" lon="1.40959">
        <ele>150.1</ele>
        <time>2017-07-02T07:07:39Z</time>
      </trkpt>
      <trkpt lat="43.50026" lon="1.40952">
        <ele>150.1</ele>
        <time>2017-07-02T07:07:40Z</time>
      </trkpt>
      <trkpt lat="43.50014" lon="1.40924">
        <ele>150.1</ele>
        <time>2017-07-02T07:07:44Z</time>
      </trkpt>
      <trkpt lat="43.49984" lon="1.40865">
        <ele>151.06</ele>
        <time>2017-07-02T07:07:53Z</time>
      </trkpt>
      <trkpt lat="43.49963" lon="1.4083">
        <ele>152.03</ele>
        <time>2017-07-02T07:07:59Z</time>
      </trkpt>
      <trkpt lat="43.49914" lon="1.40753">
        <ele>152.99</ele>
        <time>2017-07-02T07:08:13Z</time>
      </trkpt>
      <trkpt lat="43.49889" lon="1.40714">
        <ele>153.95</ele>
        <time>2017-07-02T07:08:20Z</time>
      </trkpt>
      <trkpt lat="43.49835" lon="1.40635">
        <ele>153.95</ele>
        <time>2017-07-02T07:08:33Z</time>
      </trkpt>
      <trkpt lat="43.49788" lon="1.40598">
        <ele>152.99</ele>
        <time>2017-07-02T07:08:41Z</time>
      </trkpt>
      <trkpt lat="43.49712" lon="1.40581">
        <ele>151.06</ele>
        <time>2017-07-02T07:08:52Z</time>
      </trkpt>
      <trkpt lat="43.49705" lon="1.40582">
        <ele>151.06</ele>
        <time>2017-07-02T07:08:53Z</time>
      </trkpt>
      <trkpt lat="43.4967" lon="1.40591">
        <ele>150.1</ele>
        <time>2017-07-02T07:08:58Z</time>
      </trkpt>
      <trkpt lat="43.49595" lon="1.40632">
        <ele>149.14</ele>
        <time>2017-07-02T07:09:10Z</time>
      </trkpt>
      <trkpt lat="43.49525" lon="1.40668">
        <ele>149.14</ele>
        <time>2017-07-02T07:09:22Z</time>
      </trkpt>
      <trkpt lat="43.4946" lon="1.4067">
        <ele>149.14</ele>
        <time>2017-07-02T07:09:33Z</time>
      </trkpt>
      <trkpt lat="43.49385" lon="1.40657">
        <ele>149.14</ele>
        <time>2017-07-02T07:09:46Z</time>
      </trkpt>
      <trkpt lat="43.49363" lon="1.40645">
        <ele>149.14</ele>
        <time>2017-07-02T07:09:50Z</time>
      </trkpt>
      <trkpt lat="43.49312" lon="1.40588">
        <ele>149.14</ele>
        <time>2017-07-02T07:10:01Z</time>
      </trkpt>
      <trkpt lat="43.49253" lon="1.4048">
        <ele>150.1</ele>
        <time>2017-07-02T07:10:18Z</time>
      </trkpt>
      <trkpt lat="43.49211" lon="1.40399">
        <ele>150.1</ele>
        <time>2017-07-02T07:10:31Z</time>
      </trkpt>
      <trkpt lat="43.49207" lon="1.40385">
        <ele>150.1</ele>
        <time>2017-07-02T07:10:33Z</time>
      </trkpt>
      <trkpt lat="43.49204" lon="1.4037">
        <ele>150.1</ele>
        <time>2017-07-02T07:10:35Z</time>
      </trkpt>
      <trkpt lat="43.49201" lon="1.40363">
        <ele>150.1</ele>
        <time>2017-07-02T07:10:36Z</time>
      </trkpt>
      <trkpt lat="43.49197" lon="1.40357">
        <ele>150.1</ele>
        <time>2017-07-02T07:10:37Z</time>
      </trkpt>
      <trkpt lat="43.49193" lon="1.40353">
        <ele>150.1</ele>
        <time>2017-07-02T07:10:38Z</time>
      </trkpt>
      <trkpt lat="43.49187" lon="1.40349">
        <ele>150.1</ele>
        <time>2017-07-02T07:10:39Z</time>
      </trkpt>
      <trkpt lat="43.49182" lon="1.40346">
        <ele>150.1</ele>
        <time>2017-07-02T07:10:40Z</time>
      </trkpt>
      <trkpt lat="43.49177" lon="1.40343">
        <ele>150.1</ele>
        <time>2017-07-02T07:10:41Z</time>
      </trkpt>
      <trkpt lat="43.49172" lon="1.40338">
        <ele>151.06</ele>
        <time>2017-07-02T07:10:42Z</time>
      </trkpt>
      <trkpt lat="43.49167" lon="1.40333">
        <ele>151.06</ele>
        <time>2017-07-02T07:10:43Z</time>
      </trkpt>
      <trkpt lat="43.49103" lon="1.40246">
        <ele>151.06</ele>
        <time>2017-07-02T07:10:58Z</time>
      </trkpt>
      <trkpt lat="43.49042" lon="1.40165">
        <ele>150.1</ele>
        <time>2017-07-02T07:11:12Z</time>
      </trkpt>
      <trkpt lat="43.48964" lon="1.40067">
        <ele>150.1</ele>
        <time>2017-07-02T07:11:30Z</time>
      </trkpt>
      <trkpt lat="43.48882" lon="1.39989">
        <ele>150.1</ele>
        <time>2017-07-02T07:11:48Z</time>
      </trkpt>
      <trkpt lat="43.48855" lon="1.39961">
        <ele>150.1</ele>
        <time>2017-07-02T07:11:54Z</time>
      </trkpt>
      <trkpt lat="43.48851" lon="1.39954">
        <ele>150.1</ele>
        <time>2017-07-02T07:11:55Z</time>
      </trkpt>
      <trkpt lat="43.48849" lon="1.39947">
        <ele>150.1</ele>
        <time>2017-07-02T07:11:56Z</time>
      </trkpt>
      <trkpt lat="43.48847" lon="1.3994">
        <ele>150.1</ele>
        <time>2017-07-02T07:11:57Z</time>
      </trkpt>
      <trkpt lat="43.48845" lon="1.39932">
        <ele>150.1</ele>
        <time>2017-07-02T07:11:58Z</time>
      </trkpt>
      <trkpt lat="43.48843" lon="1.39925">
        <ele>150.1</ele>
        <time>2017-07-02T07:11:59Z</time>
      </trkpt>
      <trkpt lat="43.48843" lon="1.39917">
        <ele>150.1</ele>
        <time>2017-07-02T07:12:00Z</time>
      </trkpt>
      <trkpt lat="43.48842" lon="1.39909">
        <ele>150.1</ele>
        <time>2017-07-02T07:12:01Z</time>
      </trkpt>
      <trkpt lat="43.48843" lon="1.39901">
        <ele>150.1</ele>
        <time>2017-07-02T07:12:02Z</time>
      </trkpt>
      <trkpt lat="43.48845" lon="1.39894">
        <ele>150.1</ele>
        <time>2017-07-02T07:12:03Z</time>
      </trkpt>
      <trkpt lat="43.48847" lon="1.39888">
        <ele>150.1</ele>
        <time>2017-07-02T07:12:04Z</time>
      </trkpt>
      <trkpt lat="43.48851" lon="1.39875">
        <ele>150.1</ele>
        <time>2017-07-02T07:12:06Z</time>
      </trkpt>
      <trkpt lat="43.48851" lon="1.39868">
        <ele>150.1</ele>
        <time>2017-07-02T07:12:07Z</time>
      </trkpt>
      <trkpt lat="43.48851" lon="1.39861">
        <ele>150.1</ele>
        <time>2017-07-02T07:12:08Z</time>
      </trkpt>
      <trkpt lat="43.4885" lon="1.39855">
        <ele>150.1</ele>
        <time>2017-07-02T07:12:09Z</time>
      </trkpt>
      <trkpt lat="43.48848" lon="1.39849">
        <ele>150.1</ele>
        <time>2017-07-02T07:12:10Z</time>
      </trkpt>
      <trkpt lat="43.48845" lon="1.39843">
        <ele>150.1</ele>
        <time>2017-07-02T07:12:11Z</time>
      </trkpt>
      <trkpt lat="43.48842" lon="1.39837">
        <ele>150.1</ele>
        <time>2017-07-02T07:12:12Z</time>
      </trkpt>
      <trkpt lat="43.48839" lon="1.3983">
        <ele>150.1</ele>
        <time>2017-07-02T07:12:13Z</time>
      </trkpt>
      <trkpt lat="43.48838" lon="1.39823">
        <ele>150.1</ele>
        <time>2017-07-02T07:12:14Z</time>
      </trkpt>
      <trkpt lat="43.48836" lon="1.39815">
        <ele>150.1</ele>
        <time>2017-07-02T07:12:15Z</time>
      </trkpt>
      <trkpt lat="43.48836" lon="1.39807">
        <ele>150.1</ele>
        <time>2017-07-02T07:12:16Z</time>
      </trkpt>
      <trkpt lat="43.48837" lon="1.398">
        <ele>150.1</ele>
        <time>2017-07-02T07:12:17Z</time>
      </trkpt>
      <trkpt lat="43.48837" lon="1.39792">
        <ele>150.1</ele>
        <time>2017-07-02T07:12:18Z</time>
      </trkpt>
      <trkpt lat="43.48836" lon="1.39785">
        <ele>150.1</ele>
        <time>2017-07-02T07:12:19Z</time>
      </trkpt>
      <trkpt lat="43.48835" lon="1.39777">
        <ele>150.1</ele>
        <time>2017-07-02T07:12:20Z</time>
      </trkpt>
      <trkpt lat="43.48833" lon="1.3977">
        <ele>150.1</ele>
        <time>2017-07-02T07:12:21Z</time>
      </trkpt>
      <trkpt lat="43.48831" lon="1.39763">
        <ele>150.1</ele>
        <time>2017-07-02T07:12:22Z</time>
      </trkpt>
      <trkpt lat="43.48829" lon="1.39757">
        <ele>150.1</ele>
        <time>2017-07-02T07:12:23Z</time>
      </trkpt>
      <trkpt lat="43.48794" lon="1.39667">
        <ele>150.1</ele>
        <time>2017-07-02T07:12:37Z</time>
      </trkpt>
      <trkpt lat="43.48771" lon="1.39588">
        <ele>151.06</ele>
        <time>2017-07-02T07:12:50Z</time>
      </trkpt>
      <trkpt lat="43.48752" lon="1.39512">
        <ele>152.03</ele>
        <time>2017-07-02T07:13:02Z</time>
      </trkpt>
      <trkpt lat="43.48741" lon="1.39401">
        <ele>152.03</ele>
        <time>2017-07-02T07:13:17Z</time>
      </trkpt>
      <trkpt lat="43.48729" lon="1.39279">
        <ele>152.03</ele>
        <time>2017-07-02T07:13:33Z</time>
      </trkpt>
      <trkpt lat="43.48726" lon="1.39251">
        <ele>152.03</ele>
        <time>2017-07-02T07:13:37Z</time>
      </trkpt>
      <trkpt lat="43.48725" lon="1.39244">
        <ele>152.03</ele>
        <time>2017-07-02T07:13:38Z</time>
      </trkpt>
      <trkpt lat="43.4872" lon="1.39224">
        <ele>152.03</ele>
        <time>2017-07-02T07:13:41Z</time>
      </trkpt>
      <trkpt lat="43.48717" lon="1.39218">
        <ele>152.03</ele>
        <time>2017-07-02T07:13:42Z</time>
      </trkpt>
      <trkpt lat="43.48679" lon="1.3914">
        <ele>152.99</ele>
        <time>2017-07-02T07:13:55Z</time>
      </trkpt>
      <trkpt lat="43.48637" lon="1.39071">
        <ele>153.95</ele>
        <time>2017-07-02T07:14:07Z</time>
      </trkpt>
      <trkpt lat="43.48582" lon="1.39013">
        <ele>154.91</ele>
        <time>2017-07-02T07:14:20Z</time>
      </trkpt>
      <trkpt lat="43.48517" lon="1.38957">
        <ele>155.87</ele>
        <time>2017-07-02T07:14:34Z</time>
      </trkpt>
      <trkpt lat="43.48439" lon="1.38917">
        <ele>155.87</ele>
        <time>2017-07-02T07:14:47Z</time>
      </trkpt>
      <trkpt lat="43.48397" lon="1.38903">
        <ele>154.91</ele>
        <time>2017-07-02T07:14:54Z</time>
      </trkpt>
      <trkpt lat="43.48392" lon="1.38897">
        <ele>154.91</ele>
        <time>2017-07-02T07:14:55Z</time>
      </trkpt>
      <trkpt lat="43.48384" lon="1.38885">
        <ele>154.91</ele>
        <time>2017-07-02T07:14:57Z</time>
      </trkpt>
      <trkpt lat="43.48378" lon="1.38881">
        <ele>154.91</ele>
        <time>2017-07-02T07:14:58Z</time>
      </trkpt>
      <trkpt lat="43.48373" lon="1.38879">
        <ele>154.91</ele>
        <time>2017-07-02T07:14:59Z</time>
      </trkpt>
      <trkpt lat="43.48361" lon="1.38874">
        <ele>154.91</ele>
        <time>2017-07-02T07:15:01Z</time>
      </trkpt>
      <trkpt lat="43.48356" lon="1.38869">
        <ele>154.91</ele>
        <time>2017-07-02T07:15:02Z</time>
      </trkpt>
      <trkpt lat="43.48351" lon="1.38864">
        <ele>154.91</ele>
        <time>2017-07-02T07:15:03Z</time>
      </trkpt>
      <trkpt lat="43.48347" lon="1.38857">
        <ele>154.91</ele>
        <time>2017-07-02T07:15:04Z</time>
      </trkpt>
      <trkpt lat="43.48344" lon="1.3885">
        <ele>154.91</ele>
        <time>2017-07-02T07:15:05Z</time>
      </trkpt>
      <trkpt lat="43.48341" lon="1.38843">
        <ele>154.91</ele>
        <time>2017-07-02T07:15:06Z</time>
      </trkpt>
      <trkpt lat="43.48328" lon="1.38815">
        <ele>154.91</ele>
        <time>2017-07-02T07:15:10Z</time>
      </trkpt>
      <trkpt lat="43.48326" lon="1.38807">
        <ele>154.91</ele>
        <time>2017-07-02T07:15:11Z</time>
      </trkpt>
      <trkpt lat="43.48308" lon="1.38763">
        <ele>154.91</ele>
        <time>2017-07-02T07:15:17Z</time>
      </trkpt>
      <trkpt lat="43.48291" lon="1.38711">
        <ele>154.91</ele>
        <time>2017-07-02T07:15:24Z</time>
      </trkpt>
      <trkpt lat="43.48289" lon="1.38703">
        <ele>154.91</ele>
        <time>2017-07-02T07:15:25Z</time>
      </trkpt>
      <trkpt lat="43.48258" lon="1.38625">
        <ele>154.91</ele>
        <time>2017-07-02T07:15:36Z</time>
      </trkpt>
      <trkpt lat="43.48222" lon="1.38542">
        <ele>154.91</ele>
        <time>2017-07-02T07:15:48Z</time>
      </trkpt>
      <trkpt lat="43.4822" lon="1.38535">
        <ele>154.91</ele>
        <time>2017-07-02T07:15:49Z</time>
      </trkpt>
      <trkpt lat="43.48217" lon="1.38529">
        <ele>154.91</ele>
        <time>2017-07-02T07:15:50Z</time>
      </trkpt>
      <trkpt lat="43.48188" lon="1.3847">
        <ele>154.91</ele>
        <time>2017-07-02T07:15:59Z</time>
      </trkpt>
      <trkpt lat="43.48151" lon="1.38415">
        <ele>154.91</ele>
        <time>2017-07-02T07:16:09Z</time>
      </trkpt>
      <trkpt lat="43.48142" lon="1.38406">
        <ele>154.91</ele>
        <time>2017-07-02T07:16:11Z</time>
      </trkpt>
      <trkpt lat="43.48137" lon="1.38402">
        <ele>154.91</ele>
        <time>2017-07-02T07:16:12Z</time>
      </trkpt>
      <trkpt lat="43.48082" lon="1.38369">
        <ele>155.87</ele>
        <time>2017-07-02T07:16:22Z</time>
      </trkpt>
      <trkpt lat="43.48046" lon="1.38345">
        <ele>155.87</ele>
        <time>2017-07-02T07:16:29Z</time>
      </trkpt>
      <trkpt lat="43.47993" lon="1.38316">
        <ele>155.87</ele>
        <time>2017-07-02T07:16:40Z</time>
      </trkpt>
      <trkpt lat="43.47947" lon="1.38315">
        <ele>156.83</ele>
        <time>2017-07-02T07:16:50Z</time>
      </trkpt>
      <trkpt lat="43.47922" lon="1.38317">
        <ele>159.24</ele>
        <time>2017-07-02T07:16:56Z</time>
      </trkpt>
      <trkpt lat="43.47918" lon="1.38316">
        <ele>159.24</ele>
        <time>2017-07-02T07:16:57Z</time>
      </trkpt>
      <trkpt lat="43.47867" lon="1.38288">
        <ele>161.16</ele>
        <time>2017-07-02T07:17:09Z</time>
      </trkpt>
      <trkpt lat="43.47821" lon="1.38258">
        <ele>161.16</ele>
        <time>2017-07-02T07:17:19Z</time>
      </trkpt>
      <trkpt lat="43.47768" lon="1.38223">
        <ele>162.12</ele>
        <time>2017-07-02T07:17:29Z</time>
      </trkpt>
      <trkpt lat="43.47763" lon="1.38218">
        <ele>162.12</ele>
        <time>2017-07-02T07:17:30Z</time>
      </trkpt>
      <trkpt lat="43.47755" lon="1.38206">
        <ele>162.12</ele>
        <time>2017-07-02T07:17:32Z</time>
      </trkpt>
      <trkpt lat="43.4775" lon="1.38202">
        <ele>162.12</ele>
        <time>2017-07-02T07:17:33Z</time>
      </trkpt>
      <trkpt lat="43.47745" lon="1.38199">
        <ele>162.12</ele>
        <time>2017-07-02T07:17:34Z</time>
      </trkpt>
      <trkpt lat="43.47739" lon="1.38197">
        <ele>162.12</ele>
        <time>2017-07-02T07:17:35Z</time>
      </trkpt>
      <trkpt lat="43.47734" lon="1.38195">
        <ele>162.12</ele>
        <time>2017-07-02T07:17:36Z</time>
      </trkpt>
      <trkpt lat="43.47728" lon="1.38193">
        <ele>162.12</ele>
        <time>2017-07-02T07:17:37Z</time>
      </trkpt>
      <trkpt lat="43.47722" lon="1.3819">
        <ele>162.12</ele>
        <time>2017-07-02T07:17:38Z</time>
      </trkpt>
      <trkpt lat="43.47717" lon="1.38186">
        <ele>162.12</ele>
        <time>2017-07-02T07:17:39Z</time>
      </trkpt>
      <trkpt lat="43.47712" lon="1.38181">
        <ele>162.12</ele>
        <time>2017-07-02T07:17:40Z</time>
      </trkpt>
      <trkpt lat="43.47645" lon="1.38117">
        <ele>161.16</ele>
        <time>2017-07-02T07:17:54Z</time>
      </trkpt>
      <trkpt lat="43.47641" lon="1.38111">
        <ele>161.16</ele>
        <time>2017-07-02T07:17:55Z</time>
      </trkpt>
      <trkpt lat="43.47638" lon="1.38106">
        <ele>161.16</ele>
        <time>2017-07-02T07:17:56Z</time>
      </trkpt>
      <trkpt lat="43.47618" lon="1.38079">
        <ele>161.16</ele>
        <time>2017-07-02T07:18:01Z</time>
      </trkpt>
      <trkpt lat="43.47613" lon="1.38075">
        <ele>161.16</ele>
        <time>2017-07-02T07:18:02Z</time>
      </trkpt>
      <trkpt lat="43.47548" lon="1.38032">
        <ele>161.16</ele>
        <time>2017-07-02T07:18:15Z</time>
      </trkpt>
      <trkpt lat="43.47473" lon="1.38025">
        <ele>162.12</ele>
        <time>2017-07-02T07:18:28Z</time>
      </trkpt>
      <trkpt lat="43.47395" lon="1.38028">
        <ele>162.12</ele>
        <time>2017-07-02T07:18:41Z</time>
      </trkpt>
      <trkpt lat="43.47324" lon="1.38038">
        <ele>162.12</ele>
        <time>2017-07-02T07:18:53Z</time>
      </trkpt>
      <trkpt lat="43.47284" lon="1.38032">
        <ele>162.12</ele>
        <time>2017-07-02T07:19:00Z</time>
      </trkpt>
      <trkpt lat="43.47212" lon="1.38002">
        <ele>162.12</ele>
        <time>2017-07-02T07:19:13Z</time>
      </trkpt>
      <trkpt lat="43.47142" lon="1.37977">
        <ele>163.08</ele>
        <time>2017-07-02T07:19:26Z</time>
      </trkpt>
      <trkpt lat="43.47137" lon="1.37977">
        <ele>163.08</ele>
        <time>2017-07-02T07:19:27Z</time>
      </trkpt>
      <trkpt lat="43.47131" lon="1.37977">
        <ele>163.08</ele>
        <time>2017-07-02T07:19:28Z</time>
      </trkpt>
      <trkpt lat="43.47072" lon="1.37989">
        <ele>163.08</ele>
        <time>2017-07-02T07:19:38Z</time>
      </trkpt>
      <trkpt lat="43.47066" lon="1.37988">
        <ele>163.08</ele>
        <time>2017-07-02T07:19:39Z</time>
      </trkpt>
      <trkpt lat="43.4706" lon="1.37986">
        <ele>163.08</ele>
        <time>2017-07-02T07:19:40Z</time>
      </trkpt>
      <trkpt lat="43.47054" lon="1.37983">
        <ele>163.08</ele>
        <time>2017-07-02T07:19:41Z</time>
      </trkpt>
      <trkpt lat="43.47049" lon="1.37979">
        <ele>163.08</ele>
        <time>2017-07-02T07:19:42Z</time>
      </trkpt>
      <trkpt lat="43.47044" lon="1.37974">
        <ele>163.08</ele>
        <time>2017-07-02T07:19:43Z</time>
      </trkpt>
      <trkpt lat="43.47039" lon="1.37969">
        <ele>163.08</ele>
        <time>2017-07-02T07:19:44Z</time>
      </trkpt>
      <trkpt lat="43.47019" lon="1.3794">
        <ele>163.08</ele>
        <time>2017-07-02T07:19:49Z</time>
      </trkpt>
      <trkpt lat="43.47015" lon="1.37934">
        <ele>163.08</ele>
        <time>2017-07-02T07:19:50Z</time>
      </trkpt>
      <trkpt lat="43.47001" lon="1.37919">
        <ele>163.08</ele>
        <time>2017-07-02T07:19:53Z</time>
      </trkpt>
      <trkpt lat="43.46932" lon="1.37867">
        <ele>163.08</ele>
        <time>2017-07-02T07:20:06Z</time>
      </trkpt>
      <trkpt lat="43.46927" lon="1.37863">
        <ele>163.08</ele>
        <time>2017-07-02T07:20:07Z</time>
      </trkpt>
      <trkpt lat="43.46922" lon="1.37859">
        <ele>163.08</ele>
        <time>2017-07-02T07:20:08Z</time>
      </trkpt>
      <trkpt lat="43.46861" lon="1.37829">
        <ele>163.08</ele>
        <time>2017-07-02T07:20:19Z</time>
      </trkpt>
      <trkpt lat="43.4679" lon="1.37797">
        <ele>163.08</ele>
        <time>2017-07-02T07:20:32Z</time>
      </trkpt>
      <trkpt lat="43.46759" lon="1.37781">
        <ele>163.08</ele>
        <time>2017-07-02T07:20:38Z</time>
      </trkpt>
      <trkpt lat="43.46733" lon="1.37751">
        <ele>163.08</ele>
        <time>2017-07-02T07:20:44Z</time>
      </trkpt>
      <trkpt lat="43.46708" lon="1.3771">
        <ele>163.08</ele>
        <time>2017-07-02T07:20:51Z</time>
      </trkpt>
      <trkpt lat="43.46705" lon="1.37703">
        <ele>163.08</ele>
        <time>2017-07-02T07:20:52Z</time>
      </trkpt>
      <trkpt lat="43.46689" lon="1.37655">
        <ele>163.08</ele>
        <time>2017-07-02T07:20:59Z</time>
      </trkpt>
      <trkpt lat="43.46656" lon="1.37579">
        <ele>163.08</ele>
        <time>2017-07-02T07:21:11Z</time>
      </trkpt>
      <trkpt lat="43.4665" lon="1.37561">
        <ele>163.08</ele>
        <time>2017-07-02T07:21:14Z</time>
      </trkpt>
      <trkpt lat="43.46649" lon="1.37554">
        <ele>163.08</ele>
        <time>2017-07-02T07:21:15Z</time>
      </trkpt>
      <trkpt lat="43.46649" lon="1.37547">
        <ele>163.08</ele>
        <time>2017-07-02T07:21:16Z</time>
      </trkpt>
      <trkpt lat="43.4665" lon="1.37534">
        <ele>163.08</ele>
        <time>2017-07-02T07:21:18Z</time>
      </trkpt>
      <trkpt lat="43.46649" lon="1.37528">
        <ele>163.08</ele>
        <time>2017-07-02T07:21:19Z</time>
      </trkpt>
      <trkpt lat="43.46646" lon="1.37522">
        <ele>163.08</ele>
        <time>2017-07-02T07:21:20Z</time>
      </trkpt>
      <trkpt lat="43.46642" lon="1.37518">
        <ele>163.08</ele>
        <time>2017-07-02T07:21:21Z</time>
      </trkpt>
      <trkpt lat="43.46637" lon="1.37516">
        <ele>163.08</ele>
        <time>2017-07-02T07:21:22Z</time>
      </trkpt>
      <trkpt lat="43.46632" lon="1.37516">
        <ele>163.08</ele>
        <time>2017-07-02T07:21:23Z</time>
      </trkpt>
      <trkpt lat="43.46627" lon="1.37515">
        <ele>163.08</ele>
        <time>2017-07-02T07:21:24Z</time>
      </trkpt>
      <trkpt lat="43.46606" lon="1.37507">
        <ele>164.04</ele>
        <time>2017-07-02T07:21:28Z</time>
      </trkpt>
      <trkpt lat="43.46536" lon="1.37474">
        <ele>164.04</ele>
        <time>2017-07-02T07:21:41Z</time>
      </trkpt>
      <trkpt lat="43.46451" lon="1.37448">
        <ele>165</ele>
        <time>2017-07-02T07:21:56Z</time>
      </trkpt>
      <trkpt lat="43.46412" lon="1.37436">
        <ele>165</ele>
        <time>2017-07-02T07:22:03Z</time>
      </trkpt>
      <trkpt lat="43.46406" lon="1.37434">
        <ele>165</ele>
        <time>2017-07-02T07:22:04Z</time>
      </trkpt>
      <trkpt lat="43.46401" lon="1.37431">
        <ele>165</ele>
        <time>2017-07-02T07:22:05Z</time>
      </trkpt>
      <trkpt lat="43.46321" lon="1.37406">
        <ele>165</ele>
        <time>2017-07-02T07:22:19Z</time>
      </trkpt>
      <trkpt lat="43.46258" lon="1.37387">
        <ele>165</ele>
        <time>2017-07-02T07:22:30Z</time>
      </trkpt>
      <trkpt lat="43.46185" lon="1.37363">
        <ele>165</ele>
        <time>2017-07-02T07:22:43Z</time>
      </trkpt>
      <trkpt lat="43.46152" lon="1.37353">
        <ele>165</ele>
        <time>2017-07-02T07:22:49Z</time>
      </trkpt>
      <trkpt lat="43.46147" lon="1.37351">
        <ele>165</ele>
        <time>2017-07-02T07:22:50Z</time>
      </trkpt>
      <trkpt lat="43.4609" lon="1.37332">
        <ele>165</ele>
        <time>2017-07-02T07:23:00Z</time>
      </trkpt>
      <trkpt lat="43.46022" lon="1.37313">
        <ele>165</ele>
        <time>2017-07-02T07:23:12Z</time>
      </trkpt>
      <trkpt lat="43.45965" lon="1.37291">
        <ele>165.96</ele>
        <time>2017-07-02T07:23:23Z</time>
      </trkpt>
      <trkpt lat="43.4595" lon="1.37286">
        <ele>165.96</ele>
        <time>2017-07-02T07:23:28Z</time>
      </trkpt>
      <trkpt lat="43.45945" lon="1.37286">
        <ele>165.96</ele>
        <time>2017-07-02T07:23:29Z</time>
      </trkpt>
      <trkpt lat="43.4594" lon="1.37286">
        <ele>165.96</ele>
        <time>2017-07-02T07:23:30Z</time>
      </trkpt>
      <trkpt lat="43.45879" lon="1.37263">
        <ele>165.96</ele>
        <time>2017-07-02T07:23:41Z</time>
      </trkpt>
      <trkpt lat="43.45805" lon="1.37234">
        <ele>165.96</ele>
        <time>2017-07-02T07:23:54Z</time>
      </trkpt>
      <trkpt lat="43.45737" lon="1.37207">
        <ele>166.93</ele>
        <time>2017-07-02T07:24:06Z</time>
      </trkpt>
      <trkpt lat="43.45637" lon="1.37165">
        <ele>166.93</ele>
        <time>2017-07-02T07:24:24Z</time>
      </trkpt>
      <trkpt lat="43.45534" lon="1.37127">
        <ele>166.93</ele>
        <time>2017-07-02T07:24:42Z</time>
      </trkpt>
      <trkpt lat="43.45454" lon="1.37099">
        <ele>167.89</ele>
        <time>2017-07-02T07:24:56Z</time>
      </trkpt>
      <trkpt lat="43.45425" lon="1.37091">
        <ele>167.89</ele>
        <time>2017-07-02T07:25:01Z</time>
      </trkpt>
      <trkpt lat="43.45361" lon="1.37101">
        <ele>167.89</ele>
        <time>2017-07-02T07:25:12Z</time>
      </trkpt>
      <trkpt lat="43.45332" lon="1.37109">
        <ele>167.89</ele>
        <time>2017-07-02T07:25:17Z</time>
      </trkpt>
      <trkpt lat="43.45326" lon="1.37109">
        <ele>167.89</ele>
        <time>2017-07-02T07:25:18Z</time>
      </trkpt>
      <trkpt lat="43.45289" lon="1.3711">
        <ele>167.89</ele>
        <time>2017-07-02T07:25:24Z</time>
      </trkpt>
      <trkpt lat="43.45283" lon="1.37108">
        <ele>167.89</ele>
        <time>2017-07-02T07:25:25Z</time>
      </trkpt>
      <trkpt lat="43.45277" lon="1.37106">
        <ele>168.85</ele>
        <time>2017-07-02T07:25:26Z</time>
      </trkpt>
      <trkpt lat="43.45206" lon="1.37068">
        <ele>169.81</ele>
        <time>2017-07-02T07:25:40Z</time>
      </trkpt>
      <trkpt lat="43.45137" lon="1.37021">
        <ele>170.77</ele>
        <time>2017-07-02T07:25:55Z</time>
      </trkpt>
      <trkpt lat="43.45064" lon="1.36977">
        <ele>172.21</ele>
        <time>2017-07-02T07:26:11Z</time>
      </trkpt>
      <trkpt lat="43.45043" lon="1.3697">
        <ele>172.21</ele>
        <time>2017-07-02T07:26:15Z</time>
      </trkpt>
      <trkpt lat="43.44984" lon="1.36919">
        <ele>172.21</ele>
        <time>2017-07-02T07:26:28Z</time>
      </trkpt>
      <trkpt lat="43.44913" lon="1.3685">
        <ele>172.21</ele>
        <time>2017-07-02T07:26:45Z</time>
      </trkpt>
      <trkpt lat="43.44847" lon="1.36784">
        <ele>172.21</ele>
        <time>2017-07-02T07:27:00Z</time>
      </trkpt>
      <trkpt lat="43.44811" lon="1.36747">
        <ele>172.21</ele>
        <time>2017-07-02T07:27:08Z</time>
      </trkpt>
      <trkpt lat="43.44748" lon="1.3665">
        <ele>173.17</ele>
        <time>2017-07-02T07:27:25Z</time>
      </trkpt>
      <trkpt lat="43.44736" lon="1.36634">
        <ele>173.17</ele>
        <time>2017-07-02T07:27:28Z</time>
      </trkpt>
      <trkpt lat="43.44732" lon="1.36629">
        <ele>173.17</ele>
        <time>2017-07-02T07:27:29Z</time>
      </trkpt>
      <trkpt lat="43.44727" lon="1.36625">
        <ele>173.17</ele>
        <time>2017-07-02T07:27:30Z</time>
      </trkpt>
      <trkpt lat="43.4466" lon="1.36589">
        <ele>173.17</ele>
        <time>2017-07-02T07:27:43Z</time>
      </trkpt>
      <trkpt lat="43.44591" lon="1.36564">
        <ele>173.17</ele>
        <time>2017-07-02T07:27:56Z</time>
      </trkpt>
      <trkpt lat="43.4452" lon="1.36541">
        <ele>174.14</ele>
        <time>2017-07-02T07:28:09Z</time>
      </trkpt>
      <trkpt lat="43.44515" lon="1.36539">
        <ele>174.14</ele>
        <time>2017-07-02T07:28:10Z</time>
      </trkpt>
      <trkpt lat="43.44478" lon="1.36523">
        <ele>174.14</ele>
        <time>2017-07-02T07:28:17Z</time>
      </trkpt>
      <trkpt lat="43.44411" lon="1.36486">
        <ele>174.14</ele>
        <time>2017-07-02T07:28:30Z</time>
      </trkpt>
      <trkpt lat="43.44327" lon="1.36456">
        <ele>175.1</ele>
        <time>2017-07-02T07:28:46Z</time>
      </trkpt>
      <trkpt lat="43.44245" lon="1.36436">
        <ele>176.06</ele>
        <time>2017-07-02T07:29:02Z</time>
      </trkpt>
      <trkpt lat="43.44152" lon="1.36414">
        <ele>176.06</ele>
        <time>2017-07-02T07:29:20Z</time>
      </trkpt>
      <trkpt lat="43.44123" lon="1.36407">
        <ele>176.06</ele>
        <time>2017-07-02T07:29:26Z</time>
      </trkpt>
      <trkpt lat="43.44074" lon="1.36396">
        <ele>177.02</ele>
        <time>2017-07-02T07:29:37Z</time>
      </trkpt>
      <trkpt lat="43.44038" lon="1.36388">
        <ele>177.98</ele>
        <time>2017-07-02T07:29:47Z</time>
      </trkpt>
      <trkpt lat="43.44008" lon="1.3638">
        <ele>180.87</ele>
        <time>2017-07-02T07:29:58Z</time>
      </trkpt>
      <trkpt lat="43.43975" lon="1.36373">
        <ele>184.23</ele>
        <time>2017-07-02T07:30:11Z</time>
      </trkpt>
      <trkpt lat="43.4395" lon="1.36368">
        <ele>186.15</ele>
        <time>2017-07-02T07:30:22Z</time>
      </trkpt>
      <trkpt lat="43.43927" lon="1.36359">
        <ele>189.04</ele>
        <time>2017-07-02T07:30:33Z</time>
      </trkpt>
      <trkpt lat="43.43904" lon="1.36353">
        <ele>190.96</ele>
        <time>2017-07-02T07:30:43Z</time>
      </trkpt>
      <trkpt lat="43.43875" lon="1.36345">
        <ele>193.84</ele>
        <time>2017-07-02T07:30:57Z</time>
      </trkpt>
      <trkpt lat="43.43839" lon="1.36334">
        <ele>197.21</ele>
        <time>2017-07-02T07:31:13Z</time>
      </trkpt>
      <trkpt lat="43.438" lon="1.36326">
        <ele>199.13</ele>
        <time>2017-07-02T07:31:28Z</time>
      </trkpt>
      <trkpt lat="43.43757" lon="1.36315">
        <ele>200.09</ele>
        <time>2017-07-02T07:31:39Z</time>
      </trkpt>
      <trkpt lat="43.43688" lon="1.36295">
        <ele>200.09</ele>
        <time>2017-07-02T07:31:53Z</time>
      </trkpt>
      <trkpt lat="43.43637" lon="1.36282">
        <ele>200.09</ele>
        <time>2017-07-02T07:32:03Z</time>
      </trkpt>
      <trkpt lat="43.43544" lon="1.36256">
        <ele>200.09</ele>
        <time>2017-07-02T07:32:20Z</time>
      </trkpt>
      <trkpt lat="43.43447" lon="1.36234">
        <ele>200.09</ele>
        <time>2017-07-02T07:32:37Z</time>
      </trkpt>
      <trkpt lat="43.43383" lon="1.36215">
        <ele>199.13</ele>
        <time>2017-07-02T07:32:49Z</time>
      </trkpt>
      <trkpt lat="43.43325" lon="1.36178">
        <ele>200.09</ele>
        <time>2017-07-02T07:33:01Z</time>
      </trkpt>
      <trkpt lat="43.43292" lon="1.36152">
        <ele>200.09</ele>
        <time>2017-07-02T07:33:08Z</time>
      </trkpt>
      <trkpt lat="43.43289" lon="1.36148">
        <ele>200.09</ele>
        <time>2017-07-02T07:33:09Z</time>
      </trkpt>
      <trkpt lat="43.43235" lon="1.36074">
        <ele>201.05</ele>
        <time>2017-07-02T07:33:23Z</time>
      </trkpt>
      <trkpt lat="43.43188" lon="1.36022">
        <ele>201.05</ele>
        <time>2017-07-02T07:33:34Z</time>
      </trkpt>
      <trkpt lat="43.43183" lon="1.3602">
        <ele>201.05</ele>
        <time>2017-07-02T07:33:35Z</time>
      </trkpt>
      <trkpt lat="43.43178" lon="1.3602">
        <ele>201.05</ele>
        <time>2017-07-02T07:33:36Z</time>
      </trkpt>
      <trkpt lat="43.43173" lon="1.36024">
        <ele>201.05</ele>
        <time>2017-07-02T07:33:37Z</time>
      </trkpt>
      <trkpt lat="43.43169" lon="1.3603">
        <ele>201.05</ele>
        <time>2017-07-02T07:33:38Z</time>
      </trkpt>
      <trkpt lat="43.43166" lon="1.36037">
        <ele>201.05</ele>
        <time>2017-07-02T07:33:39Z</time>
      </trkpt>
      <trkpt lat="43.43154" lon="1.36064">
        <ele>201.05</ele>
        <time>2017-07-02T07:33:43Z</time>
      </trkpt>
      <trkpt lat="43.43114" lon="1.36144">
        <ele>200.09</ele>
        <time>2017-07-02T07:33:55Z</time>
      </trkpt>
      <trkpt lat="43.43104" lon="1.36163">
        <ele>200.09</ele>
        <time>2017-07-02T07:33:58Z</time>
      </trkpt>
      <trkpt lat="43.43099" lon="1.36168">
        <ele>200.09</ele>
        <time>2017-07-02T07:33:59Z</time>
      </trkpt>
      <trkpt lat="43.43093" lon="1.3617">
        <ele>200.09</ele>
        <time>2017-07-02T07:34:00Z</time>
      </trkpt>
      <trkpt lat="43.43087" lon="1.36169">
        <ele>200.09</ele>
        <time>2017-07-02T07:34:01Z</time>
      </trkpt>
      <trkpt lat="43.43083" lon="1.36167">
        <ele>200.09</ele>
        <time>2017-07-02T07:34:02Z</time>
      </trkpt>
      <trkpt lat="43.43078" lon="1.36163">
        <ele>200.09</ele>
        <time>2017-07-02T07:34:03Z</time>
      </trkpt>
      <trkpt lat="43.43073" lon="1.36159">
        <ele>200.09</ele>
        <time>2017-07-02T07:34:04Z</time>
      </trkpt>
      <trkpt lat="43.43007" lon="1.36102">
        <ele>200.09</ele>
        <time>2017-07-02T07:34:18Z</time>
      </trkpt>
      <trkpt lat="43.42944" lon="1.36048">
        <ele>201.05</ele>
        <time>2017-07-02T07:34:31Z</time>
      </trkpt>
      <trkpt lat="43.42884" lon="1.35998">
        <ele>201.05</ele>
        <time>2017-07-02T07:34:43Z</time>
      </trkpt>
      <trkpt lat="43.42817" lon="1.35943">
        <ele>201.05</ele>
        <time>2017-07-02T07:34:57Z</time>
      </trkpt>
      <trkpt lat="43.42746" lon="1.35883">
        <ele>202.01</ele>
        <time>2017-07-02T07:35:13Z</time>
      </trkpt>
      <trkpt lat="43.42678" lon="1.35828">
        <ele>202.98</ele>
        <time>2017-07-02T07:35:29Z</time>
      </trkpt>
      <trkpt lat="43.42633" lon="1.35789">
        <ele>202.98</ele>
        <time>2017-07-02T07:35:41Z</time>
      </trkpt>
      <trkpt lat="43.42618" lon="1.35781">
        <ele>203.94</ele>
        <time>2017-07-02T07:35:49Z</time>
      </trkpt>
      <trkpt lat="43.42593" lon="1.3577">
        <ele>204.9</ele>
        <time>2017-07-02T07:35:58Z</time>
      </trkpt>
      <trkpt lat="43.42548" lon="1.35736">
        <ele>204.9</ele>
        <time>2017-07-02T07:36:09Z</time>
      </trkpt>
      <trkpt lat="43.42517" lon="1.35712">
        <ele>204.9</ele>
        <time>2017-07-02T07:36:16Z</time>
      </trkpt>
      <trkpt lat="43.42513" lon="1.35712">
        <ele>204.9</ele>
        <time>2017-07-02T07:36:17Z</time>
      </trkpt>
      <trkpt lat="43.42509" lon="1.35711">
        <ele>204.9</ele>
        <time>2017-07-02T07:36:18Z</time>
      </trkpt>
      <trkpt lat="43.42505" lon="1.35709">
        <ele>203.94</ele>
        <time>2017-07-02T07:36:19Z</time>
      </trkpt>
      <trkpt lat="43.42502" lon="1.35707">
        <ele>203.94</ele>
        <time>2017-07-02T07:36:20Z</time>
      </trkpt>
      <trkpt lat="43.42498" lon="1.35703">
        <ele>203.94</ele>
        <time>2017-07-02T07:36:21Z</time>
      </trkpt>
      <trkpt lat="43.42449" lon="1.35665">
        <ele>203.94</ele>
        <time>2017-07-02T07:36:33Z</time>
      </trkpt>
      <trkpt lat="43.42391" lon="1.35625">
        <ele>203.94</ele>
        <time>2017-07-02T07:36:47Z</time>
      </trkpt>
      <trkpt lat="43.42334" lon="1.35585">
        <ele>205.86</ele>
        <time>2017-07-02T07:37:02Z</time>
      </trkpt>
      <trkpt lat="43.42315" lon="1.35568">
        <ele>205.86</ele>
        <time>2017-07-02T07:37:08Z</time>
      </trkpt>
      <trkpt lat="43.42314" lon="1.35563">
        <ele>205.86</ele>
        <time>2017-07-02T07:37:09Z</time>
      </trkpt>
      <trkpt lat="43.42315" lon="1.35557">
        <ele>205.86</ele>
        <time>2017-07-02T07:37:10Z</time>
      </trkpt>
      <trkpt lat="43.42319" lon="1.35542">
        <ele>205.86</ele>
        <time>2017-07-02T07:37:13Z</time>
      </trkpt>
      <trkpt lat="43.42321" lon="1.35537">
        <ele>205.86</ele>
        <time>2017-07-02T07:37:14Z</time>
      </trkpt>
      <trkpt lat="43.42348" lon="1.35478">
        <ele>205.86</ele>
        <time>2017-07-02T07:37:26Z</time>
      </trkpt>
      <trkpt lat="43.42358" lon="1.35447">
        <ele>206.82</ele>
        <time>2017-07-02T07:37:32Z</time>
      </trkpt>
      <trkpt lat="43.42357" lon="1.35442">
        <ele>206.82</ele>
        <time>2017-07-02T07:37:33Z</time>
      </trkpt>
      <trkpt lat="43.42355" lon="1.35437">
        <ele>206.82</ele>
        <time>2017-07-02T07:37:34Z</time>
      </trkpt>
      <trkpt lat="43.42352" lon="1.35432">
        <ele>206.82</ele>
        <time>2017-07-02T07:37:35Z</time>
      </trkpt>
      <trkpt lat="43.4235" lon="1.35428">
        <ele>206.82</ele>
        <time>2017-07-02T07:37:36Z</time>
      </trkpt>
      <trkpt lat="43.42346" lon="1.35423">
        <ele>206.82</ele>
        <time>2017-07-02T07:37:37Z</time>
      </trkpt>
      <trkpt lat="43.42342" lon="1.3542">
        <ele>206.82</ele>
        <time>2017-07-02T07:37:38Z</time>
      </trkpt>
      <trkpt lat="43.42338" lon="1.35417">
        <ele>206.82</ele>
        <time>2017-07-02T07:37:39Z</time>
      </trkpt>
      <trkpt lat="43.42334" lon="1.35414">
        <ele>206.82</ele>
        <time>2017-07-02T07:37:40Z</time>
      </trkpt>
      <trkpt lat="43.42321" lon="1.35405">
        <ele>206.82</ele>
        <time>2017-07-02T07:37:43Z</time>
      </trkpt>
      <trkpt lat="43.42317" lon="1.35402">
        <ele>206.82</ele>
        <time>2017-07-02T07:37:44Z</time>
      </trkpt>
      <trkpt lat="43.42313" lon="1.35399">
        <ele>206.82</ele>
        <time>2017-07-02T07:37:45Z</time>
      </trkpt>
      <trkpt lat="43.42309" lon="1.35396">
        <ele>206.82</ele>
        <time>2017-07-02T07:37:46Z</time>
      </trkpt>
      <trkpt lat="43.42306" lon="1.35394">
        <ele>206.82</ele>
        <time>2017-07-02T07:37:47Z</time>
      </trkpt>
      <trkpt lat="43.42303" lon="1.35391">
        <ele>206.82</ele>
        <time>2017-07-02T07:37:48Z</time>
      </trkpt>
      <trkpt lat="43.42301" lon="1.35387">
        <ele>206.82</ele>
        <time>2017-07-02T07:37:49Z</time>
      </trkpt>
      <trkpt lat="43.42301" lon="1.35383">
        <ele>206.82</ele>
        <time>2017-07-02T07:37:50Z</time>
      </trkpt>
      <trkpt lat="43.42302" lon="1.35378">
        <ele>206.82</ele>
        <time>2017-07-02T07:37:51Z</time>
      </trkpt>
      <trkpt lat="43.42305" lon="1.35373">
        <ele>206.82</ele>
        <time>2017-07-02T07:37:52Z</time>
      </trkpt>
      <trkpt lat="43.42307" lon="1.35369">
        <ele>206.82</ele>
        <time>2017-07-02T07:37:53Z</time>
      </trkpt>
      <trkpt lat="43.42309" lon="1.35364">
        <ele>206.82</ele>
        <time>2017-07-02T07:37:54Z</time>
      </trkpt>
      <trkpt lat="43.42311" lon="1.35359">
        <ele>206.82</ele>
        <time>2017-07-02T07:37:55Z</time>
      </trkpt>
      <trkpt lat="43.42337" lon="1.35293">
        <ele>206.82</ele>
        <time>2017-07-02T07:38:07Z</time>
      </trkpt>
      <trkpt lat="43.42338" lon="1.35286">
        <ele>206.82</ele>
        <time>2017-07-02T07:38:08Z</time>
      </trkpt>
      <trkpt lat="43.42341" lon="1.35275">
        <ele>206.82</ele>
        <time>2017-07-02T07:38:10Z</time>
      </trkpt>
      <trkpt lat="43.42343" lon="1.3527">
        <ele>206.82</ele>
        <time>2017-07-02T07:38:11Z</time>
      </trkpt>
      <trkpt lat="43.42346" lon="1.35266">
        <ele>206.82</ele>
        <time>2017-07-02T07:38:12Z</time>
      </trkpt>
      <trkpt lat="43.4235" lon="1.35263">
        <ele>206.82</ele>
        <time>2017-07-02T07:38:13Z</time>
      </trkpt>
      <trkpt lat="43.42354" lon="1.35262">
        <ele>206.82</ele>
        <time>2017-07-02T07:38:14Z</time>
      </trkpt>
      <trkpt lat="43.42359" lon="1.3526">
        <ele>206.82</ele>
        <time>2017-07-02T07:38:15Z</time>
      </trkpt>
      <trkpt lat="43.424" lon="1.35231">
        <ele>207.78</ele>
        <time>2017-07-02T07:38:25Z</time>
      </trkpt>
      <trkpt lat="43.42403" lon="1.35226">
        <ele>207.78</ele>
        <time>2017-07-02T07:38:26Z</time>
      </trkpt>
      <trkpt lat="43.42406" lon="1.35221">
        <ele>207.78</ele>
        <time>2017-07-02T07:38:27Z</time>
      </trkpt>
      <trkpt lat="43.42419" lon="1.35193">
        <ele>207.78</ele>
        <time>2017-07-02T07:38:32Z</time>
      </trkpt>
      <trkpt lat="43.4242" lon="1.35188">
        <ele>207.78</ele>
        <time>2017-07-02T07:38:33Z</time>
      </trkpt>
      <trkpt lat="43.42421" lon="1.35182">
        <ele>207.78</ele>
        <time>2017-07-02T07:38:34Z</time>
      </trkpt>
      <trkpt lat="43.42426" lon="1.35156">
        <ele>207.78</ele>
        <time>2017-07-02T07:38:40Z</time>
      </trkpt>
      <trkpt lat="43.42428" lon="1.35155">
        <ele>207.78</ele>
        <time>2017-07-02T07:38:41Z</time>
      </trkpt>
      <trkpt lat="43.4243" lon="1.35155">
        <ele>207.78</ele>
        <time>2017-07-02T07:38:42Z</time>
      </trkpt>
      <trkpt lat="43.42432" lon="1.35157">
        <ele>207.78</ele>
        <time>2017-07-02T07:38:43Z</time>
      </trkpt>
      <trkpt lat="43.42434" lon="1.35158">
        <ele>207.78</ele>
        <time>2017-07-02T07:38:44Z</time>
      </trkpt>
      <trkpt lat="43.42452" lon="1.35165">
        <ele>209.22</ele>
        <time>2017-07-02T07:38:49Z</time>
      </trkpt>
      <trkpt lat="43.42476" lon="1.35174">
        <ele>209.22</ele>
        <time>2017-07-02T07:38:55Z</time>
      </trkpt>
      <trkpt lat="43.42484" lon="1.35172">
        <ele>209.22</ele>
        <time>2017-07-02T07:38:57Z</time>
      </trkpt>
      <trkpt lat="43.42487" lon="1.35169">
        <ele>209.22</ele>
        <time>2017-07-02T07:38:58Z</time>
      </trkpt>
      <trkpt lat="43.42493" lon="1.35163">
        <ele>209.22</ele>
        <time>2017-07-02T07:39:00Z</time>
      </trkpt>
      <trkpt lat="43.42496" lon="1.3516">
        <ele>209.22</ele>
        <time>2017-07-02T07:39:01Z</time>
      </trkpt>
      <trkpt lat="43.42546" lon="1.35126">
        <ele>209.22</ele>
        <time>2017-07-02T07:39:12Z</time>
      </trkpt>
      <trkpt lat="43.42552" lon="1.35126">
        <ele>209.22</ele>
        <time>2017-07-02T07:39:13Z</time>
      </trkpt>
      <trkpt lat="43.42558" lon="1.35127">
        <ele>209.22</ele>
        <time>2017-07-02T07:39:14Z</time>
      </trkpt>
      <trkpt lat="43.42563" lon="1.3513">
        <ele>209.22</ele>
        <time>2017-07-02T07:39:15Z</time>
      </trkpt>
      <trkpt lat="43.42569" lon="1.35132">
        <ele>209.22</ele>
        <time>2017-07-02T07:39:16Z</time>
      </trkpt>
      <trkpt lat="43.4263" lon="1.35156">
        <ele>207.78</ele>
        <time>2017-07-02T07:39:27Z</time>
      </trkpt>
      <trkpt lat="43.42636" lon="1.35156">
        <ele>207.78</ele>
        <time>2017-07-02T07:39:28Z</time>
      </trkpt>
      <trkpt lat="43.42641" lon="1.35155">
        <ele>207.78</ele>
        <time>2017-07-02T07:39:29Z</time>
      </trkpt>
      <trkpt lat="43.42656" lon="1.35151">
        <ele>207.78</ele>
        <time>2017-07-02T07:39:32Z</time>
      </trkpt>
      <trkpt lat="43.42661" lon="1.35151">
        <ele>207.78</ele>
        <time>2017-07-02T07:39:33Z</time>
      </trkpt>
      <trkpt lat="43.42665" lon="1.35152">
        <ele>207.78</ele>
        <time>2017-07-02T07:39:34Z</time>
      </trkpt>
      <trkpt lat="43.42668" lon="1.35156">
        <ele>207.78</ele>
        <time>2017-07-02T07:39:35Z</time>
      </trkpt>
      <trkpt lat="43.42671" lon="1.3516">
        <ele>207.78</ele>
        <time>2017-07-02T07:39:36Z</time>
      </trkpt>
      <trkpt lat="43.42674" lon="1.35165">
        <ele>207.78</ele>
        <time>2017-07-02T07:39:37Z</time>
      </trkpt>
      <trkpt lat="43.42711" lon="1.35229">
        <ele>206.82</ele>
        <time>2017-07-02T07:39:47Z</time>
      </trkpt>
      <trkpt lat="43.42742" lon="1.35282">
        <ele>206.82</ele>
        <time>2017-07-02T07:39:55Z</time>
      </trkpt>
      <trkpt lat="43.42792" lon="1.35372">
        <ele>206.82</ele>
        <time>2017-07-02T07:40:08Z</time>
      </trkpt>
      <trkpt lat="43.42795" lon="1.35379">
        <ele>206.82</ele>
        <time>2017-07-02T07:40:09Z</time>
      </trkpt>
      <trkpt lat="43.42798" lon="1.35387">
        <ele>206.82</ele>
        <time>2017-07-02T07:40:10Z</time>
      </trkpt>
      <trkpt lat="43.42801" lon="1.35395">
        <ele>206.82</ele>
        <time>2017-07-02T07:40:11Z</time>
      </trkpt>
      <trkpt lat="43.42807" lon="1.35468">
        <ele>205.86</ele>
        <time>2017-07-02T07:40:20Z</time>
      </trkpt>
      <trkpt lat="43.42809" lon="1.35481">
        <ele>205.86</ele>
        <time>2017-07-02T07:40:23Z</time>
      </trkpt>
      <trkpt lat="43.42811" lon="1.35481">
        <ele>205.86</ele>
        <time>2017-07-02T07:40:24Z</time>
      </trkpt>
      <trkpt lat="43.42813" lon="1.35479">
        <ele>205.86</ele>
        <time>2017-07-02T07:40:25Z</time>
      </trkpt>
      <trkpt lat="43.42816" lon="1.35477">
        <ele>205.86</ele>
        <time>2017-07-02T07:40:26Z</time>
      </trkpt>
      <trkpt lat="43.4282" lon="1.35476">
        <ele>205.86</ele>
        <time>2017-07-02T07:40:27Z</time>
      </trkpt>
      <trkpt lat="43.42824" lon="1.35475">
        <ele>205.86</ele>
        <time>2017-07-02T07:40:28Z</time>
      </trkpt>
      <trkpt lat="43.42829" lon="1.35477">
        <ele>205.86</ele>
        <time>2017-07-02T07:40:29Z</time>
      </trkpt>
      <trkpt lat="43.42833" lon="1.3548">
        <ele>205.86</ele>
        <time>2017-07-02T07:40:30Z</time>
      </trkpt>
      <trkpt lat="43.42837" lon="1.35485">
        <ele>205.86</ele>
        <time>2017-07-02T07:40:31Z</time>
      </trkpt>
      <trkpt lat="43.4284" lon="1.35491">
        <ele>205.86</ele>
        <time>2017-07-02T07:40:32Z</time>
      </trkpt>
      <trkpt lat="43.42883" lon="1.3558">
        <ele>204.9</ele>
        <time>2017-07-02T07:40:44Z</time>
      </trkpt>
      <trkpt lat="43.42925" lon="1.35679">
        <ele>202.98</ele>
        <time>2017-07-02T07:40:55Z</time>
      </trkpt>
      <trkpt lat="43.42965" lon="1.35775">
        <ele>201.05</ele>
        <time>2017-07-02T07:41:06Z</time>
      </trkpt>
      <trkpt lat="43.42977" lon="1.358">
        <ele>201.05</ele>
        <time>2017-07-02T07:41:09Z</time>
      </trkpt>
      <trkpt lat="43.42982" lon="1.35807">
        <ele>201.05</ele>
        <time>2017-07-02T07:41:10Z</time>
      </trkpt>
      <trkpt lat="43.42987" lon="1.35814">
        <ele>201.05</ele>
        <time>2017-07-02T07:41:11Z</time>
      </trkpt>
      <trkpt lat="43.43043" lon="1.35881">
        <ele>200.09</ele>
        <time>2017-07-02T07:41:22Z</time>
      </trkpt>
      <trkpt lat="43.43128" lon="1.35968">
        <ele>201.05</ele>
        <time>2017-07-02T07:41:38Z</time>
      </trkpt>
      <trkpt lat="43.43185" lon="1.36023">
        <ele>201.05</ele>
        <time>2017-07-02T07:41:50Z</time>
      </trkpt>
      <trkpt lat="43.43195" lon="1.36031">
        <ele>201.05</ele>
        <time>2017-07-02T07:41:52Z</time>
      </trkpt>
      <trkpt lat="43.432" lon="1.36036">
        <ele>201.05</ele>
        <time>2017-07-02T07:41:53Z</time>
      </trkpt>
      <trkpt lat="43.43262" lon="1.36112">
        <ele>201.05</ele>
        <time>2017-07-02T07:42:06Z</time>
      </trkpt>
      <trkpt lat="43.4329" lon="1.3615">
        <ele>201.05</ele>
        <time>2017-07-02T07:42:12Z</time>
      </trkpt>
      <trkpt lat="43.43363" lon="1.36202">
        <ele>201.05</ele>
        <time>2017-07-02T07:42:24Z</time>
      </trkpt>
      <trkpt lat="43.43449" lon="1.36237">
        <ele>200.09</ele>
        <time>2017-07-02T07:42:37Z</time>
      </trkpt>
      <trkpt lat="43.43532" lon="1.3626">
        <ele>199.13</ele>
        <time>2017-07-02T07:42:50Z</time>
      </trkpt>
      <trkpt lat="43.43636" lon="1.36286">
        <ele>200.09</ele>
        <time>2017-07-02T07:43:07Z</time>
      </trkpt>
      <trkpt lat="43.4374" lon="1.36311">
        <ele>200.09</ele>
        <time>2017-07-02T07:43:24Z</time>
      </trkpt>
      <trkpt lat="43.43823" lon="1.36335">
        <ele>200.09</ele>
        <time>2017-07-02T07:43:38Z</time>
      </trkpt>
      <trkpt lat="43.43876" lon="1.36354">
        <ele>200.09</ele>
        <time>2017-07-02T07:43:46Z</time>
      </trkpt>
      <trkpt lat="43.43884" lon="1.36356">
        <ele>199.13</ele>
        <time>2017-07-02T07:43:47Z</time>
      </trkpt>
      <trkpt lat="43.43892" lon="1.36357">
        <ele>199.13</ele>
        <time>2017-07-02T07:43:48Z</time>
      </trkpt>
      <trkpt lat="43.43952" lon="1.36369">
        <ele>195.77</ele>
        <time>2017-07-02T07:43:54Z</time>
      </trkpt>
      <trkpt lat="43.43973" lon="1.36375">
        <ele>193.84</ele>
        <time>2017-07-02T07:43:56Z</time>
      </trkpt>
      <trkpt lat="43.43994" lon="1.3638">
        <ele>190.96</ele>
        <time>2017-07-02T07:43:58Z</time>
      </trkpt>
      <trkpt lat="43.44038" lon="1.36391">
        <ele>187.11</ele>
        <time>2017-07-02T07:44:02Z</time>
      </trkpt>
      <trkpt lat="43.44083" lon="1.36401">
        <ele>184.23</ele>
        <time>2017-07-02T07:44:06Z</time>
      </trkpt>
      <trkpt lat="43.44115" lon="1.36408">
        <ele>180.87</ele>
        <time>2017-07-02T07:44:09Z</time>
      </trkpt>
      <trkpt lat="43.44153" lon="1.36417">
        <ele>177.98</ele>
        <time>2017-07-02T07:44:13Z</time>
      </trkpt>
      <trkpt lat="43.44243" lon="1.3644">
        <ele>175.1</ele>
        <time>2017-07-02T07:44:24Z</time>
      </trkpt>
      <trkpt lat="43.44361" lon="1.36467">
        <ele>175.1</ele>
        <time>2017-07-02T07:44:40Z</time>
      </trkpt>
      <trkpt lat="43.44454" lon="1.36508">
        <ele>175.1</ele>
        <time>2017-07-02T07:44:54Z</time>
      </trkpt>
      <trkpt lat="43.44485" lon="1.36528">
        <ele>174.14</ele>
        <time>2017-07-02T07:44:59Z</time>
      </trkpt>
      <trkpt lat="43.44563" lon="1.36555">
        <ele>174.14</ele>
        <time>2017-07-02T07:45:11Z</time>
      </trkpt>
      <trkpt lat="43.44648" lon="1.36588">
        <ele>173.17</ele>
        <time>2017-07-02T07:45:24Z</time>
      </trkpt>
      <trkpt lat="43.44733" lon="1.36633">
        <ele>173.17</ele>
        <time>2017-07-02T07:45:37Z</time>
      </trkpt>
      <trkpt lat="43.44739" lon="1.36638">
        <ele>173.17</ele>
        <time>2017-07-02T07:45:38Z</time>
      </trkpt>
      <trkpt lat="43.44744" lon="1.36644">
        <ele>173.17</ele>
        <time>2017-07-02T07:45:39Z</time>
      </trkpt>
      <trkpt lat="43.44749" lon="1.36651">
        <ele>173.17</ele>
        <time>2017-07-02T07:45:40Z</time>
      </trkpt>
      <trkpt lat="43.44754" lon="1.36658">
        <ele>173.17</ele>
        <time>2017-07-02T07:45:41Z</time>
      </trkpt>
      <trkpt lat="43.44758" lon="1.36666">
        <ele>173.17</ele>
        <time>2017-07-02T07:45:42Z</time>
      </trkpt>
      <trkpt lat="43.44819" lon="1.36758">
        <ele>172.21</ele>
        <time>2017-07-02T07:45:55Z</time>
      </trkpt>
      <trkpt lat="43.44893" lon="1.3683">
        <ele>172.21</ele>
        <time>2017-07-02T07:46:08Z</time>
      </trkpt>
      <trkpt lat="43.44998" lon="1.36934">
        <ele>172.21</ele>
        <time>2017-07-02T07:46:27Z</time>
      </trkpt>
      <trkpt lat="43.45037" lon="1.36969">
        <ele>172.21</ele>
        <time>2017-07-02T07:46:34Z</time>
      </trkpt>
      <trkpt lat="43.45042" lon="1.36972">
        <ele>172.21</ele>
        <time>2017-07-02T07:46:35Z</time>
      </trkpt>
      <trkpt lat="43.45061" lon="1.36981">
        <ele>172.21</ele>
        <time>2017-07-02T07:46:38Z</time>
      </trkpt>
      <trkpt lat="43.4513" lon="1.3702">
        <ele>172.21</ele>
        <time>2017-07-02T07:46:49Z</time>
      </trkpt>
      <trkpt lat="43.45211" lon="1.37071">
        <ele>170.77</ele>
        <time>2017-07-02T07:47:01Z</time>
      </trkpt>
      <trkpt lat="43.45301" lon="1.37116">
        <ele>168.85</ele>
        <time>2017-07-02T07:47:14Z</time>
      </trkpt>
      <trkpt lat="43.45364" lon="1.37105">
        <ele>167.89</ele>
        <time>2017-07-02T07:47:23Z</time>
      </trkpt>
      <trkpt lat="43.45428" lon="1.37092">
        <ele>166.93</ele>
        <time>2017-07-02T07:47:33Z</time>
      </trkpt>
      <trkpt lat="43.45434" lon="1.37093">
        <ele>166.93</ele>
        <time>2017-07-02T07:47:34Z</time>
      </trkpt>
      <trkpt lat="43.45441" lon="1.37094">
        <ele>166.93</ele>
        <time>2017-07-02T07:47:35Z</time>
      </trkpt>
      <trkpt lat="43.45447" lon="1.37096">
        <ele>166.93</ele>
        <time>2017-07-02T07:47:36Z</time>
      </trkpt>
      <trkpt lat="43.45453" lon="1.37098">
        <ele>166.93</ele>
        <time>2017-07-02T07:47:37Z</time>
      </trkpt>
      <trkpt lat="43.4554" lon="1.37131">
        <ele>166.93</ele>
        <time>2017-07-02T07:47:51Z</time>
      </trkpt>
      <trkpt lat="43.45634" lon="1.37165">
        <ele>166.93</ele>
        <time>2017-07-02T07:48:06Z</time>
      </trkpt>
      <trkpt lat="43.45709" lon="1.37195">
        <ele>165.96</ele>
        <time>2017-07-02T07:48:18Z</time>
      </trkpt>
      <trkpt lat="43.45823" lon="1.3724">
        <ele>165.96</ele>
        <time>2017-07-02T07:48:36Z</time>
      </trkpt>
      <trkpt lat="43.4589" lon="1.37267">
        <ele>165</ele>
        <time>2017-07-02T07:48:47Z</time>
      </trkpt>
      <trkpt lat="43.45954" lon="1.37295">
        <ele>165</ele>
        <time>2017-07-02T07:48:59Z</time>
      </trkpt>
      <trkpt lat="43.45974" lon="1.37301">
        <ele>165</ele>
        <time>2017-07-02T07:49:06Z</time>
      </trkpt>
      <trkpt lat="43.45994" lon="1.37308">
        <ele>165</ele>
        <time>2017-07-02T07:49:10Z</time>
      </trkpt>
      <trkpt lat="43.46" lon="1.3731">
        <ele>165</ele>
        <time>2017-07-02T07:49:11Z</time>
      </trkpt>
      <trkpt lat="43.46005" lon="1.37311">
        <ele>165</ele>
        <time>2017-07-02T07:49:12Z</time>
      </trkpt>
      <trkpt lat="43.46011" lon="1.37313">
        <ele>165</ele>
        <time>2017-07-02T07:49:13Z</time>
      </trkpt>
      <trkpt lat="43.46016" lon="1.37315">
        <ele>165</ele>
        <time>2017-07-02T07:49:14Z</time>
      </trkpt>
      <trkpt lat="43.46085" lon="1.37335">
        <ele>164.04</ele>
        <time>2017-07-02T07:49:25Z</time>
      </trkpt>
      <trkpt lat="43.46163" lon="1.37358">
        <ele>164.04</ele>
        <time>2017-07-02T07:49:37Z</time>
      </trkpt>
      <trkpt lat="43.4624" lon="1.37384">
        <ele>164.04</ele>
        <time>2017-07-02T07:49:49Z</time>
      </trkpt>
      <trkpt lat="43.46336" lon="1.37415">
        <ele>164.04</ele>
        <time>2017-07-02T07:50:04Z</time>
      </trkpt>
      <trkpt lat="43.46424" lon="1.37443">
        <ele>164.04</ele>
        <time>2017-07-02T07:50:18Z</time>
      </trkpt>
      <trkpt lat="43.46531" lon="1.37476">
        <ele>163.08</ele>
        <time>2017-07-02T07:50:35Z</time>
      </trkpt>
      <trkpt lat="43.46609" lon="1.37514">
        <ele>163.08</ele>
        <time>2017-07-02T07:50:48Z</time>
      </trkpt>
      <trkpt lat="43.46626" lon="1.37528">
        <ele>163.08</ele>
        <time>2017-07-02T07:50:51Z</time>
      </trkpt>
      <trkpt lat="43.46631" lon="1.37533">
        <ele>163.08</ele>
        <time>2017-07-02T07:50:52Z</time>
      </trkpt>
      <trkpt lat="43.46635" lon="1.3754">
        <ele>163.08</ele>
        <time>2017-07-02T07:50:53Z</time>
      </trkpt>
      <trkpt lat="43.46681" lon="1.3763">
        <ele>163.08</ele>
        <time>2017-07-02T07:51:05Z</time>
      </trkpt>
      <trkpt lat="43.46712" lon="1.37711">
        <ele>163.08</ele>
        <time>2017-07-02T07:51:15Z</time>
      </trkpt>
      <trkpt lat="43.46737" lon="1.37755">
        <ele>163.08</ele>
        <time>2017-07-02T07:51:21Z</time>
      </trkpt>
      <trkpt lat="43.46742" lon="1.37761">
        <ele>163.08</ele>
        <time>2017-07-02T07:51:22Z</time>
      </trkpt>
      <trkpt lat="43.46757" lon="1.37779">
        <ele>163.08</ele>
        <time>2017-07-02T07:51:25Z</time>
      </trkpt>
      <trkpt lat="43.46763" lon="1.37784">
        <ele>162.12</ele>
        <time>2017-07-02T07:51:26Z</time>
      </trkpt>
      <trkpt lat="43.46769" lon="1.37788">
        <ele>162.12</ele>
        <time>2017-07-02T07:51:27Z</time>
      </trkpt>
      <trkpt lat="43.46775" lon="1.37791">
        <ele>162.12</ele>
        <time>2017-07-02T07:51:28Z</time>
      </trkpt>
      <trkpt lat="43.46782" lon="1.37794">
        <ele>162.12</ele>
        <time>2017-07-02T07:51:29Z</time>
      </trkpt>
      <trkpt lat="43.46849" lon="1.37823">
        <ele>162.12</ele>
        <time>2017-07-02T07:51:40Z</time>
      </trkpt>
      <trkpt lat="43.46861" lon="1.37829">
        <ele>162.12</ele>
        <time>2017-07-02T07:51:42Z</time>
      </trkpt>
      <trkpt lat="43.46931" lon="1.3787">
        <ele>162.12</ele>
        <time>2017-07-02T07:51:54Z</time>
      </trkpt>
      <trkpt lat="43.47" lon="1.37922">
        <ele>162.12</ele>
        <time>2017-07-02T07:52:06Z</time>
      </trkpt>
      <trkpt lat="43.47031" lon="1.37955">
        <ele>162.12</ele>
        <time>2017-07-02T07:52:12Z</time>
      </trkpt>
      <trkpt lat="43.47055" lon="1.37984">
        <ele>161.16</ele>
        <time>2017-07-02T07:52:17Z</time>
      </trkpt>
      <trkpt lat="43.47061" lon="1.37988">
        <ele>161.16</ele>
        <time>2017-07-02T07:52:18Z</time>
      </trkpt>
      <trkpt lat="43.47067" lon="1.37991">
        <ele>161.16</ele>
        <time>2017-07-02T07:52:19Z</time>
      </trkpt>
      <trkpt lat="43.47072" lon="1.37993">
        <ele>161.16</ele>
        <time>2017-07-02T07:52:20Z</time>
      </trkpt>
      <trkpt lat="43.47078" lon="1.37994">
        <ele>161.16</ele>
        <time>2017-07-02T07:52:21Z</time>
      </trkpt>
      <trkpt lat="43.47084" lon="1.37993">
        <ele>161.16</ele>
        <time>2017-07-02T07:52:22Z</time>
      </trkpt>
      <trkpt lat="43.4709" lon="1.37992">
        <ele>161.16</ele>
        <time>2017-07-02T07:52:23Z</time>
      </trkpt>
      <trkpt lat="43.47147" lon="1.37978">
        <ele>161.16</ele>
        <time>2017-07-02T07:52:33Z</time>
      </trkpt>
      <trkpt lat="43.47207" lon="1.38">
        <ele>161.16</ele>
        <time>2017-07-02T07:52:43Z</time>
      </trkpt>
      <trkpt lat="43.47273" lon="1.38029">
        <ele>161.16</ele>
        <time>2017-07-02T07:52:54Z</time>
      </trkpt>
      <trkpt lat="43.47341" lon="1.3804">
        <ele>160.2</ele>
        <time>2017-07-02T07:53:05Z</time>
      </trkpt>
      <trkpt lat="43.47438" lon="1.38031">
        <ele>161.16</ele>
        <time>2017-07-02T07:53:21Z</time>
      </trkpt>
      <trkpt lat="43.47513" lon="1.3803">
        <ele>161.16</ele>
        <time>2017-07-02T07:53:33Z</time>
      </trkpt>
      <trkpt lat="43.47581" lon="1.3805">
        <ele>160.2</ele>
        <time>2017-07-02T07:53:44Z</time>
      </trkpt>
      <trkpt lat="43.47639" lon="1.38109">
        <ele>160.2</ele>
        <time>2017-07-02T07:53:55Z</time>
      </trkpt>
      <trkpt lat="43.47703" lon="1.38174">
        <ele>160.2</ele>
        <time>2017-07-02T07:54:07Z</time>
      </trkpt>
      <trkpt lat="43.47731" lon="1.38211">
        <ele>160.2</ele>
        <time>2017-07-02T07:54:13Z</time>
      </trkpt>
      <trkpt lat="43.47739" lon="1.38225">
        <ele>160.2</ele>
        <time>2017-07-02T07:54:15Z</time>
      </trkpt>
      <trkpt lat="43.47744" lon="1.38231">
        <ele>160.2</ele>
        <time>2017-07-02T07:54:16Z</time>
      </trkpt>
      <trkpt lat="43.47749" lon="1.38234">
        <ele>160.2</ele>
        <time>2017-07-02T07:54:17Z</time>
      </trkpt>
      <trkpt lat="43.47755" lon="1.38236">
        <ele>160.2</ele>
        <time>2017-07-02T07:54:18Z</time>
      </trkpt>
      <trkpt lat="43.47761" lon="1.38236">
        <ele>160.2</ele>
        <time>2017-07-02T07:54:19Z</time>
      </trkpt>
      <trkpt lat="43.47767" lon="1.38236">
        <ele>160.2</ele>
        <time>2017-07-02T07:54:20Z</time>
      </trkpt>
      <trkpt lat="43.47773" lon="1.38238">
        <ele>160.2</ele>
        <time>2017-07-02T07:54:21Z</time>
      </trkpt>
      <trkpt lat="43.4778" lon="1.3824">
        <ele>160.2</ele>
        <time>2017-07-02T07:54:22Z</time>
      </trkpt>
      <trkpt lat="43.47849" lon="1.38277">
        <ele>160.2</ele>
        <time>2017-07-02T07:54:34Z</time>
      </trkpt>
      <trkpt lat="43.47898" lon="1.38306">
        <ele>160.2</ele>
        <time>2017-07-02T07:54:43Z</time>
      </trkpt>
      <trkpt lat="43.47919" lon="1.38319">
        <ele>160.2</ele>
        <time>2017-07-02T07:54:47Z</time>
      </trkpt>
      <trkpt lat="43.47925" lon="1.38321">
        <ele>160.2</ele>
        <time>2017-07-02T07:54:48Z</time>
      </trkpt>
      <trkpt lat="43.47937" lon="1.38323">
        <ele>160.2</ele>
        <time>2017-07-02T07:54:50Z</time>
      </trkpt>
      <trkpt lat="43.48002" lon="1.38324">
        <ele>159.24</ele>
        <time>2017-07-02T07:54:59Z</time>
      </trkpt>
      <trkpt lat="43.48023" lon="1.38332">
        <ele>157.79</ele>
        <time>2017-07-02T07:55:02Z</time>
      </trkpt>
      <trkpt lat="43.4803" lon="1.38336">
        <ele>156.83</ele>
        <time>2017-07-02T07:55:03Z</time>
      </trkpt>
      <trkpt lat="43.48043" lon="1.38345">
        <ele>156.83</ele>
        <time>2017-07-02T07:55:05Z</time>
      </trkpt>
      <trkpt lat="43.48113" lon="1.38388">
        <ele>154.91</ele>
        <time>2017-07-02T07:55:17Z</time>
      </trkpt>
      <trkpt lat="43.48137" lon="1.38402">
        <ele>153.95</ele>
        <time>2017-07-02T07:55:25Z</time>
      </trkpt>
      <trkpt lat="43.48141" lon="1.38405">
        <ele>153.95</ele>
        <time>2017-07-02T07:55:26Z</time>
      </trkpt>
      <trkpt lat="43.48145" lon="1.38409">
        <ele>153.95</ele>
        <time>2017-07-02T07:55:27Z</time>
      </trkpt>
      <trkpt lat="43.48148" lon="1.38413">
        <ele>153.95</ele>
        <time>2017-07-02T07:55:28Z</time>
      </trkpt>
      <trkpt lat="43.48183" lon="1.38464">
        <ele>153.95</ele>
        <time>2017-07-02T07:55:37Z</time>
      </trkpt>
      <trkpt lat="43.48187" lon="1.38471">
        <ele>153.95</ele>
        <time>2017-07-02T07:55:38Z</time>
      </trkpt>
      <trkpt lat="43.4819" lon="1.38477">
        <ele>153.95</ele>
        <time>2017-07-02T07:55:39Z</time>
      </trkpt>
      <trkpt lat="43.48216" lon="1.38528">
        <ele>153.95</ele>
        <time>2017-07-02T07:55:46Z</time>
      </trkpt>
      <trkpt lat="43.48219" lon="1.38535">
        <ele>153.95</ele>
        <time>2017-07-02T07:55:47Z</time>
      </trkpt>
      <trkpt lat="43.48223" lon="1.38542">
        <ele>153.95</ele>
        <time>2017-07-02T07:55:48Z</time>
      </trkpt>
      <trkpt lat="43.48252" lon="1.38613">
        <ele>153.95</ele>
        <time>2017-07-02T07:55:57Z</time>
      </trkpt>
      <trkpt lat="43.48285" lon="1.38698">
        <ele>153.95</ele>
        <time>2017-07-02T07:56:08Z</time>
      </trkpt>
      <trkpt lat="43.48313" lon="1.38777">
        <ele>153.95</ele>
        <time>2017-07-02T07:56:18Z</time>
      </trkpt>
      <trkpt lat="43.4835" lon="1.38861">
        <ele>153.95</ele>
        <time>2017-07-02T07:56:29Z</time>
      </trkpt>
      <trkpt lat="43.48371" lon="1.38905">
        <ele>153.95</ele>
        <time>2017-07-02T07:56:35Z</time>
      </trkpt>
      <trkpt lat="43.48374" lon="1.38911">
        <ele>153.95</ele>
        <time>2017-07-02T07:56:36Z</time>
      </trkpt>
      <trkpt lat="43.48379" lon="1.38914">
        <ele>153.95</ele>
        <time>2017-07-02T07:56:37Z</time>
      </trkpt>
      <trkpt lat="43.48385" lon="1.38914">
        <ele>153.95</ele>
        <time>2017-07-02T07:56:38Z</time>
      </trkpt>
      <trkpt lat="43.48391" lon="1.38914">
        <ele>153.95</ele>
        <time>2017-07-02T07:56:39Z</time>
      </trkpt>
      <trkpt lat="43.48396" lon="1.38913">
        <ele>153.95</ele>
        <time>2017-07-02T07:56:40Z</time>
      </trkpt>
      <trkpt lat="43.48427" lon="1.38917">
        <ele>153.95</ele>
        <time>2017-07-02T07:56:45Z</time>
      </trkpt>
      <trkpt lat="43.48484" lon="1.38941">
        <ele>153.95</ele>
        <time>2017-07-02T07:56:55Z</time>
      </trkpt>
      <trkpt lat="43.48548" lon="1.38985">
        <ele>153.95</ele>
        <time>2017-07-02T07:57:08Z</time>
      </trkpt>
      <trkpt lat="43.48553" lon="1.3899">
        <ele>153.95</ele>
        <time>2017-07-02T07:57:09Z</time>
      </trkpt>
      <trkpt lat="43.48561" lon="1.39">
        <ele>153.95</ele>
        <time>2017-07-02T07:57:11Z</time>
      </trkpt>
      <trkpt lat="43.48619" lon="1.39052">
        <ele>153.95</ele>
        <time>2017-07-02T07:57:22Z</time>
      </trkpt>
      <trkpt lat="43.48665" lon="1.39118">
        <ele>152.99</ele>
        <time>2017-07-02T07:57:32Z</time>
      </trkpt>
      <trkpt lat="43.48718" lon="1.39228">
        <ele>152.03</ele>
        <time>2017-07-02T07:57:46Z</time>
      </trkpt>
      <trkpt lat="43.48724" lon="1.39246">
        <ele>152.03</ele>
        <time>2017-07-02T07:57:48Z</time>
      </trkpt>
      <trkpt lat="43.48725" lon="1.39256">
        <ele>152.03</ele>
        <time>2017-07-02T07:57:49Z</time>
      </trkpt>
      <trkpt lat="43.48737" lon="1.39376">
        <ele>151.06</ele>
        <time>2017-07-02T07:58:01Z</time>
      </trkpt>
      <trkpt lat="43.4875" lon="1.39501">
        <ele>151.06</ele>
        <time>2017-07-02T07:58:14Z</time>
      </trkpt>
      <trkpt lat="43.48758" lon="1.39556">
        <ele>151.06</ele>
        <time>2017-07-02T07:58:20Z</time>
      </trkpt>
      <trkpt lat="43.48797" lon="1.39683">
        <ele>151.06</ele>
        <time>2017-07-02T07:58:34Z</time>
      </trkpt>
      <trkpt lat="43.4883" lon="1.39787">
        <ele>149.14</ele>
        <time>2017-07-02T07:58:45Z</time>
      </trkpt>
      <trkpt lat="43.48831" lon="1.39797">
        <ele>149.14</ele>
        <time>2017-07-02T07:58:46Z</time>
      </trkpt>
      <trkpt lat="43.48831" lon="1.39806">
        <ele>149.14</ele>
        <time>2017-07-02T07:58:47Z</time>
      </trkpt>
      <trkpt lat="43.4883" lon="1.39815">
        <ele>149.14</ele>
        <time>2017-07-02T07:58:48Z</time>
      </trkpt>
      <trkpt lat="43.4883" lon="1.39822">
        <ele>149.14</ele>
        <time>2017-07-02T07:58:49Z</time>
      </trkpt>
      <trkpt lat="43.48828" lon="1.39828">
        <ele>149.14</ele>
        <time>2017-07-02T07:58:50Z</time>
      </trkpt>
      <trkpt lat="43.48827" lon="1.39831">
        <ele>149.14</ele>
        <time>2017-07-02T07:58:51Z</time>
      </trkpt>
      <trkpt lat="43.48811" lon="1.39859">
        <ele>149.14</ele>
        <time>2017-07-02T07:58:59Z</time>
      </trkpt>
      <trkpt lat="43.4881" lon="1.39865">
        <ele>149.14</ele>
        <time>2017-07-02T07:59:00Z</time>
      </trkpt>
      <trkpt lat="43.48809" lon="1.39871">
        <ele>149.14</ele>
        <time>2017-07-02T07:59:01Z</time>
      </trkpt>
      <trkpt lat="43.4881" lon="1.39878">
        <ele>149.14</ele>
        <time>2017-07-02T07:59:02Z</time>
      </trkpt>
      <trkpt lat="43.48812" lon="1.39885">
        <ele>149.14</ele>
        <time>2017-07-02T07:59:03Z</time>
      </trkpt>
      <trkpt lat="43.48815" lon="1.3989">
        <ele>149.14</ele>
        <time>2017-07-02T07:59:04Z</time>
      </trkpt>
      <trkpt lat="43.48818" lon="1.39896">
        <ele>149.14</ele>
        <time>2017-07-02T07:59:05Z</time>
      </trkpt>
      <trkpt lat="43.48822" lon="1.39902">
        <ele>149.14</ele>
        <time>2017-07-02T07:59:06Z</time>
      </trkpt>
      <trkpt lat="43.48827" lon="1.39907">
        <ele>149.14</ele>
        <time>2017-07-02T07:59:07Z</time>
      </trkpt>
      <trkpt lat="43.48836" lon="1.3992">
        <ele>149.14</ele>
        <time>2017-07-02T07:59:09Z</time>
      </trkpt>
      <trkpt lat="43.48839" lon="1.39928">
        <ele>149.14</ele>
        <time>2017-07-02T07:59:10Z</time>
      </trkpt>
      <trkpt lat="43.48855" lon="1.39968">
        <ele>149.14</ele>
        <time>2017-07-02T07:59:15Z</time>
      </trkpt>
      <trkpt lat="43.4886" lon="1.39975">
        <ele>149.14</ele>
        <time>2017-07-02T07:59:16Z</time>
      </trkpt>
      <trkpt lat="43.48865" lon="1.39981">
        <ele>149.14</ele>
        <time>2017-07-02T07:59:17Z</time>
      </trkpt>
      <trkpt lat="43.48948" lon="1.40061">
        <ele>149.14</ele>
        <time>2017-07-02T07:59:32Z</time>
      </trkpt>
      <trkpt lat="43.49031" lon="1.40155">
        <ele>148.18</ele>
        <time>2017-07-02T07:59:48Z</time>
      </trkpt>
      <trkpt lat="43.4913" lon="1.40289">
        <ele>149.14</ele>
        <time>2017-07-02T08:00:09Z</time>
      </trkpt>
      <trkpt lat="43.49179" lon="1.40359">
        <ele>149.14</ele>
        <time>2017-07-02T08:00:20Z</time>
      </trkpt>
      <trkpt lat="43.49182" lon="1.40367">
        <ele>149.14</ele>
        <time>2017-07-02T08:00:21Z</time>
      </trkpt>
      <trkpt lat="43.49185" lon="1.40374">
        <ele>149.14</ele>
        <time>2017-07-02T08:00:22Z</time>
      </trkpt>
      <trkpt lat="43.49188" lon="1.40382">
        <ele>149.14</ele>
        <time>2017-07-02T08:00:23Z</time>
      </trkpt>
      <trkpt lat="43.49193" lon="1.40388">
        <ele>149.14</ele>
        <time>2017-07-02T08:00:24Z</time>
      </trkpt>
      <trkpt lat="43.49198" lon="1.40394">
        <ele>149.14</ele>
        <time>2017-07-02T08:00:25Z</time>
      </trkpt>
      <trkpt lat="43.49203" lon="1.40399">
        <ele>149.14</ele>
        <time>2017-07-02T08:00:26Z</time>
      </trkpt>
      <trkpt lat="43.49213" lon="1.40411">
        <ele>149.14</ele>
        <time>2017-07-02T08:00:28Z</time>
      </trkpt>
      <trkpt lat="43.49226" lon="1.40431">
        <ele>149.14</ele>
        <time>2017-07-02T08:00:31Z</time>
      </trkpt>
      <trkpt lat="43.49282" lon="1.40538">
        <ele>149.14</ele>
        <time>2017-07-02T08:00:45Z</time>
      </trkpt>
      <trkpt lat="43.49346" lon="1.40639">
        <ele>148.18</ele>
        <time>2017-07-02T08:00:59Z</time>
      </trkpt>
      <trkpt lat="43.49401" lon="1.40672">
        <ele>148.18</ele>
        <time>2017-07-02T08:01:08Z</time>
      </trkpt>
      <trkpt lat="43.49492" lon="1.40682">
        <ele>148.18</ele>
        <time>2017-07-02T08:01:22Z</time>
      </trkpt>
      <trkpt lat="43.49559" lon="1.40663">
        <ele>148.18</ele>
        <time>2017-07-02T08:01:33Z</time>
      </trkpt>
      <trkpt lat="43.49666" lon="1.40604">
        <ele>147.22</ele>
        <time>2017-07-02T08:01:52Z</time>
      </trkpt>
      <trkpt lat="43.49729" lon="1.4059">
        <ele>147.22</ele>
        <time>2017-07-02T08:02:03Z</time>
      </trkpt>
      <trkpt lat="43.49795" lon="1.40609">
        <ele>149.14</ele>
        <time>2017-07-02T08:02:15Z</time>
      </trkpt>
      <trkpt lat="43.49851" lon="1.4066">
        <ele>150.1</ele>
        <time>2017-07-02T08:02:27Z</time>
      </trkpt>
      <trkpt lat="43.49902" lon="1.40738">
        <ele>152.03</ele>
        <time>2017-07-02T08:02:41Z</time>
      </trkpt>
      <trkpt lat="43.4996" lon="1.4083">
        <ele>152.03</ele>
        <time>2017-07-02T08:02:55Z</time>
      </trkpt>
      <trkpt lat="43.50018" lon="1.40928">
        <ele>151.06</ele>
        <time>2017-07-02T08:03:08Z</time>
      </trkpt>
      <trkpt lat="43.50025" lon="1.40944">
        <ele>150.1</ele>
        <time>2017-07-02T08:03:10Z</time>
      </trkpt>
      <trkpt lat="43.50028" lon="1.40952">
        <ele>150.1</ele>
        <time>2017-07-02T08:03:11Z</time>
      </trkpt>
      <trkpt lat="43.50029" lon="1.40961">
        <ele>150.1</ele>
        <time>2017-07-02T08:03:12Z</time>
      </trkpt>
      <trkpt lat="43.50029" lon="1.4097">
        <ele>150.1</ele>
        <time>2017-07-02T08:03:13Z</time>
      </trkpt>
      <trkpt lat="43.50028" lon="1.40978">
        <ele>150.1</ele>
        <time>2017-07-02T08:03:14Z</time>
      </trkpt>
      <trkpt lat="43.50027" lon="1.40987">
        <ele>149.14</ele>
        <time>2017-07-02T08:03:15Z</time>
      </trkpt>
      <trkpt lat="43.50028" lon="1.40995">
        <ele>149.14</ele>
        <time>2017-07-02T08:03:16Z</time>
      </trkpt>
      <trkpt lat="43.50031" lon="1.41003">
        <ele>149.14</ele>
        <time>2017-07-02T08:03:17Z</time>
      </trkpt>
      <trkpt lat="43.50035" lon="1.41008">
        <ele>149.14</ele>
        <time>2017-07-02T08:03:18Z</time>
      </trkpt>
      <trkpt lat="43.50041" lon="1.41011">
        <ele>149.14</ele>
        <time>2017-07-02T08:03:19Z</time>
      </trkpt>
      <trkpt lat="43.50046" lon="1.41013">
        <ele>149.14</ele>
        <time>2017-07-02T08:03:20Z</time>
      </trkpt>
      <trkpt lat="43.50052" lon="1.41015">
        <ele>149.14</ele>
        <time>2017-07-02T08:03:21Z</time>
      </trkpt>
      <trkpt lat="43.50057" lon="1.41019">
        <ele>149.14</ele>
        <time>2017-07-02T08:03:22Z</time>
      </trkpt>
      <trkpt lat="43.50111" lon="1.41052">
        <ele>149.14</ele>
        <time>2017-07-02T08:03:31Z</time>
      </trkpt>
      <trkpt lat="43.50198" lon="1.41107">
        <ele>148.18</ele>
        <time>2017-07-02T08:03:46Z</time>
      </trkpt>
      <trkpt lat="43.50209" lon="1.41115">
        <ele>148.18</ele>
        <time>2017-07-02T08:03:48Z</time>
      </trkpt>
      <trkpt lat="43.50284" lon="1.4115">
        <ele>148.18</ele>
        <time>2017-07-02T08:04:00Z</time>
      </trkpt>
      <trkpt lat="43.50356" lon="1.41185">
        <ele>147.22</ele>
        <time>2017-07-02T08:04:11Z</time>
      </trkpt>
      <trkpt lat="43.50441" lon="1.41222">
        <ele>145.78</ele>
        <time>2017-07-02T08:04:24Z</time>
      </trkpt>
      <trkpt lat="43.50515" lon="1.41256">
        <ele>145.78</ele>
        <time>2017-07-02T08:04:36Z</time>
      </trkpt>
      <trkpt lat="43.50604" lon="1.41299">
        <ele>147.22</ele>
        <time>2017-07-02T08:04:50Z</time>
      </trkpt>
      <trkpt lat="43.50611" lon="1.41302">
        <ele>147.22</ele>
        <time>2017-07-02T08:04:51Z</time>
      </trkpt>
      <trkpt lat="43.50674" lon="1.41338">
        <ele>145.78</ele>
        <time>2017-07-02T08:05:02Z</time>
      </trkpt>
      <trkpt lat="43.50711" lon="1.41395">
        <ele>145.78</ele>
        <time>2017-07-02T08:05:12Z</time>
      </trkpt>
      <trkpt lat="43.50733" lon="1.41442">
        <ele>147.22</ele>
        <time>2017-07-02T08:05:19Z</time>
      </trkpt>
      <trkpt lat="43.50738" lon="1.41448">
        <ele>147.22</ele>
        <time>2017-07-02T08:05:20Z</time>
      </trkpt>
      <trkpt lat="43.50743" lon="1.41453">
        <ele>147.22</ele>
        <time>2017-07-02T08:05:21Z</time>
      </trkpt>
      <trkpt lat="43.50748" lon="1.41458">
        <ele>147.22</ele>
        <time>2017-07-02T08:05:22Z</time>
      </trkpt>
      <trkpt lat="43.50754" lon="1.41463">
        <ele>147.22</ele>
        <time>2017-07-02T08:05:23Z</time>
      </trkpt>
      <trkpt lat="43.5076" lon="1.41467">
        <ele>147.22</ele>
        <time>2017-07-02T08:05:24Z</time>
      </trkpt>
      <trkpt lat="43.50766" lon="1.4147">
        <ele>147.22</ele>
        <time>2017-07-02T08:05:25Z</time>
      </trkpt>
      <trkpt lat="43.50846" lon="1.41496">
        <ele>147.22</ele>
        <time>2017-07-02T08:05:38Z</time>
      </trkpt>
      <trkpt lat="43.50935" lon="1.41523">
        <ele>145.78</ele>
        <time>2017-07-02T08:05:53Z</time>
      </trkpt>
      <trkpt lat="43.51014" lon="1.41547">
        <ele>145.78</ele>
        <time>2017-07-02T08:06:06Z</time>
      </trkpt>
      <trkpt lat="43.51092" lon="1.41569">
        <ele>144.82</ele>
        <time>2017-07-02T08:06:18Z</time>
      </trkpt>
      <trkpt lat="43.51183" lon="1.41598">
        <ele>144.82</ele>
        <time>2017-07-02T08:06:32Z</time>
      </trkpt>
      <trkpt lat="43.51281" lon="1.41626">
        <ele>144.82</ele>
        <time>2017-07-02T08:06:47Z</time>
      </trkpt>
      <trkpt lat="43.51424" lon="1.4167">
        <ele>143.85</ele>
        <time>2017-07-02T08:07:09Z</time>
      </trkpt>
      <trkpt lat="43.51546" lon="1.41706">
        <ele>143.85</ele>
        <time>2017-07-02T08:07:28Z</time>
      </trkpt>
      <trkpt lat="43.51636" lon="1.41739">
        <ele>143.85</ele>
        <time>2017-07-02T08:07:43Z</time>
      </trkpt>
      <trkpt lat="43.51725" lon="1.41787">
        <ele>143.85</ele>
        <time>2017-07-02T08:07:58Z</time>
      </trkpt>
      <trkpt lat="43.51825" lon="1.41839">
        <ele>143.85</ele>
        <time>2017-07-02T08:08:15Z</time>
      </trkpt>
      <trkpt lat="43.51915" lon="1.41909">
        <ele>143.85</ele>
        <time>2017-07-02T08:08:32Z</time>
      </trkpt>
      <trkpt lat="43.5193" lon="1.41923">
        <ele>143.85</ele>
        <time>2017-07-02T08:08:35Z</time>
      </trkpt>
      <trkpt lat="43.51935" lon="1.41928">
        <ele>143.85</ele>
        <time>2017-07-02T08:08:36Z</time>
      </trkpt>
      <trkpt lat="43.52005" lon="1.42006">
        <ele>143.85</ele>
        <time>2017-07-02T08:08:50Z</time>
      </trkpt>
      <trkpt lat="43.52092" lon="1.42102">
        <ele>142.89</ele>
        <time>2017-07-02T08:09:05Z</time>
      </trkpt>
      <trkpt lat="43.52171" lon="1.42199">
        <ele>141.93</ele>
        <time>2017-07-02T08:09:19Z</time>
      </trkpt>
      <trkpt lat="43.52258" lon="1.4232">
        <ele>140.01</ele>
        <time>2017-07-02T08:09:36Z</time>
      </trkpt>
      <trkpt lat="43.52332" lon="1.4242">
        <ele>140.01</ele>
        <time>2017-07-02T08:09:51Z</time>
      </trkpt>
      <trkpt lat="43.52418" lon="1.42536">
        <ele>140.01</ele>
        <time>2017-07-02T08:10:08Z</time>
      </trkpt>
      <trkpt lat="43.52501" lon="1.42649">
        <ele>140.01</ele>
        <time>2017-07-02T08:10:25Z</time>
      </trkpt>
      <trkpt lat="43.52559" lon="1.42728">
        <ele>140.97</ele>
        <time>2017-07-02T08:10:38Z</time>
      </trkpt>
      <trkpt lat="43.52585" lon="1.42763">
        <ele>141.93</ele>
        <time>2017-07-02T08:10:45Z</time>
      </trkpt>
      <trkpt lat="43.52622" lon="1.42816">
        <ele>144.82</ele>
        <time>2017-07-02T08:10:56Z</time>
      </trkpt>
      <trkpt lat="43.52634" lon="1.42827">
        <ele>144.82</ele>
        <time>2017-07-02T08:10:59Z</time>
      </trkpt>
      <trkpt lat="43.52663" lon="1.42843">
        <ele>145.78</ele>
        <time>2017-07-02T08:11:06Z</time>
      </trkpt>
      <trkpt lat="43.52727" lon="1.42862">
        <ele>144.82</ele>
        <time>2017-07-02T08:11:17Z</time>
      </trkpt>
      <trkpt lat="43.52801" lon="1.42886">
        <ele>142.89</ele>
        <time>2017-07-02T08:11:27Z</time>
      </trkpt>
      <trkpt lat="43.52881" lon="1.42907">
        <ele>141.93</ele>
        <time>2017-07-02T08:11:39Z</time>
      </trkpt>
      <trkpt lat="43.52957" lon="1.42922">
        <ele>141.93</ele>
        <time>2017-07-02T08:11:52Z</time>
      </trkpt>
      <trkpt lat="43.5299" lon="1.42927">
        <ele>142.89</ele>
        <time>2017-07-02T08:11:58Z</time>
      </trkpt>
      <trkpt lat="43.5305" lon="1.4296">
        <ele>142.89</ele>
        <time>2017-07-02T08:12:09Z</time>
      </trkpt>
      <trkpt lat="43.53087" lon="1.42986">
        <ele>142.89</ele>
        <time>2017-07-02T08:12:19Z</time>
      </trkpt>
      <trkpt lat="43.53116" lon="1.43004">
        <ele>144.82</ele>
        <time>2017-07-02T08:12:29Z</time>
      </trkpt>
      <trkpt lat="43.53142" lon="1.43017">
        <ele>148.18</ele>
        <time>2017-07-02T08:12:38Z</time>
      </trkpt>
      <trkpt lat="43.53181" lon="1.4303">
        <ele>151.06</ele>
        <time>2017-07-02T08:12:50Z</time>
      </trkpt>
      <trkpt lat="43.53224" lon="1.43047">
        <ele>152.99</ele>
        <time>2017-07-02T08:13:01Z</time>
      </trkpt>
      <trkpt lat="43.53278" lon="1.43074">
        <ele>153.95</ele>
        <time>2017-07-02T08:13:13Z</time>
      </trkpt>
      <trkpt lat="43.53321" lon="1.43099">
        <ele>153.95</ele>
        <time>2017-07-02T08:13:21Z</time>
      </trkpt>
      <trkpt lat="43.5339" lon="1.43154">
        <ele>153.95</ele>
        <time>2017-07-02T08:13:34Z</time>
      </trkpt>
      <trkpt lat="43.53438" lon="1.4319">
        <ele>154.91</ele>
        <time>2017-07-02T08:13:44Z</time>
      </trkpt>
      <trkpt lat="43.53468" lon="1.43209">
        <ele>154.91</ele>
        <time>2017-07-02T08:13:50Z</time>
      </trkpt>
      <trkpt lat="43.53484" lon="1.43216">
        <ele>154.91</ele>
        <time>2017-07-02T08:13:53Z</time>
      </trkpt>
      <trkpt lat="43.5349" lon="1.43217">
        <ele>153.95</ele>
        <time>2017-07-02T08:13:54Z</time>
      </trkpt>
      <trkpt lat="43.53547" lon="1.43228">
        <ele>152.03</ele>
        <time>2017-07-02T08:14:03Z</time>
      </trkpt>
      <trkpt lat="43.53615" lon="1.43272">
        <ele>151.06</ele>
        <time>2017-07-02T08:14:13Z</time>
      </trkpt>
      <trkpt lat="43.5368" lon="1.43291">
        <ele>150.1</ele>
        <time>2017-07-02T08:14:22Z</time>
      </trkpt>
      <trkpt lat="43.5376" lon="1.43307">
        <ele>149.14</ele>
        <time>2017-07-02T08:14:33Z</time>
      </trkpt>
      <trkpt lat="43.53827" lon="1.43338">
        <ele>149.14</ele>
        <time>2017-07-02T08:14:43Z</time>
      </trkpt>
      <trkpt lat="43.53897" lon="1.4338">
        <ele>147.22</ele>
        <time>2017-07-02T08:14:53Z</time>
      </trkpt>
      <trkpt lat="43.53975" lon="1.4343">
        <ele>143.85</ele>
        <time>2017-07-02T08:15:03Z</time>
      </trkpt>
      <trkpt lat="43.54006" lon="1.43456">
        <ele>142.89</ele>
        <time>2017-07-02T08:15:07Z</time>
      </trkpt>
      <trkpt lat="43.54074" lon="1.43514">
        <ele>140.97</ele>
        <time>2017-07-02T08:15:16Z</time>
      </trkpt>
      <trkpt lat="43.54159" lon="1.43568">
        <ele>140.01</ele>
        <time>2017-07-02T08:15:27Z</time>
      </trkpt>
      <trkpt lat="43.54219" lon="1.43624">
        <ele>139.05</ele>
        <time>2017-07-02T08:15:37Z</time>
      </trkpt>
      <trkpt lat="43.54274" lon="1.43669">
        <ele>139.05</ele>
        <time>2017-07-02T08:15:46Z</time>
      </trkpt>
      <trkpt lat="43.54297" lon="1.43698">
        <ele>140.01</ele>
        <time>2017-07-02T08:15:51Z</time>
      </trkpt>
      <trkpt lat="43.54333" lon="1.43768">
        <ele>140.01</ele>
        <time>2017-07-02T08:16:01Z</time>
      </trkpt>
      <trkpt lat="43.54365" lon="1.4384">
        <ele>140.01</ele>
        <time>2017-07-02T08:16:12Z</time>
      </trkpt>
      <trkpt lat="43.54368" lon="1.43845">
        <ele>140.01</ele>
        <time>2017-07-02T08:16:13Z</time>
      </trkpt>
      <trkpt lat="43.54373" lon="1.43849">
        <ele>140.01</ele>
        <time>2017-07-02T08:16:14Z</time>
      </trkpt>
      <trkpt lat="43.54379" lon="1.43852">
        <ele>140.01</ele>
        <time>2017-07-02T08:16:15Z</time>
      </trkpt>
      <trkpt lat="43.54384" lon="1.43854">
        <ele>140.01</ele>
        <time>2017-07-02T08:16:16Z</time>
      </trkpt>
      <trkpt lat="43.54451" lon="1.43884">
        <ele>140.01</ele>
        <time>2017-07-02T08:16:28Z</time>
      </trkpt>
      <trkpt lat="43.54456" lon="1.43887">
        <ele>140.01</ele>
        <time>2017-07-02T08:16:29Z</time>
      </trkpt>
      <trkpt lat="43.5449" lon="1.4391">
        <ele>139.05</ele>
        <time>2017-07-02T08:16:36Z</time>
      </trkpt>
      <trkpt lat="43.54495" lon="1.43913">
        <ele>139.05</ele>
        <time>2017-07-02T08:16:37Z</time>
      </trkpt>
      <trkpt lat="43.54502" lon="1.43915">
        <ele>139.05</ele>
        <time>2017-07-02T08:16:38Z</time>
      </trkpt>
      <trkpt lat="43.54508" lon="1.43917">
        <ele>139.05</ele>
        <time>2017-07-02T08:16:39Z</time>
      </trkpt>
      <trkpt lat="43.54514" lon="1.43917">
        <ele>139.05</ele>
        <time>2017-07-02T08:16:40Z</time>
      </trkpt>
      <trkpt lat="43.54517" lon="1.43917">
        <ele>139.05</ele>
        <time>2017-07-02T08:16:41Z</time>
      </trkpt>
      <trkpt lat="43.54521" lon="1.43916">
        <ele>139.05</ele>
        <time>2017-07-02T08:16:42Z</time>
      </trkpt>
      <trkpt lat="43.54558" lon="1.43907">
        <ele>139.05</ele>
        <time>2017-07-02T08:16:49Z</time>
      </trkpt>
      <trkpt lat="43.54565" lon="1.43908">
        <ele>139.05</ele>
        <time>2017-07-02T08:16:50Z</time>
      </trkpt>
      <trkpt lat="43.54638" lon="1.43927">
        <ele>140.01</ele>
        <time>2017-07-02T08:17:01Z</time>
      </trkpt>
      <trkpt lat="43.54697" lon="1.43934">
        <ele>140.01</ele>
        <time>2017-07-02T08:17:11Z</time>
      </trkpt>
      <trkpt lat="43.54772" lon="1.43932">
        <ele>140.97</ele>
        <time>2017-07-02T08:17:23Z</time>
      </trkpt>
      <trkpt lat="43.54833" lon="1.43932">
        <ele>140.01</ele>
        <time>2017-07-02T08:17:32Z</time>
      </trkpt>
      <trkpt lat="43.5484" lon="1.43933">
        <ele>140.01</ele>
        <time>2017-07-02T08:17:33Z</time>
      </trkpt>
      <trkpt lat="43.54904" lon="1.43946">
        <ele>140.01</ele>
        <time>2017-07-02T08:17:44Z</time>
      </trkpt>
      <trkpt lat="43.54955" lon="1.43974">
        <ele>140.97</ele>
        <time>2017-07-02T08:17:54Z</time>
      </trkpt>
      <trkpt lat="43.55009" lon="1.43991">
        <ele>141.93</ele>
        <time>2017-07-02T08:18:05Z</time>
      </trkpt>
      <trkpt lat="43.55052" lon="1.44012">
        <ele>142.89</ele>
        <time>2017-07-02T08:18:14Z</time>
      </trkpt>
      <trkpt lat="43.55095" lon="1.44035">
        <ele>143.85</ele>
        <time>2017-07-02T08:18:23Z</time>
      </trkpt>
      <trkpt lat="43.55135" lon="1.44058">
        <ele>145.78</ele>
        <time>2017-07-02T08:18:34Z</time>
      </trkpt>
      <trkpt lat="43.55181" lon="1.44069">
        <ele>148.18</ele>
        <time>2017-07-02T08:18:46Z</time>
      </trkpt>
      <trkpt lat="43.55243" lon="1.44082">
        <ele>149.14</ele>
        <time>2017-07-02T08:19:00Z</time>
      </trkpt>
      <trkpt lat="43.55293" lon="1.44094">
        <ele>151.06</ele>
        <time>2017-07-02T08:19:12Z</time>
      </trkpt>
      <trkpt lat="43.55344" lon="1.44105">
        <ele>152.99</ele>
        <time>2017-07-02T08:19:23Z</time>
      </trkpt>
      <trkpt lat="43.55413" lon="1.44111">
        <ele>152.99</ele>
        <time>2017-07-02T08:19:34Z</time>
      </trkpt>
      <trkpt lat="43.55496" lon="1.44106">
        <ele>151.06</ele>
        <time>2017-07-02T08:19:44Z</time>
      </trkpt>
      <trkpt lat="43.55557" lon="1.44108">
        <ele>148.18</ele>
        <time>2017-07-02T08:19:51Z</time>
      </trkpt>
      <trkpt lat="43.55632" lon="1.44119">
        <ele>144.82</ele>
        <time>2017-07-02T08:20:01Z</time>
      </trkpt>
      <trkpt lat="43.55655" lon="1.44123">
        <ele>144.82</ele>
        <time>2017-07-02T08:20:05Z</time>
      </trkpt>
      <trkpt lat="43.55706" lon="1.44132">
        <ele>148.18</ele>
        <time>2017-07-02T08:20:16Z</time>
      </trkpt>
      <trkpt lat="43.55755" lon="1.4413">
        <ele>150.1</ele>
        <time>2017-07-02T08:20:27Z</time>
      </trkpt>
      <trkpt lat="43.55813" lon="1.44092">
        <ele>150.1</ele>
        <time>2017-07-02T08:20:39Z</time>
      </trkpt>
      <trkpt lat="43.55869" lon="1.44037">
        <ele>149.14</ele>
        <time>2017-07-02T08:20:49Z</time>
      </trkpt>
      <trkpt lat="43.55938" lon="1.44006">
        <ele>145.78</ele>
        <time>2017-07-02T08:20:58Z</time>
      </trkpt>
      <trkpt lat="43.55946" lon="1.44006">
        <ele>145.78</ele>
        <time>2017-07-02T08:20:59Z</time>
      </trkpt>
      <trkpt lat="43.56023" lon="1.44011">
        <ele>142.89</ele>
        <time>2017-07-02T08:21:09Z</time>
      </trkpt>
      <trkpt lat="43.56047" lon="1.44008">
        <ele>142.89</ele>
        <time>2017-07-02T08:21:12Z</time>
      </trkpt>
      <trkpt lat="43.56115" lon="1.4399">
        <ele>140.01</ele>
        <time>2017-07-02T08:21:21Z</time>
      </trkpt>
      <trkpt lat="43.56179" lon="1.43973">
        <ele>139.05</ele>
        <time>2017-07-02T08:21:31Z</time>
      </trkpt>
      <trkpt lat="43.56256" lon="1.43958">
        <ele>140.97</ele>
        <time>2017-07-02T08:21:45Z</time>
      </trkpt>
      <trkpt lat="43.56309" lon="1.43948">
        <ele>140.97</ele>
        <time>2017-07-02T08:21:54Z</time>
      </trkpt>
      <trkpt lat="43.56371" lon="1.43949">
        <ele>140.97</ele>
        <time>2017-07-02T08:22:04Z</time>
      </trkpt>
      <trkpt lat="43.56421" lon="1.43969">
        <ele>140.97</ele>
        <time>2017-07-02T08:22:13Z</time>
      </trkpt>
      <trkpt lat="43.56491" lon="1.43987">
        <ele>141.93</ele>
        <time>2017-07-02T08:22:25Z</time>
      </trkpt>
      <trkpt lat="43.56558" lon="1.43991">
        <ele>142.89</ele>
        <time>2017-07-02T08:22:34Z</time>
      </trkpt>
      <trkpt lat="43.56615" lon="1.43996">
        <ele>140.97</ele>
        <time>2017-07-02T08:22:43Z</time>
      </trkpt>
      <trkpt lat="43.56685" lon="1.43997">
        <ele>140.97</ele>
        <time>2017-07-02T08:22:54Z</time>
      </trkpt>
      <trkpt lat="43.56752" lon="1.43988">
        <ele>140.97</ele>
        <time>2017-07-02T08:23:05Z</time>
      </trkpt>
      <trkpt lat="43.56821" lon="1.43973">
        <ele>140.01</ele>
        <time>2017-07-02T08:23:15Z</time>
      </trkpt>
      <trkpt lat="43.56888" lon="1.43962">
        <ele>139.05</ele>
        <time>2017-07-02T08:23:25Z</time>
      </trkpt>
      <trkpt lat="43.56975" lon="1.43946">
        <ele>139.05</ele>
        <time>2017-07-02T08:23:37Z</time>
      </trkpt>
      <trkpt lat="43.57058" lon="1.4393">
        <ele>138.09</ele>
        <time>2017-07-02T08:23:49Z</time>
      </trkpt>
      <trkpt lat="43.5713" lon="1.43915">
        <ele>137.13</ele>
        <time>2017-07-02T08:24:00Z</time>
      </trkpt>
      <trkpt lat="43.57189" lon="1.43881">
        <ele>137.13</ele>
        <time>2017-07-02T08:24:12Z</time>
      </trkpt>
      <trkpt lat="43.57244" lon="1.43833">
        <ele>138.09</ele>
        <time>2017-07-02T08:24:22Z</time>
      </trkpt>
      <trkpt lat="43.57269" lon="1.4381">
        <ele>137.13</ele>
        <time>2017-07-02T08:24:26Z</time>
      </trkpt>
      <trkpt lat="43.57275" lon="1.43805">
        <ele>137.13</ele>
        <time>2017-07-02T08:24:27Z</time>
      </trkpt>
      <trkpt lat="43.57334" lon="1.43747">
        <ele>135.2</ele>
        <time>2017-07-02T08:24:38Z</time>
      </trkpt>
      <trkpt lat="43.57371" lon="1.43711">
        <ele>136.16</ele>
        <time>2017-07-02T08:24:48Z</time>
      </trkpt>
      <trkpt lat="43.57404" lon="1.43703">
        <ele>139.05</ele>
        <time>2017-07-02T08:24:58Z</time>
      </trkpt>
      <trkpt lat="43.57429" lon="1.43713">
        <ele>140.97</ele>
        <time>2017-07-02T08:25:07Z</time>
      </trkpt>
      <trkpt lat="43.57469" lon="1.43739">
        <ele>142.89</ele>
        <time>2017-07-02T08:25:19Z</time>
      </trkpt>
      <trkpt lat="43.57492" lon="1.43751">
        <ele>142.89</ele>
        <time>2017-07-02T08:25:24Z</time>
      </trkpt>
      <trkpt lat="43.57498" lon="1.43752">
        <ele>142.89</ele>
        <time>2017-07-02T08:25:25Z</time>
      </trkpt>
      <trkpt lat="43.57503" lon="1.43751">
        <ele>142.89</ele>
        <time>2017-07-02T08:25:26Z</time>
      </trkpt>
      <trkpt lat="43.57509" lon="1.43749">
        <ele>142.89</ele>
        <time>2017-07-02T08:25:27Z</time>
      </trkpt>
      <trkpt lat="43.57514" lon="1.43745">
        <ele>142.89</ele>
        <time>2017-07-02T08:25:28Z</time>
      </trkpt>
      <trkpt lat="43.57519" lon="1.4374">
        <ele>142.89</ele>
        <time>2017-07-02T08:25:29Z</time>
      </trkpt>
      <trkpt lat="43.57523" lon="1.43733">
        <ele>141.93</ele>
        <time>2017-07-02T08:25:30Z</time>
      </trkpt>
      <trkpt lat="43.57526" lon="1.43725">
        <ele>141.93</ele>
        <time>2017-07-02T08:25:31Z</time>
      </trkpt>
      <trkpt lat="43.57529" lon="1.43716">
        <ele>141.93</ele>
        <time>2017-07-02T08:25:32Z</time>
      </trkpt>
      <trkpt lat="43.57549" lon="1.43662">
        <ele>140.97</ele>
        <time>2017-07-02T08:25:38Z</time>
      </trkpt>
      <trkpt lat="43.57553" lon="1.43655">
        <ele>140.97</ele>
        <time>2017-07-02T08:25:39Z</time>
      </trkpt>
      <trkpt lat="43.57559" lon="1.4365">
        <ele>140.01</ele>
        <time>2017-07-02T08:25:40Z</time>
      </trkpt>
      <trkpt lat="43.57565" lon="1.43647">
        <ele>140.01</ele>
        <time>2017-07-02T08:25:41Z</time>
      </trkpt>
      <trkpt lat="43.5757" lon="1.43644">
        <ele>139.05</ele>
        <time>2017-07-02T08:25:42Z</time>
      </trkpt>
      <trkpt lat="43.57576" lon="1.43641">
        <ele>138.09</ele>
        <time>2017-07-02T08:25:43Z</time>
      </trkpt>
      <trkpt lat="43.57582" lon="1.4364">
        <ele>138.09</ele>
        <time>2017-07-02T08:25:44Z</time>
      </trkpt>
      <trkpt lat="43.57661" lon="1.43642">
        <ele>138.09</ele>
        <time>2017-07-02T08:25:57Z</time>
      </trkpt>
      <trkpt lat="43.57713" lon="1.43656">
        <ele>138.09</ele>
        <time>2017-07-02T08:26:06Z</time>
      </trkpt>
      <trkpt lat="43.57724" lon="1.43659">
        <ele>138.09</ele>
        <time>2017-07-02T08:26:08Z</time>
      </trkpt>
      <trkpt lat="43.57729" lon="1.43662">
        <ele>138.09</ele>
        <time>2017-07-02T08:26:09Z</time>
      </trkpt>
      <trkpt lat="43.57732" lon="1.43667">
        <ele>138.09</ele>
        <time>2017-07-02T08:26:10Z</time>
      </trkpt>
      <trkpt lat="43.57735" lon="1.43673">
        <ele>138.09</ele>
        <time>2017-07-02T08:26:11Z</time>
      </trkpt>
      <trkpt lat="43.57736" lon="1.4368">
        <ele>138.09</ele>
        <time>2017-07-02T08:26:12Z</time>
      </trkpt>
      <trkpt lat="43.57737" lon="1.43687">
        <ele>138.09</ele>
        <time>2017-07-02T08:26:13Z</time>
      </trkpt>
      <trkpt lat="43.57737" lon="1.43694">
        <ele>138.09</ele>
        <time>2017-07-02T08:26:14Z</time>
      </trkpt>
      <trkpt lat="43.57737" lon="1.43701">
        <ele>138.09</ele>
        <time>2017-07-02T08:26:15Z</time>
      </trkpt>
      <trkpt lat="43.5773" lon="1.43781">
        <ele>137.13</ele>
        <time>2017-07-02T08:26:25Z</time>
      </trkpt>
      <trkpt lat="43.57726" lon="1.43844">
        <ele>137.13</ele>
        <time>2017-07-02T08:26:32Z</time>
      </trkpt>
      <trkpt lat="43.57725" lon="1.43852">
        <ele>137.13</ele>
        <time>2017-07-02T08:26:33Z</time>
      </trkpt>
      <trkpt lat="43.5772" lon="1.4395">
        <ele>136.16</ele>
        <time>2017-07-02T08:26:44Z</time>
      </trkpt>
      <trkpt lat="43.57717" lon="1.43993">
        <ele>136.16</ele>
        <time>2017-07-02T08:26:51Z</time>
      </trkpt>
      <trkpt lat="43.57716" lon="1.44008">
        <ele>136.16</ele>
        <time>2017-07-02T08:26:54Z</time>
      </trkpt>
      <trkpt lat="43.57715" lon="1.44014">
        <ele>136.16</ele>
        <time>2017-07-02T08:26:55Z</time>
      </trkpt>
      <trkpt lat="43.57714" lon="1.44027">
        <ele>137.13</ele>
        <time>2017-07-02T08:26:57Z</time>
      </trkpt>
      <trkpt lat="43.57714" lon="1.44034">
        <ele>137.13</ele>
        <time>2017-07-02T08:26:58Z</time>
      </trkpt>
      <trkpt lat="43.57717" lon="1.44079">
        <ele>137.13</ele>
        <time>2017-07-02T08:27:04Z</time>
      </trkpt>
      <trkpt lat="43.57716" lon="1.44086">
        <ele>137.13</ele>
        <time>2017-07-02T08:27:05Z</time>
      </trkpt>
      <trkpt lat="43.57715" lon="1.441">
        <ele>137.13</ele>
        <time>2017-07-02T08:27:07Z</time>
      </trkpt>
      <trkpt lat="43.57714" lon="1.44116">
        <ele>137.13</ele>
        <time>2017-07-02T08:27:09Z</time>
      </trkpt>
      <trkpt lat="43.57713" lon="1.44123">
        <ele>137.13</ele>
        <time>2017-07-02T08:27:10Z</time>
      </trkpt>
      <trkpt lat="43.57712" lon="1.44131">
        <ele>137.13</ele>
        <time>2017-07-02T08:27:11Z</time>
      </trkpt>
      <trkpt lat="43.5771" lon="1.44139">
        <ele>137.13</ele>
        <time>2017-07-02T08:27:12Z</time>
      </trkpt>
      <trkpt lat="43.57707" lon="1.44147">
        <ele>137.13</ele>
        <time>2017-07-02T08:27:13Z</time>
      </trkpt>
      <trkpt lat="43.57689" lon="1.442">
        <ele>136.16</ele>
        <time>2017-07-02T08:27:20Z</time>
      </trkpt>
      <trkpt lat="43.57684" lon="1.44205">
        <ele>136.16</ele>
        <time>2017-07-02T08:27:21Z</time>
      </trkpt>
      <trkpt lat="43.5768" lon="1.44211">
        <ele>136.16</ele>
        <time>2017-07-02T08:27:22Z</time>
      </trkpt>
      <trkpt lat="43.57677" lon="1.44217">
        <ele>136.16</ele>
        <time>2017-07-02T08:27:23Z</time>
      </trkpt>
      <trkpt lat="43.57678" lon="1.44224">
        <ele>136.16</ele>
        <time>2017-07-02T08:27:24Z</time>
      </trkpt>
      <trkpt lat="43.57682" lon="1.44229">
        <ele>136.16</ele>
        <time>2017-07-02T08:27:25Z</time>
      </trkpt>
      <trkpt lat="43.57686" lon="1.44232">
        <ele>136.16</ele>
        <time>2017-07-02T08:27:26Z</time>
      </trkpt>
      <trkpt lat="43.57691" lon="1.44233">
        <ele>136.16</ele>
        <time>2017-07-02T08:27:27Z</time>
      </trkpt>
      <trkpt lat="43.57695" lon="1.44235">
        <ele>136.16</ele>
        <time>2017-07-02T08:27:28Z</time>
      </trkpt>
      <trkpt lat="43.57699" lon="1.44239">
        <ele>136.16</ele>
        <time>2017-07-02T08:27:29Z</time>
      </trkpt>
      <trkpt lat="43.57703" lon="1.44242">
        <ele>136.16</ele>
        <time>2017-07-02T08:27:30Z</time>
      </trkpt>
      <trkpt lat="43.57707" lon="1.44246">
        <ele>136.16</ele>
        <time>2017-07-02T08:27:31Z</time>
      </trkpt>
      <trkpt lat="43.57712" lon="1.44249">
        <ele>136.16</ele>
        <time>2017-07-02T08:27:32Z</time>
      </trkpt>
      <trkpt lat="43.57762" lon="1.4428">
        <ele>137.13</ele>
        <time>2017-07-02T08:27:43Z</time>
      </trkpt>
      <trkpt lat="43.57765" lon="1.44285">
        <ele>137.13</ele>
        <time>2017-07-02T08:27:44Z</time>
      </trkpt>
      <trkpt lat="43.57768" lon="1.44291">
        <ele>137.13</ele>
        <time>2017-07-02T08:27:45Z</time>
      </trkpt>
      <trkpt lat="43.57769" lon="1.44296">
        <ele>137.13</ele>
        <time>2017-07-02T08:27:46Z</time>
      </trkpt>
      <trkpt lat="43.57771" lon="1.44302">
        <ele>137.13</ele>
        <time>2017-07-02T08:27:47Z</time>
      </trkpt>
      <trkpt lat="43.57774" lon="1.44307">
        <ele>137.13</ele>
        <time>2017-07-02T08:27:48Z</time>
      </trkpt>
      <trkpt lat="43.57778" lon="1.4431">
        <ele>137.13</ele>
        <time>2017-07-02T08:27:49Z</time>
      </trkpt>
      <trkpt lat="43.57782" lon="1.44313">
        <ele>137.13</ele>
        <time>2017-07-02T08:27:50Z</time>
      </trkpt>
      <trkpt lat="43.57786" lon="1.44317">
        <ele>137.13</ele>
        <time>2017-07-02T08:27:51Z</time>
      </trkpt>
      <trkpt lat="43.57822" lon="1.44338">
        <ele>138.09</ele>
        <time>2017-07-02T08:27:58Z</time>
      </trkpt>
      <trkpt lat="43.57826" lon="1.44343">
        <ele>138.09</ele>
        <time>2017-07-02T08:27:59Z</time>
      </trkpt>
      <trkpt lat="43.5783" lon="1.44349">
        <ele>138.09</ele>
        <time>2017-07-02T08:28:00Z</time>
      </trkpt>
      <trkpt lat="43.57867" lon="1.44411">
        <ele>138.09</ele>
        <time>2017-07-02T08:28:10Z</time>
      </trkpt>
      <trkpt lat="43.57919" lon="1.44504">
        <ele>139.05</ele>
        <time>2017-07-02T08:28:26Z</time>
      </trkpt>
      <trkpt lat="43.57942" lon="1.44549">
        <ele>140.01</ele>
        <time>2017-07-02T08:28:34Z</time>
      </trkpt>
      <trkpt lat="43.57977" lon="1.44593">
        <ele>140.97</ele>
        <time>2017-07-02T08:28:45Z</time>
      </trkpt>
      <trkpt lat="43.57979" lon="1.44591">
        <ele>140.97</ele>
        <time>2017-07-02T08:28:46Z</time>
      </trkpt>
      <trkpt lat="43.57982" lon="1.44588">
        <ele>140.97</ele>
        <time>2017-07-02T08:28:47Z</time>
      </trkpt>
      <trkpt lat="43.57986" lon="1.44584">
        <ele>140.97</ele>
        <time>2017-07-02T08:28:48Z</time>
      </trkpt>
      <trkpt lat="43.57989" lon="1.4458">
        <ele>140.97</ele>
        <time>2017-07-02T08:28:49Z</time>
      </trkpt>
      <trkpt lat="43.58032" lon="1.44525">
        <ele>141.93</ele>
        <time>2017-07-02T08:29:01Z</time>
      </trkpt>
      <trkpt lat="43.5807" lon="1.44481">
        <ele>141.93</ele>
        <time>2017-07-02T08:29:12Z</time>
      </trkpt>
      <trkpt lat="43.58064" lon="1.44485">
        <ele>141.93</ele>
        <time>2017-07-02T08:29:16Z</time>
      </trkpt>
      <trkpt lat="43.58065" lon="1.44499">
        <ele>141.93</ele>
        <time>2017-07-02T08:29:19Z</time>
      </trkpt>
      <trkpt lat="43.58067" lon="1.44505">
        <ele>141.93</ele>
        <time>2017-07-02T08:29:20Z</time>
      </trkpt>
      <trkpt lat="43.58068" lon="1.44513">
        <ele>141.93</ele>
        <time>2017-07-02T08:29:21Z</time>
      </trkpt>
      <trkpt lat="43.5807" lon="1.44527">
        <ele>141.93</ele>
        <time>2017-07-02T08:29:23Z</time>
      </trkpt>
      <trkpt lat="43.58071" lon="1.44534">
        <ele>141.93</ele>
        <time>2017-07-02T08:29:24Z</time>
      </trkpt>
      <trkpt lat="43.58087" lon="1.44641">
        <ele>141.93</ele>
        <time>2017-07-02T08:29:38Z</time>
      </trkpt>
      <trkpt lat="43.58089" lon="1.44654">
        <ele>141.93</ele>
        <time>2017-07-02T08:29:40Z</time>
      </trkpt>
      <trkpt lat="43.58089" lon="1.4466">
        <ele>141.93</ele>
        <time>2017-07-02T08:29:41Z</time>
      </trkpt>
      <trkpt lat="43.58089" lon="1.44666">
        <ele>141.93</ele>
        <time>2017-07-02T08:29:42Z</time>
      </trkpt>
      <trkpt lat="43.5809" lon="1.44673">
        <ele>141.93</ele>
        <time>2017-07-02T08:29:43Z</time>
      </trkpt>
      <trkpt lat="43.5809" lon="1.44678">
        <ele>141.93</ele>
        <time>2017-07-02T08:29:44Z</time>
      </trkpt>
      <trkpt lat="43.58091" lon="1.44684">
        <ele>141.93</ele>
        <time>2017-07-02T08:29:45Z</time>
      </trkpt>
      <trkpt lat="43.58091" lon="1.44691">
        <ele>141.93</ele>
        <time>2017-07-02T08:29:46Z</time>
      </trkpt>
      <trkpt lat="43.58091" lon="1.44698">
        <ele>141.93</ele>
        <time>2017-07-02T08:29:47Z</time>
      </trkpt>
      <trkpt lat="43.58091" lon="1.44706">
        <ele>141.93</ele>
        <time>2017-07-02T08:29:48Z</time>
      </trkpt>
      <trkpt lat="43.58092" lon="1.44713">
        <ele>141.93</ele>
        <time>2017-07-02T08:29:49Z</time>
      </trkpt>
      <trkpt lat="43.58094" lon="1.4472">
        <ele>141.93</ele>
        <time>2017-07-02T08:29:50Z</time>
      </trkpt>
      <trkpt lat="43.58104" lon="1.44766">
        <ele>141.93</ele>
        <time>2017-07-02T08:29:57Z</time>
      </trkpt>
      <trkpt lat="43.58124" lon="1.44855">
        <ele>141.93</ele>
        <time>2017-07-02T08:30:09Z</time>
      </trkpt>
      <trkpt lat="43.58128" lon="1.44867">
        <ele>141.93</ele>
        <time>2017-07-02T08:30:11Z</time>
      </trkpt>
      <trkpt lat="43.58132" lon="1.44878">
        <ele>140.97</ele>
        <time>2017-07-02T08:30:13Z</time>
      </trkpt>
      <trkpt lat="43.58133" lon="1.44883">
        <ele>140.97</ele>
        <time>2017-07-02T08:30:14Z</time>
      </trkpt>
      <trkpt lat="43.58133" lon="1.44905">
        <ele>140.97</ele>
        <time>2017-07-02T08:30:21Z</time>
      </trkpt>
      <trkpt lat="43.58135" lon="1.44905">
        <ele>140.97</ele>
        <time>2017-07-02T08:30:22Z</time>
      </trkpt>
      <trkpt lat="43.58137" lon="1.44904">
        <ele>140.97</ele>
        <time>2017-07-02T08:30:23Z</time>
      </trkpt>
      <trkpt lat="43.58138" lon="1.44902">
        <ele>140.97</ele>
        <time>2017-07-02T08:30:24Z</time>
      </trkpt>
      <trkpt lat="43.58143" lon="1.449">
        <ele>140.97</ele>
        <time>2017-07-02T08:30:26Z</time>
      </trkpt>
      <trkpt lat="43.58148" lon="1.44901">
        <ele>140.97</ele>
        <time>2017-07-02T08:30:27Z</time>
      </trkpt>
      <trkpt lat="43.58152" lon="1.44904">
        <ele>140.97</ele>
        <time>2017-07-02T08:30:28Z</time>
      </trkpt>
      <trkpt lat="43.58157" lon="1.44908">
        <ele>140.97</ele>
        <time>2017-07-02T08:30:29Z</time>
      </trkpt>
      <trkpt lat="43.58161" lon="1.44913">
        <ele>140.97</ele>
        <time>2017-07-02T08:30:30Z</time>
      </trkpt>
      <trkpt lat="43.58167" lon="1.44918">
        <ele>140.97</ele>
        <time>2017-07-02T08:30:31Z</time>
      </trkpt>
      <trkpt lat="43.58173" lon="1.44922">
        <ele>140.97</ele>
        <time>2017-07-02T08:30:32Z</time>
      </trkpt>
      <trkpt lat="43.58214" lon="1.44954">
        <ele>140.01</ele>
        <time>2017-07-02T08:30:40Z</time>
      </trkpt>
      <trkpt lat="43.58219" lon="1.44958">
        <ele>140.01</ele>
        <time>2017-07-02T08:30:41Z</time>
      </trkpt>
      <trkpt lat="43.58223" lon="1.44961">
        <ele>140.01</ele>
        <time>2017-07-02T08:30:42Z</time>
      </trkpt>
      <trkpt lat="43.58282" lon="1.45002">
        <ele>140.01</ele>
        <time>2017-07-02T08:30:54Z</time>
      </trkpt>
      <trkpt lat="43.58292" lon="1.45009">
        <ele>140.01</ele>
        <time>2017-07-02T08:30:56Z</time>
      </trkpt>
      <trkpt lat="43.58306" lon="1.45018">
        <ele>140.01</ele>
        <time>2017-07-02T08:30:59Z</time>
      </trkpt>
      <trkpt lat="43.58314" lon="1.45026">
        <ele>140.01</ele>
        <time>2017-07-02T08:31:01Z</time>
      </trkpt>
      <trkpt lat="43.58347" lon="1.45048">
        <ele>140.01</ele>
        <time>2017-07-02T08:31:08Z</time>
      </trkpt>
      <trkpt lat="43.58352" lon="1.4505">
        <ele>140.01</ele>
        <time>2017-07-02T08:31:09Z</time>
      </trkpt>
      <trkpt lat="43.58362" lon="1.45055">
        <ele>140.01</ele>
        <time>2017-07-02T08:31:15Z</time>
      </trkpt>
      <trkpt lat="43.58369" lon="1.45077">
        <ele>140.97</ele>
        <time>2017-07-02T08:31:33Z</time>
      </trkpt>
      <trkpt lat="43.58371" lon="1.45083">
        <ele>140.97</ele>
        <time>2017-07-02T08:31:34Z</time>
      </trkpt>
      <trkpt lat="43.58382" lon="1.45106">
        <ele>140.01</ele>
        <time>2017-07-02T08:31:38Z</time>
      </trkpt>
      <trkpt lat="43.58408" lon="1.4517">
        <ele>140.01</ele>
        <time>2017-07-02T08:31:48Z</time>
      </trkpt>
      <trkpt lat="43.58417" lon="1.4519">
        <ele>140.01</ele>
        <time>2017-07-02T08:31:51Z</time>
      </trkpt>
      <trkpt lat="43.58431" lon="1.45234">
        <ele>140.01</ele>
        <time>2017-07-02T08:31:57Z</time>
      </trkpt>
      <trkpt lat="43.5846" lon="1.45305">
        <ele>140.01</ele>
        <time>2017-07-02T08:32:06Z</time>
      </trkpt>
      <trkpt lat="43.58487" lon="1.45374">
        <ele>140.01</ele>
        <time>2017-07-02T08:32:15Z</time>
      </trkpt>
      <trkpt lat="43.58511" lon="1.45437">
        <ele>140.01</ele>
        <time>2017-07-02T08:32:24Z</time>
      </trkpt>
      <trkpt lat="43.58533" lon="1.4549">
        <ele>140.01</ele>
        <time>2017-07-02T08:32:31Z</time>
      </trkpt>
      <trkpt lat="43.58539" lon="1.45505">
        <ele>140.01</ele>
        <time>2017-07-02T08:32:33Z</time>
      </trkpt>
      <trkpt lat="43.58549" lon="1.45521">
        <ele>140.01</ele>
        <time>2017-07-02T08:32:35Z</time>
      </trkpt>
      <trkpt lat="43.58569" lon="1.45568">
        <ele>140.01</ele>
        <time>2017-07-02T08:32:41Z</time>
      </trkpt>
      <trkpt lat="43.58572" lon="1.45575">
        <ele>139.05</ele>
        <time>2017-07-02T08:32:42Z</time>
      </trkpt>
      <trkpt lat="43.58575" lon="1.45581">
        <ele>139.05</ele>
        <time>2017-07-02T08:32:43Z</time>
      </trkpt>
      <trkpt lat="43.58588" lon="1.45619">
        <ele>139.05</ele>
        <time>2017-07-02T08:32:48Z</time>
      </trkpt>
      <trkpt lat="43.58615" lon="1.45691">
        <ele>140.01</ele>
        <time>2017-07-02T08:32:59Z</time>
      </trkpt>
      <trkpt lat="43.58618" lon="1.45699">
        <ele>140.01</ele>
        <time>2017-07-02T08:33:00Z</time>
      </trkpt>
      <trkpt lat="43.58621" lon="1.45706">
        <ele>140.01</ele>
        <time>2017-07-02T08:33:01Z</time>
      </trkpt>
      <trkpt lat="43.58624" lon="1.45713">
        <ele>140.01</ele>
        <time>2017-07-02T08:33:02Z</time>
      </trkpt>
      <trkpt lat="43.58628" lon="1.45721">
        <ele>140.01</ele>
        <time>2017-07-02T08:33:03Z</time>
      </trkpt>
      <trkpt lat="43.5863" lon="1.45728">
        <ele>140.01</ele>
        <time>2017-07-02T08:33:04Z</time>
      </trkpt>
      <trkpt lat="43.58637" lon="1.45743">
        <ele>140.01</ele>
        <time>2017-07-02T08:33:06Z</time>
      </trkpt>
      <trkpt lat="43.58666" lon="1.45816">
        <ele>140.97</ele>
        <time>2017-07-02T08:33:16Z</time>
      </trkpt>
      <trkpt lat="43.58698" lon="1.4589">
        <ele>141.93</ele>
        <time>2017-07-02T08:33:26Z</time>
      </trkpt>
      <trkpt lat="43.58726" lon="1.45955">
        <ele>141.93</ele>
        <time>2017-07-02T08:33:35Z</time>
      </trkpt>
      <trkpt lat="43.58753" lon="1.46016">
        <ele>142.89</ele>
        <time>2017-07-02T08:33:44Z</time>
      </trkpt>
      <trkpt lat="43.58763" lon="1.46064">
        <ele>143.85</ele>
        <time>2017-07-02T08:33:53Z</time>
      </trkpt>
      <trkpt lat="43.58763" lon="1.46079">
        <ele>145.78</ele>
        <time>2017-07-02T08:33:59Z</time>
      </trkpt>
      <trkpt lat="43.58761" lon="1.46085">
        <ele>145.78</ele>
        <time>2017-07-02T08:34:11Z</time>
      </trkpt>
      <trkpt lat="43.5876" lon="1.46089">
        <ele>145.78</ele>
        <time>2017-07-02T08:34:12Z</time>
      </trkpt>
      <trkpt lat="43.58756" lon="1.46105">
        <ele>145.78</ele>
        <time>2017-07-02T08:34:15Z</time>
      </trkpt>
      <trkpt lat="43.58734" lon="1.46158">
        <ele>145.78</ele>
        <time>2017-07-02T08:34:25Z</time>
      </trkpt>
      <trkpt lat="43.58733" lon="1.46161">
        <ele>144.82</ele>
        <time>2017-07-02T08:34:34Z</time>
      </trkpt>
      <trkpt lat="43.58733" lon="1.46162">
        <ele>144.82</ele>
        <time>2017-07-02T08:34:42Z</time>
      </trkpt>
      <trkpt lat="43.58732" lon="1.46164">
        <ele>144.82</ele>
        <time>2017-07-02T08:34:43Z</time>
      </trkpt>
      <trkpt lat="43.58731" lon="1.46167">
        <ele>144.82</ele>
        <time>2017-07-02T08:34:44Z</time>
      </trkpt>
      <trkpt lat="43.5873" lon="1.4617">
        <ele>144.82</ele>
        <time>2017-07-02T08:34:45Z</time>
      </trkpt>
      <trkpt lat="43.58729" lon="1.46173">
        <ele>144.82</ele>
        <time>2017-07-02T08:34:46Z</time>
      </trkpt>
      <trkpt lat="43.58722" lon="1.462">
        <ele>144.82</ele>
        <time>2017-07-02T08:34:51Z</time>
      </trkpt>
      <trkpt lat="43.58696" lon="1.4628">
        <ele>144.82</ele>
        <time>2017-07-02T08:35:03Z</time>
      </trkpt>
      <trkpt lat="43.5868" lon="1.4632">
        <ele>144.82</ele>
        <time>2017-07-02T08:35:11Z</time>
      </trkpt>
      <trkpt lat="43.5868" lon="1.46325">
        <ele>144.82</ele>
        <time>2017-07-02T08:35:12Z</time>
      </trkpt>
      <trkpt lat="43.58682" lon="1.4633">
        <ele>144.82</ele>
        <time>2017-07-02T08:35:13Z</time>
      </trkpt>
      <trkpt lat="43.58684" lon="1.46334">
        <ele>144.82</ele>
        <time>2017-07-02T08:35:14Z</time>
      </trkpt>
      <trkpt lat="43.58688" lon="1.46337">
        <ele>143.85</ele>
        <time>2017-07-02T08:35:15Z</time>
      </trkpt>
      <trkpt lat="43.58691" lon="1.46339">
        <ele>143.85</ele>
        <time>2017-07-02T08:35:16Z</time>
      </trkpt>
      <trkpt lat="43.58694" lon="1.4634">
        <ele>143.85</ele>
        <time>2017-07-02T08:35:17Z</time>
      </trkpt>
      <trkpt lat="43.58697" lon="1.4634">
        <ele>143.85</ele>
        <time>2017-07-02T08:35:18Z</time>
      </trkpt>
      <trkpt lat="43.58701" lon="1.46339">
        <ele>143.85</ele>
        <time>2017-07-02T08:35:19Z</time>
      </trkpt>
      <trkpt lat="43.58705" lon="1.46338">
        <ele>143.85</ele>
        <time>2017-07-02T08:35:20Z</time>
      </trkpt>
      <trkpt lat="43.58709" lon="1.46337">
        <ele>143.85</ele>
        <time>2017-07-02T08:35:21Z</time>
      </trkpt>
      <trkpt lat="43.58712" lon="1.46336">
        <ele>144.82</ele>
        <time>2017-07-02T08:35:22Z</time>
      </trkpt>
      <trkpt lat="43.58716" lon="1.46335">
        <ele>144.82</ele>
        <time>2017-07-02T08:35:23Z</time>
      </trkpt>
      <trkpt lat="43.5872" lon="1.46335">
        <ele>144.82</ele>
        <time>2017-07-02T08:35:24Z</time>
      </trkpt>
      <trkpt lat="43.58724" lon="1.46336">
        <ele>144.82</ele>
        <time>2017-07-02T08:35:25Z</time>
      </trkpt>
      <trkpt lat="43.58729" lon="1.46337">
        <ele>144.82</ele>
        <time>2017-07-02T08:35:26Z</time>
      </trkpt>
      <trkpt lat="43.58732" lon="1.46338">
        <ele>144.82</ele>
        <time>2017-07-02T08:35:27Z</time>
      </trkpt>
      <trkpt lat="43.58774" lon="1.46345">
        <ele>145.78</ele>
        <time>2017-07-02T08:35:36Z</time>
      </trkpt>
      <trkpt lat="43.58834" lon="1.46352">
        <ele>147.22</ele>
        <time>2017-07-02T08:35:48Z</time>
      </trkpt>
      <trkpt lat="43.58843" lon="1.46353">
        <ele>147.22</ele>
        <time>2017-07-02T08:35:50Z</time>
      </trkpt>
      <trkpt lat="43.58884" lon="1.4636">
        <ele>148.18</ele>
        <time>2017-07-02T08:36:00Z</time>
      </trkpt>
      <trkpt lat="43.58932" lon="1.46367">
        <ele>149.14</ele>
        <time>2017-07-02T08:36:11Z</time>
      </trkpt>
      <trkpt lat="43.58974" lon="1.46377">
        <ele>150.1</ele>
        <time>2017-07-02T08:36:22Z</time>
      </trkpt>
      <trkpt lat="43.59005" lon="1.46399">
        <ele>152.03</ele>
        <time>2017-07-02T08:36:31Z</time>
      </trkpt>
      <trkpt lat="43.59046" lon="1.46426">
        <ele>153.95</ele>
        <time>2017-07-02T08:36:43Z</time>
      </trkpt>
      <trkpt lat="43.59079" lon="1.46449">
        <ele>155.87</ele>
        <time>2017-07-02T08:36:54Z</time>
      </trkpt>
      <trkpt lat="43.59109" lon="1.46465">
        <ele>157.79</ele>
        <time>2017-07-02T08:37:03Z</time>
      </trkpt>
      <trkpt lat="43.59146" lon="1.46477">
        <ele>160.2</ele>
        <time>2017-07-02T08:37:12Z</time>
      </trkpt>
      <trkpt lat="43.59188" lon="1.46491">
        <ele>161.16</ele>
        <time>2017-07-02T08:37:24Z</time>
      </trkpt>
      <trkpt lat="43.59191" lon="1.46499">
        <ele>161.16</ele>
        <time>2017-07-02T08:37:26Z</time>
      </trkpt>
      <trkpt lat="43.59191" lon="1.46505">
        <ele>161.16</ele>
        <time>2017-07-02T08:37:27Z</time>
      </trkpt>
      <trkpt lat="43.5919" lon="1.4651">
        <ele>161.16</ele>
        <time>2017-07-02T08:37:28Z</time>
      </trkpt>
      <trkpt lat="43.59185" lon="1.46533">
        <ele>161.16</ele>
        <time>2017-07-02T08:37:32Z</time>
      </trkpt>
      <trkpt lat="43.59173" lon="1.46605">
        <ele>161.16</ele>
        <time>2017-07-02T08:37:43Z</time>
      </trkpt>
      <trkpt lat="43.59166" lon="1.46671">
        <ele>161.16</ele>
        <time>2017-07-02T08:37:54Z</time>
      </trkpt>
      <trkpt lat="43.59169" lon="1.46676">
        <ele>161.16</ele>
        <time>2017-07-02T08:37:55Z</time>
      </trkpt>
      <trkpt lat="43.59172" lon="1.46681">
        <ele>161.16</ele>
        <time>2017-07-02T08:37:56Z</time>
      </trkpt>
      <trkpt lat="43.59174" lon="1.46685">
        <ele>161.16</ele>
        <time>2017-07-02T08:37:57Z</time>
      </trkpt>
      <trkpt lat="43.59174" lon="1.46691">
        <ele>161.16</ele>
        <time>2017-07-02T08:37:58Z</time>
      </trkpt>
      <trkpt lat="43.59173" lon="1.46697">
        <ele>161.16</ele>
        <time>2017-07-02T08:37:59Z</time>
      </trkpt>
      <trkpt lat="43.59171" lon="1.46703">
        <ele>161.16</ele>
        <time>2017-07-02T08:38:00Z</time>
      </trkpt>
      <trkpt lat="43.5917" lon="1.46708">
        <ele>161.16</ele>
        <time>2017-07-02T08:38:01Z</time>
      </trkpt>
      <trkpt lat="43.59159" lon="1.4675">
        <ele>161.16</ele>
        <time>2017-07-02T08:38:08Z</time>
      </trkpt>
      <trkpt lat="43.59147" lon="1.46801">
        <ele>162.12</ele>
        <time>2017-07-02T08:38:16Z</time>
      </trkpt>
      <trkpt lat="43.59141" lon="1.46846">
        <ele>162.12</ele>
        <time>2017-07-02T08:38:23Z</time>
      </trkpt>
      <trkpt lat="43.5914" lon="1.46851">
        <ele>162.12</ele>
        <time>2017-07-02T08:38:24Z</time>
      </trkpt>
      <trkpt lat="43.5914" lon="1.46857">
        <ele>162.12</ele>
        <time>2017-07-02T08:38:25Z</time>
      </trkpt>
      <trkpt lat="43.59141" lon="1.46863">
        <ele>162.12</ele>
        <time>2017-07-02T08:38:26Z</time>
      </trkpt>
      <trkpt lat="43.59143" lon="1.46868">
        <ele>162.12</ele>
        <time>2017-07-02T08:38:27Z</time>
      </trkpt>
      <trkpt lat="43.59145" lon="1.46873">
        <ele>163.08</ele>
        <time>2017-07-02T08:38:28Z</time>
      </trkpt>
      <trkpt lat="43.59147" lon="1.46878">
        <ele>163.08</ele>
        <time>2017-07-02T08:38:29Z</time>
      </trkpt>
      <trkpt lat="43.59148" lon="1.46883">
        <ele>163.08</ele>
        <time>2017-07-02T08:38:30Z</time>
      </trkpt>
      <trkpt lat="43.59149" lon="1.46888">
        <ele>163.08</ele>
        <time>2017-07-02T08:38:31Z</time>
      </trkpt>
      <trkpt lat="43.59149" lon="1.46892">
        <ele>163.08</ele>
        <time>2017-07-02T08:38:32Z</time>
      </trkpt>
      <trkpt lat="43.59148" lon="1.46896">
        <ele>163.08</ele>
        <time>2017-07-02T08:38:33Z</time>
      </trkpt>
      <trkpt lat="43.59147" lon="1.469">
        <ele>163.08</ele>
        <time>2017-07-02T08:38:34Z</time>
      </trkpt>
      <trkpt lat="43.59145" lon="1.46903">
        <ele>163.08</ele>
        <time>2017-07-02T08:38:35Z</time>
      </trkpt>
      <trkpt lat="43.59143" lon="1.46907">
        <ele>163.08</ele>
        <time>2017-07-02T08:38:36Z</time>
      </trkpt>
      <trkpt lat="43.59135" lon="1.46922">
        <ele>164.04</ele>
        <time>2017-07-02T08:38:41Z</time>
      </trkpt>
      <trkpt lat="43.59126" lon="1.46931">
        <ele>164.04</ele>
        <time>2017-07-02T08:38:49Z</time>
      </trkpt>
      <trkpt lat="43.59123" lon="1.46933">
        <ele>164.04</ele>
        <time>2017-07-02T08:38:50Z</time>
      </trkpt>
      <trkpt lat="43.5912" lon="1.46935">
        <ele>164.04</ele>
        <time>2017-07-02T08:38:51Z</time>
      </trkpt>
      <trkpt lat="43.59117" lon="1.46936">
        <ele>164.04</ele>
        <time>2017-07-02T08:38:52Z</time>
      </trkpt>
      <trkpt lat="43.59114" lon="1.46938">
        <ele>164.04</ele>
        <time>2017-07-02T08:38:53Z</time>
      </trkpt>
      <trkpt lat="43.59112" lon="1.4694">
        <ele>164.04</ele>
        <time>2017-07-02T08:38:54Z</time>
      </trkpt>
      <trkpt lat="43.59106" lon="1.46946">
        <ele>164.04</ele>
        <time>2017-07-02T08:39:02Z</time>
      </trkpt>
      <trkpt lat="43.59104" lon="1.46945">
        <ele>164.04</ele>
        <time>2017-07-02T08:39:08Z</time>
      </trkpt>
      <trkpt lat="43.58972" lon="1.47693">
        <ele>185.19</ele>
        <time>2017-07-02T08:44:41Z</time>
      </trkpt>
      <trkpt lat="43.58971" lon="1.47686">
        <ele>185.19</ele>
        <time>2017-07-02T08:44:45Z</time>
      </trkpt>
    </trkseg>
  </trk>
</gpx>